<?xml version="1.0" encoding="UTF-8" standalone="no" ?>
<gpx xmlns="http://www.topografix.com/GPX/1/1" xmlns:xsi="http://www.w3.org/2001/XMLSchema-instance" xsi:schemaLocation="http://www.topografix.com/GPX/1/1 http://www.topografix.com/GPX/1/1/gpx.xsd" version="1.1" creator="VisuGPX - https://www.visugpx.com">
  <metadata>
    <name>Marche Beaujolais</name>
  </metadata>
  <wpt lat="48.1612" lon="6.5759">
    <ele>398</ele>
  </wpt>
  <trk>
    <name><![CDATA[Marche le matin]]></name>
    <extensions>
      <line xmlns="http://www.topografix.com/GPX/gpx_style/0/2">
        <color>0000FF</color>
        <width>4</width>
      </line>
    </extensions>
    <trkseg>
      <trkpt lat="48.16672" lon="6.57326">
        <ele>414.6</ele>
        <time>2022-11-07T08:43:21Z</time>
      </trkpt>
      <trkpt lat="48.16682" lon="6.57331">
        <ele>418.4</ele>
        <time>2022-11-07T08:43:49Z</time>
      </trkpt>
      <trkpt lat="48.16684" lon="6.57331">
        <ele>418.4</ele>
        <time>2022-11-07T08:43:50Z</time>
      </trkpt>
      <trkpt lat="48.16686" lon="6.57329">
        <ele>417.8</ele>
        <time>2022-11-07T08:43:52Z</time>
      </trkpt>
      <trkpt lat="48.16687" lon="6.57328">
        <ele>417.8</ele>
        <time>2022-11-07T08:43:53Z</time>
      </trkpt>
      <trkpt lat="48.16692" lon="6.57322">
        <ele>417.2</ele>
        <time>2022-11-07T08:44:00Z</time>
      </trkpt>
      <trkpt lat="48.16692" lon="6.57316">
        <ele>417.2</ele>
        <time>2022-11-07T08:44:03Z</time>
      </trkpt>
      <trkpt lat="48.16692" lon="6.57311">
        <ele>417.2</ele>
        <time>2022-11-07T08:44:05Z</time>
      </trkpt>
      <trkpt lat="48.16695" lon="6.57297">
        <ele>418</ele>
        <time>2022-11-07T08:44:15Z</time>
      </trkpt>
      <trkpt lat="48.16695" lon="6.57294">
        <ele>418.4</ele>
        <time>2022-11-07T08:44:17Z</time>
      </trkpt>
      <trkpt lat="48.16699" lon="6.57291">
        <ele>419</ele>
        <time>2022-11-07T08:44:20Z</time>
      </trkpt>
      <trkpt lat="48.16701" lon="6.57289">
        <ele>419.2</ele>
        <time>2022-11-07T08:44:21Z</time>
      </trkpt>
      <trkpt lat="48.16707" lon="6.57281">
        <ele>418.8</ele>
        <time>2022-11-07T08:44:26Z</time>
      </trkpt>
      <trkpt lat="48.1671" lon="6.57278">
        <ele>418.6</ele>
        <time>2022-11-07T08:44:29Z</time>
      </trkpt>
      <trkpt lat="48.16713" lon="6.57275">
        <ele>418.4</ele>
        <time>2022-11-07T08:44:32Z</time>
      </trkpt>
      <trkpt lat="48.16715" lon="6.57274">
        <ele>418.4</ele>
        <time>2022-11-07T08:44:35Z</time>
      </trkpt>
      <trkpt lat="48.16718" lon="6.57271">
        <ele>418.6</ele>
        <time>2022-11-07T08:44:39Z</time>
      </trkpt>
      <trkpt lat="48.16723" lon="6.57271">
        <ele>418.8</ele>
        <time>2022-11-07T08:44:44Z</time>
      </trkpt>
      <trkpt lat="48.16725" lon="6.57271">
        <ele>419</ele>
        <time>2022-11-07T08:44:47Z</time>
      </trkpt>
      <trkpt lat="48.16727" lon="6.5727">
        <ele>419</ele>
        <time>2022-11-07T08:44:51Z</time>
      </trkpt>
      <trkpt lat="48.16729" lon="6.57269">
        <ele>419.2</ele>
        <time>2022-11-07T08:44:53Z</time>
      </trkpt>
      <trkpt lat="48.16734" lon="6.57269">
        <ele>419.4</ele>
        <time>2022-11-07T08:44:57Z</time>
      </trkpt>
      <trkpt lat="48.16737" lon="6.57268">
        <ele>419.2</ele>
        <time>2022-11-07T08:45:00Z</time>
      </trkpt>
      <trkpt lat="48.1674" lon="6.57267">
        <ele>419.2</ele>
        <time>2022-11-07T08:45:03Z</time>
      </trkpt>
      <trkpt lat="48.16744" lon="6.57265">
        <ele>419.4</ele>
        <time>2022-11-07T08:45:07Z</time>
      </trkpt>
      <trkpt lat="48.1675" lon="6.57263">
        <ele>419.2</ele>
        <time>2022-11-07T08:45:15Z</time>
      </trkpt>
      <trkpt lat="48.16751" lon="6.57263">
        <ele>419.2</ele>
        <time>2022-11-07T08:45:16Z</time>
      </trkpt>
      <trkpt lat="48.16756" lon="6.57262">
        <ele>419.2</ele>
        <time>2022-11-07T08:45:21Z</time>
      </trkpt>
      <trkpt lat="48.16759" lon="6.57261">
        <ele>419.2</ele>
        <time>2022-11-07T08:45:24Z</time>
      </trkpt>
      <trkpt lat="48.16776" lon="6.57259">
        <ele>419</ele>
        <time>2022-11-07T08:45:38Z</time>
      </trkpt>
      <trkpt lat="48.16785" lon="6.57257">
        <ele>419</ele>
        <time>2022-11-07T08:45:46Z</time>
      </trkpt>
      <trkpt lat="48.16793" lon="6.57257">
        <ele>419</ele>
        <time>2022-11-07T08:45:52Z</time>
      </trkpt>
      <trkpt lat="48.16796" lon="6.57258">
        <ele>418.8</ele>
        <time>2022-11-07T08:45:54Z</time>
      </trkpt>
      <trkpt lat="48.16802" lon="6.57259">
        <ele>418.4</ele>
        <time>2022-11-07T08:45:59Z</time>
      </trkpt>
      <trkpt lat="48.16809" lon="6.57259">
        <ele>418.2</ele>
        <time>2022-11-07T08:46:04Z</time>
      </trkpt>
      <trkpt lat="48.16817" lon="6.57259">
        <ele>418.4</ele>
        <time>2022-11-07T08:46:11Z</time>
      </trkpt>
      <trkpt lat="48.16818" lon="6.57259">
        <ele>418.6</ele>
        <time>2022-11-07T08:46:13Z</time>
      </trkpt>
      <trkpt lat="48.16836" lon="6.57257">
        <ele>418.6</ele>
        <time>2022-11-07T08:46:28Z</time>
      </trkpt>
      <trkpt lat="48.16846" lon="6.57252">
        <ele>419.2</ele>
        <time>2022-11-07T08:46:40Z</time>
      </trkpt>
      <trkpt lat="48.16849" lon="6.57251">
        <ele>419.4</ele>
        <time>2022-11-07T08:46:44Z</time>
      </trkpt>
      <trkpt lat="48.16853" lon="6.5725">
        <ele>419.4</ele>
        <time>2022-11-07T08:46:48Z</time>
      </trkpt>
      <trkpt lat="48.16865" lon="6.57245">
        <ele>419.4</ele>
        <time>2022-11-07T08:47:00Z</time>
      </trkpt>
      <trkpt lat="48.16866" lon="6.57245">
        <ele>419.4</ele>
        <time>2022-11-07T08:47:01Z</time>
      </trkpt>
      <trkpt lat="48.16868" lon="6.57243">
        <ele>419.4</ele>
        <time>2022-11-07T08:47:03Z</time>
      </trkpt>
      <trkpt lat="48.16874" lon="6.57237">
        <ele>419.2</ele>
        <time>2022-11-07T08:47:09Z</time>
      </trkpt>
      <trkpt lat="48.16875" lon="6.57236">
        <ele>419.2</ele>
        <time>2022-11-07T08:47:10Z</time>
      </trkpt>
      <trkpt lat="48.16876" lon="6.57233">
        <ele>419.4</ele>
        <time>2022-11-07T08:47:12Z</time>
      </trkpt>
      <trkpt lat="48.16879" lon="6.57231">
        <ele>419.4</ele>
        <time>2022-11-07T08:47:16Z</time>
      </trkpt>
      <trkpt lat="48.1688" lon="6.57231">
        <ele>419.4</ele>
        <time>2022-11-07T08:47:17Z</time>
      </trkpt>
      <trkpt lat="48.16881" lon="6.57231">
        <ele>419.4</ele>
        <time>2022-11-07T08:47:18Z</time>
      </trkpt>
      <trkpt lat="48.16892" lon="6.5723">
        <ele>419.4</ele>
        <time>2022-11-07T08:47:28Z</time>
      </trkpt>
      <trkpt lat="48.16894" lon="6.57234">
        <ele>419.2</ele>
        <time>2022-11-07T08:47:32Z</time>
      </trkpt>
      <trkpt lat="48.16896" lon="6.57238">
        <ele>419.4</ele>
        <time>2022-11-07T08:47:35Z</time>
      </trkpt>
      <trkpt lat="48.16899" lon="6.57244">
        <ele>419.6</ele>
        <time>2022-11-07T08:47:38Z</time>
      </trkpt>
      <trkpt lat="48.169" lon="6.57245">
        <ele>419.6</ele>
        <time>2022-11-07T08:47:39Z</time>
      </trkpt>
      <trkpt lat="48.16901" lon="6.57247">
        <ele>419.6</ele>
        <time>2022-11-07T08:47:40Z</time>
      </trkpt>
      <trkpt lat="48.16903" lon="6.5725">
        <ele>419.6</ele>
        <time>2022-11-07T08:47:42Z</time>
      </trkpt>
      <trkpt lat="48.16908" lon="6.57268">
        <ele>419.8</ele>
        <time>2022-11-07T08:47:54Z</time>
      </trkpt>
      <trkpt lat="48.16908" lon="6.57276">
        <ele>419.8</ele>
        <time>2022-11-07T08:47:58Z</time>
      </trkpt>
      <trkpt lat="48.1691" lon="6.57281">
        <ele>420</ele>
        <time>2022-11-07T08:48:01Z</time>
      </trkpt>
      <trkpt lat="48.16911" lon="6.57288">
        <ele>420.2</ele>
        <time>2022-11-07T08:48:05Z</time>
      </trkpt>
      <trkpt lat="48.16911" lon="6.5729">
        <ele>420.2</ele>
        <time>2022-11-07T08:48:06Z</time>
      </trkpt>
      <trkpt lat="48.16921" lon="6.57312">
        <ele>420.2</ele>
        <time>2022-11-07T08:48:19Z</time>
      </trkpt>
      <trkpt lat="48.16928" lon="6.57324">
        <ele>420.8</ele>
        <time>2022-11-07T08:48:26Z</time>
      </trkpt>
      <trkpt lat="48.16928" lon="6.57326">
        <ele>420.8</ele>
        <time>2022-11-07T08:48:27Z</time>
      </trkpt>
      <trkpt lat="48.16929" lon="6.57333">
        <ele>421</ele>
        <time>2022-11-07T08:48:31Z</time>
      </trkpt>
      <trkpt lat="48.1693" lon="6.57335">
        <ele>421</ele>
        <time>2022-11-07T08:48:32Z</time>
      </trkpt>
      <trkpt lat="48.1693" lon="6.57363">
        <ele>421.8</ele>
        <time>2022-11-07T08:48:47Z</time>
      </trkpt>
      <trkpt lat="48.16929" lon="6.57365">
        <ele>422</ele>
        <time>2022-11-07T08:48:48Z</time>
      </trkpt>
      <trkpt lat="48.16929" lon="6.57366">
        <ele>422.2</ele>
        <time>2022-11-07T08:48:49Z</time>
      </trkpt>
      <trkpt lat="48.16933" lon="6.57384">
        <ele>423.2</ele>
        <time>2022-11-07T08:48:59Z</time>
      </trkpt>
      <trkpt lat="48.16933" lon="6.57385">
        <ele>423.2</ele>
        <time>2022-11-07T08:49:00Z</time>
      </trkpt>
      <trkpt lat="48.16939" lon="6.57406">
        <ele>423.6</ele>
        <time>2022-11-07T08:49:13Z</time>
      </trkpt>
      <trkpt lat="48.16937" lon="6.57412">
        <ele>423.6</ele>
        <time>2022-11-07T08:49:16Z</time>
      </trkpt>
      <trkpt lat="48.16936" lon="6.57419">
        <ele>423.8</ele>
        <time>2022-11-07T08:49:19Z</time>
      </trkpt>
      <trkpt lat="48.16939" lon="6.57437">
        <ele>424.4</ele>
        <time>2022-11-07T08:49:29Z</time>
      </trkpt>
      <trkpt lat="48.16939" lon="6.5744">
        <ele>424.4</ele>
        <time>2022-11-07T08:49:31Z</time>
      </trkpt>
      <trkpt lat="48.1694" lon="6.57447">
        <ele>424.4</ele>
        <time>2022-11-07T08:49:35Z</time>
      </trkpt>
      <trkpt lat="48.16941" lon="6.57457">
        <ele>425.2</ele>
        <time>2022-11-07T08:49:42Z</time>
      </trkpt>
      <trkpt lat="48.1694" lon="6.57466">
        <ele>425.4</ele>
        <time>2022-11-07T08:49:47Z</time>
      </trkpt>
      <trkpt lat="48.16941" lon="6.57468">
        <ele>425.4</ele>
        <time>2022-11-07T08:49:48Z</time>
      </trkpt>
      <trkpt lat="48.16945" lon="6.57485">
        <ele>425.8</ele>
        <time>2022-11-07T08:49:59Z</time>
      </trkpt>
      <trkpt lat="48.16949" lon="6.57496">
        <ele>426</ele>
        <time>2022-11-07T08:50:05Z</time>
      </trkpt>
      <trkpt lat="48.1695" lon="6.57499">
        <ele>426.2</ele>
        <time>2022-11-07T08:50:07Z</time>
      </trkpt>
      <trkpt lat="48.16957" lon="6.57503">
        <ele>426.4</ele>
        <time>2022-11-07T08:50:13Z</time>
      </trkpt>
      <trkpt lat="48.16959" lon="6.57503">
        <ele>426.8</ele>
        <time>2022-11-07T08:50:16Z</time>
      </trkpt>
      <trkpt lat="48.16962" lon="6.57502">
        <ele>426.6</ele>
        <time>2022-11-07T08:50:22Z</time>
      </trkpt>
      <trkpt lat="48.16974" lon="6.57494">
        <ele>426</ele>
        <time>2022-11-07T08:50:33Z</time>
      </trkpt>
      <trkpt lat="48.16977" lon="6.5749">
        <ele>425.8</ele>
        <time>2022-11-07T08:50:37Z</time>
      </trkpt>
      <trkpt lat="48.16987" lon="6.5749">
        <ele>425.8</ele>
        <time>2022-11-07T08:50:47Z</time>
      </trkpt>
      <trkpt lat="48.1699" lon="6.57491">
        <ele>425.6</ele>
        <time>2022-11-07T08:50:49Z</time>
      </trkpt>
      <trkpt lat="48.16993" lon="6.57491">
        <ele>425.4</ele>
        <time>2022-11-07T08:50:52Z</time>
      </trkpt>
      <trkpt lat="48.16996" lon="6.5749">
        <ele>425.2</ele>
        <time>2022-11-07T08:50:54Z</time>
      </trkpt>
      <trkpt lat="48.17" lon="6.57489">
        <ele>425.2</ele>
        <time>2022-11-07T08:50:57Z</time>
      </trkpt>
      <trkpt lat="48.17008" lon="6.57487">
        <ele>425.4</ele>
        <time>2022-11-07T08:51:03Z</time>
      </trkpt>
      <trkpt lat="48.17014" lon="6.57483">
        <ele>425.2</ele>
        <time>2022-11-07T08:51:09Z</time>
      </trkpt>
      <trkpt lat="48.17027" lon="6.57477">
        <ele>425.4</ele>
        <time>2022-11-07T08:51:19Z</time>
      </trkpt>
      <trkpt lat="48.17034" lon="6.57474">
        <ele>425.4</ele>
        <time>2022-11-07T08:51:23Z</time>
      </trkpt>
      <trkpt lat="48.17043" lon="6.57472">
        <ele>424.6</ele>
        <time>2022-11-07T08:51:31Z</time>
      </trkpt>
      <trkpt lat="48.17045" lon="6.57472">
        <ele>424.6</ele>
        <time>2022-11-07T08:51:32Z</time>
      </trkpt>
      <trkpt lat="48.17048" lon="6.57472">
        <ele>424.4</ele>
        <time>2022-11-07T08:51:35Z</time>
      </trkpt>
      <trkpt lat="48.17056" lon="6.57469">
        <ele>424.2</ele>
        <time>2022-11-07T08:51:42Z</time>
      </trkpt>
      <trkpt lat="48.17064" lon="6.57464">
        <ele>424.4</ele>
        <time>2022-11-07T08:51:50Z</time>
      </trkpt>
      <trkpt lat="48.17077" lon="6.57457">
        <ele>424.4</ele>
        <time>2022-11-07T08:52:02Z</time>
      </trkpt>
      <trkpt lat="48.17083" lon="6.57454">
        <ele>424.4</ele>
        <time>2022-11-07T08:52:06Z</time>
      </trkpt>
      <trkpt lat="48.17094" lon="6.57451">
        <ele>424.2</ele>
        <time>2022-11-07T08:52:13Z</time>
      </trkpt>
      <trkpt lat="48.17096" lon="6.57451">
        <ele>424.2</ele>
        <time>2022-11-07T08:52:14Z</time>
      </trkpt>
      <trkpt lat="48.17101" lon="6.57449">
        <ele>424.2</ele>
        <time>2022-11-07T08:52:18Z</time>
      </trkpt>
      <trkpt lat="48.17104" lon="6.57448">
        <ele>424.2</ele>
        <time>2022-11-07T08:52:21Z</time>
      </trkpt>
      <trkpt lat="48.17106" lon="6.57447">
        <ele>424</ele>
        <time>2022-11-07T08:52:24Z</time>
      </trkpt>
      <trkpt lat="48.17115" lon="6.57442">
        <ele>423.6</ele>
        <time>2022-11-07T08:52:32Z</time>
      </trkpt>
      <trkpt lat="48.17118" lon="6.5744">
        <ele>423.6</ele>
        <time>2022-11-07T08:52:35Z</time>
      </trkpt>
      <trkpt lat="48.17121" lon="6.57438">
        <ele>423.6</ele>
        <time>2022-11-07T08:52:38Z</time>
      </trkpt>
      <trkpt lat="48.17124" lon="6.57435">
        <ele>423.4</ele>
        <time>2022-11-07T08:52:43Z</time>
      </trkpt>
      <trkpt lat="48.17126" lon="6.57434">
        <ele>423.4</ele>
        <time>2022-11-07T08:52:44Z</time>
      </trkpt>
      <trkpt lat="48.17131" lon="6.57432">
        <ele>423.2</ele>
        <time>2022-11-07T08:52:47Z</time>
      </trkpt>
      <trkpt lat="48.17138" lon="6.57429">
        <ele>423</ele>
        <time>2022-11-07T08:52:52Z</time>
      </trkpt>
      <trkpt lat="48.17149" lon="6.57425">
        <ele>423</ele>
        <time>2022-11-07T08:52:59Z</time>
      </trkpt>
      <trkpt lat="48.17157" lon="6.57424">
        <ele>422.6</ele>
        <time>2022-11-07T08:53:06Z</time>
      </trkpt>
      <trkpt lat="48.17163" lon="6.57422">
        <ele>422.4</ele>
        <time>2022-11-07T08:53:10Z</time>
      </trkpt>
      <trkpt lat="48.17172" lon="6.57419">
        <ele>422.4</ele>
        <time>2022-11-07T08:53:16Z</time>
      </trkpt>
      <trkpt lat="48.17177" lon="6.57418">
        <ele>422.4</ele>
        <time>2022-11-07T08:53:20Z</time>
      </trkpt>
      <trkpt lat="48.17181" lon="6.57415">
        <ele>422.4</ele>
        <time>2022-11-07T08:53:23Z</time>
      </trkpt>
      <trkpt lat="48.17185" lon="6.57413">
        <ele>422.4</ele>
        <time>2022-11-07T08:53:28Z</time>
      </trkpt>
      <trkpt lat="48.17194" lon="6.5741">
        <ele>422.6</ele>
        <time>2022-11-07T08:53:34Z</time>
      </trkpt>
      <trkpt lat="48.17208" lon="6.57406">
        <ele>422.6</ele>
        <time>2022-11-07T08:53:42Z</time>
      </trkpt>
      <trkpt lat="48.17217" lon="6.57403">
        <ele>422.2</ele>
        <time>2022-11-07T08:53:48Z</time>
      </trkpt>
      <trkpt lat="48.17229" lon="6.57398">
        <ele>422.2</ele>
        <time>2022-11-07T08:53:58Z</time>
      </trkpt>
      <trkpt lat="48.17235" lon="6.57395">
        <ele>422.2</ele>
        <time>2022-11-07T08:54:05Z</time>
      </trkpt>
      <trkpt lat="48.17236" lon="6.57395">
        <ele>422.2</ele>
        <time>2022-11-07T08:54:06Z</time>
      </trkpt>
      <trkpt lat="48.17244" lon="6.5739">
        <ele>422.2</ele>
        <time>2022-11-07T08:54:16Z</time>
      </trkpt>
      <trkpt lat="48.17262" lon="6.57383">
        <ele>421.4</ele>
        <time>2022-11-07T08:54:33Z</time>
      </trkpt>
      <trkpt lat="48.17265" lon="6.57382">
        <ele>421.2</ele>
        <time>2022-11-07T08:54:36Z</time>
      </trkpt>
      <trkpt lat="48.17273" lon="6.57381">
        <ele>421</ele>
        <time>2022-11-07T08:54:41Z</time>
      </trkpt>
      <trkpt lat="48.17287" lon="6.57379">
        <ele>420.6</ele>
        <time>2022-11-07T08:54:51Z</time>
      </trkpt>
      <trkpt lat="48.17298" lon="6.57374">
        <ele>420.8</ele>
        <time>2022-11-07T08:54:59Z</time>
      </trkpt>
      <trkpt lat="48.17312" lon="6.5737">
        <ele>420.8</ele>
        <time>2022-11-07T08:55:08Z</time>
      </trkpt>
      <trkpt lat="48.17317" lon="6.5737">
        <ele>420.6</ele>
        <time>2022-11-07T08:55:12Z</time>
      </trkpt>
      <trkpt lat="48.17327" lon="6.57367">
        <ele>421</ele>
        <time>2022-11-07T08:55:19Z</time>
      </trkpt>
      <trkpt lat="48.17333" lon="6.57368">
        <ele>421.2</ele>
        <time>2022-11-07T08:55:24Z</time>
      </trkpt>
      <trkpt lat="48.17336" lon="6.57368">
        <ele>421</ele>
        <time>2022-11-07T08:55:26Z</time>
      </trkpt>
      <trkpt lat="48.17345" lon="6.57372">
        <ele>421.2</ele>
        <time>2022-11-07T08:55:34Z</time>
      </trkpt>
      <trkpt lat="48.17352" lon="6.57374">
        <ele>421.2</ele>
        <time>2022-11-07T08:55:39Z</time>
      </trkpt>
      <trkpt lat="48.17372" lon="6.5738">
        <ele>421.8</ele>
        <time>2022-11-07T08:55:55Z</time>
      </trkpt>
      <trkpt lat="48.17373" lon="6.5738">
        <ele>421.8</ele>
        <time>2022-11-07T08:55:57Z</time>
      </trkpt>
      <trkpt lat="48.17376" lon="6.5738">
        <ele>421.8</ele>
        <time>2022-11-07T08:55:59Z</time>
      </trkpt>
      <trkpt lat="48.17377" lon="6.5738">
        <ele>421.8</ele>
        <time>2022-11-07T08:56:00Z</time>
      </trkpt>
      <trkpt lat="48.17378" lon="6.57379">
        <ele>422</ele>
        <time>2022-11-07T08:56:01Z</time>
      </trkpt>
      <trkpt lat="48.17382" lon="6.57379">
        <ele>422.4</ele>
        <time>2022-11-07T08:56:04Z</time>
      </trkpt>
      <trkpt lat="48.17386" lon="6.57378">
        <ele>422.4</ele>
        <time>2022-11-07T08:56:06Z</time>
      </trkpt>
      <trkpt lat="48.17392" lon="6.57379">
        <ele>422.6</ele>
        <time>2022-11-07T08:56:10Z</time>
      </trkpt>
      <trkpt lat="48.17396" lon="6.5738">
        <ele>422.8</ele>
        <time>2022-11-07T08:56:13Z</time>
      </trkpt>
      <trkpt lat="48.17399" lon="6.57381">
        <ele>422.8</ele>
        <time>2022-11-07T08:56:15Z</time>
      </trkpt>
      <trkpt lat="48.174" lon="6.57382">
        <ele>422.8</ele>
        <time>2022-11-07T08:56:16Z</time>
      </trkpt>
      <trkpt lat="48.17414" lon="6.57388">
        <ele>423</ele>
        <time>2022-11-07T08:56:29Z</time>
      </trkpt>
      <trkpt lat="48.17417" lon="6.57388">
        <ele>422.6</ele>
        <time>2022-11-07T08:56:32Z</time>
      </trkpt>
      <trkpt lat="48.1743" lon="6.57389">
        <ele>422.2</ele>
        <time>2022-11-07T08:56:42Z</time>
      </trkpt>
      <trkpt lat="48.17436" lon="6.5739">
        <ele>422</ele>
        <time>2022-11-07T08:56:47Z</time>
      </trkpt>
      <trkpt lat="48.17439" lon="6.57392">
        <ele>422</ele>
        <time>2022-11-07T08:56:50Z</time>
      </trkpt>
      <trkpt lat="48.17449" lon="6.57396">
        <ele>421.6</ele>
        <time>2022-11-07T08:56:57Z</time>
      </trkpt>
      <trkpt lat="48.17452" lon="6.57397">
        <ele>421</ele>
        <time>2022-11-07T08:57:00Z</time>
      </trkpt>
      <trkpt lat="48.17455" lon="6.57398">
        <ele>420.8</ele>
        <time>2022-11-07T08:57:03Z</time>
      </trkpt>
      <trkpt lat="48.17458" lon="6.57398">
        <ele>420.6</ele>
        <time>2022-11-07T08:57:07Z</time>
      </trkpt>
      <trkpt lat="48.17465" lon="6.57399">
        <ele>420</ele>
        <time>2022-11-07T08:57:14Z</time>
      </trkpt>
      <trkpt lat="48.17467" lon="6.574">
        <ele>419.8</ele>
        <time>2022-11-07T08:57:16Z</time>
      </trkpt>
      <trkpt lat="48.17471" lon="6.574">
        <ele>419.4</ele>
        <time>2022-11-07T08:57:20Z</time>
      </trkpt>
      <trkpt lat="48.17476" lon="6.574">
        <ele>419</ele>
        <time>2022-11-07T08:57:24Z</time>
      </trkpt>
      <trkpt lat="48.17477" lon="6.57401">
        <ele>418.6</ele>
        <time>2022-11-07T08:57:25Z</time>
      </trkpt>
      <trkpt lat="48.17482" lon="6.574">
        <ele>418</ele>
        <time>2022-11-07T08:57:29Z</time>
      </trkpt>
      <trkpt lat="48.17486" lon="6.57402">
        <ele>417.6</ele>
        <time>2022-11-07T08:57:34Z</time>
      </trkpt>
      <trkpt lat="48.1749" lon="6.57404">
        <ele>417.2</ele>
        <time>2022-11-07T08:57:38Z</time>
      </trkpt>
      <trkpt lat="48.17491" lon="6.57404">
        <ele>417</ele>
        <time>2022-11-07T08:57:40Z</time>
      </trkpt>
      <trkpt lat="48.17492" lon="6.57404">
        <ele>416.8</ele>
        <time>2022-11-07T08:57:41Z</time>
      </trkpt>
      <trkpt lat="48.17498" lon="6.57406">
        <ele>415.8</ele>
        <time>2022-11-07T08:57:48Z</time>
      </trkpt>
      <trkpt lat="48.17504" lon="6.5741">
        <ele>414.8</ele>
        <time>2022-11-07T08:57:56Z</time>
      </trkpt>
      <trkpt lat="48.17511" lon="6.57412">
        <ele>414.6</ele>
        <time>2022-11-07T08:58:04Z</time>
      </trkpt>
      <trkpt lat="48.17514" lon="6.57413">
        <ele>414.4</ele>
        <time>2022-11-07T08:58:06Z</time>
      </trkpt>
      <trkpt lat="48.17518" lon="6.57414">
        <ele>414</ele>
        <time>2022-11-07T08:58:09Z</time>
      </trkpt>
      <trkpt lat="48.17521" lon="6.57413">
        <ele>413.8</ele>
        <time>2022-11-07T08:58:12Z</time>
      </trkpt>
      <trkpt lat="48.17526" lon="6.57411">
        <ele>413.8</ele>
        <time>2022-11-07T08:58:17Z</time>
      </trkpt>
      <trkpt lat="48.17527" lon="6.57411">
        <ele>413.6</ele>
        <time>2022-11-07T08:58:18Z</time>
      </trkpt>
      <trkpt lat="48.17536" lon="6.57413">
        <ele>413.2</ele>
        <time>2022-11-07T08:58:25Z</time>
      </trkpt>
      <trkpt lat="48.17542" lon="6.57414">
        <ele>413.2</ele>
        <time>2022-11-07T08:58:31Z</time>
      </trkpt>
      <trkpt lat="48.17545" lon="6.57414">
        <ele>412.8</ele>
        <time>2022-11-07T08:58:34Z</time>
      </trkpt>
      <trkpt lat="48.17546" lon="6.57414">
        <ele>412.8</ele>
        <time>2022-11-07T08:58:35Z</time>
      </trkpt>
      <trkpt lat="48.17559" lon="6.57418">
        <ele>412.6</ele>
        <time>2022-11-07T08:58:44Z</time>
      </trkpt>
      <trkpt lat="48.17564" lon="6.57419">
        <ele>412.6</ele>
        <time>2022-11-07T08:58:48Z</time>
      </trkpt>
      <trkpt lat="48.17566" lon="6.57418">
        <ele>412.8</ele>
        <time>2022-11-07T08:58:50Z</time>
      </trkpt>
      <trkpt lat="48.17568" lon="6.57418">
        <ele>412.8</ele>
        <time>2022-11-07T08:58:51Z</time>
      </trkpt>
      <trkpt lat="48.17573" lon="6.57418">
        <ele>412.4</ele>
        <time>2022-11-07T08:58:54Z</time>
      </trkpt>
      <trkpt lat="48.17583" lon="6.57418">
        <ele>412.2</ele>
        <time>2022-11-07T08:59:00Z</time>
      </trkpt>
      <trkpt lat="48.17594" lon="6.57427">
        <ele>412.2</ele>
        <time>2022-11-07T08:59:12Z</time>
      </trkpt>
      <trkpt lat="48.17597" lon="6.57428">
        <ele>412</ele>
        <time>2022-11-07T08:59:14Z</time>
      </trkpt>
      <trkpt lat="48.17599" lon="6.57429">
        <ele>412</ele>
        <time>2022-11-07T08:59:16Z</time>
      </trkpt>
      <trkpt lat="48.17605" lon="6.5743">
        <ele>412.6</ele>
        <time>2022-11-07T08:59:22Z</time>
      </trkpt>
      <trkpt lat="48.17606" lon="6.57431">
        <ele>412.6</ele>
        <time>2022-11-07T08:59:24Z</time>
      </trkpt>
      <trkpt lat="48.17607" lon="6.57431">
        <ele>412.8</ele>
        <time>2022-11-07T08:59:25Z</time>
      </trkpt>
      <trkpt lat="48.17607" lon="6.57432">
        <ele>412.8</ele>
        <time>2022-11-07T08:59:26Z</time>
      </trkpt>
      <trkpt lat="48.1761" lon="6.57436">
        <ele>412.4</ele>
        <time>2022-11-07T08:59:34Z</time>
      </trkpt>
      <trkpt lat="48.17613" lon="6.57439">
        <ele>412.2</ele>
        <time>2022-11-07T08:59:41Z</time>
      </trkpt>
      <trkpt lat="48.17614" lon="6.57441">
        <ele>412.2</ele>
        <time>2022-11-07T08:59:43Z</time>
      </trkpt>
      <trkpt lat="48.17615" lon="6.57442">
        <ele>412.2</ele>
        <time>2022-11-07T08:59:46Z</time>
      </trkpt>
      <trkpt lat="48.17617" lon="6.57443">
        <ele>412.2</ele>
        <time>2022-11-07T08:59:47Z</time>
      </trkpt>
      <trkpt lat="48.1762" lon="6.57445">
        <ele>412.2</ele>
        <time>2022-11-07T08:59:53Z</time>
      </trkpt>
      <trkpt lat="48.1762" lon="6.57444">
        <ele>412.2</ele>
        <time>2022-11-07T08:59:54Z</time>
      </trkpt>
      <trkpt lat="48.17621" lon="6.57447">
        <ele>412</ele>
        <time>2022-11-07T08:59:59Z</time>
      </trkpt>
      <trkpt lat="48.17622" lon="6.57448">
        <ele>411.8</ele>
        <time>2022-11-07T09:00:03Z</time>
      </trkpt>
      <trkpt lat="48.1762" lon="6.57447">
        <ele>412.2</ele>
        <time>2022-11-07T09:00:14Z</time>
      </trkpt>
      <trkpt lat="48.17618" lon="6.57447">
        <ele>412.2</ele>
        <time>2022-11-07T09:00:23Z</time>
      </trkpt>
      <trkpt lat="48.17615" lon="6.57446">
        <ele>412</ele>
        <time>2022-11-07T09:00:28Z</time>
      </trkpt>
      <trkpt lat="48.17614" lon="6.57442">
        <ele>412.4</ele>
        <time>2022-11-07T09:00:35Z</time>
      </trkpt>
      <trkpt lat="48.17614" lon="6.5744">
        <ele>412.4</ele>
        <time>2022-11-07T09:00:42Z</time>
      </trkpt>
      <trkpt lat="48.17613" lon="6.5744">
        <ele>412.4</ele>
        <time>2022-11-07T09:00:44Z</time>
      </trkpt>
      <trkpt lat="48.17616" lon="6.57439">
        <ele>412.4</ele>
        <time>2022-11-07T09:00:48Z</time>
      </trkpt>
      <trkpt lat="48.17617" lon="6.5744">
        <ele>412</ele>
        <time>2022-11-07T09:00:51Z</time>
      </trkpt>
      <trkpt lat="48.17618" lon="6.57441">
        <ele>411.6</ele>
        <time>2022-11-07T09:00:57Z</time>
      </trkpt>
      <trkpt lat="48.17608" lon="6.57447">
        <ele>411.6</ele>
        <time>2022-11-07T09:01:06Z</time>
      </trkpt>
      <trkpt lat="48.17608" lon="6.57446">
        <ele>411.6</ele>
        <time>2022-11-07T09:01:11Z</time>
      </trkpt>
      <trkpt lat="48.17607" lon="6.57447">
        <ele>411.6</ele>
        <time>2022-11-07T09:01:17Z</time>
      </trkpt>
      <trkpt lat="48.17607" lon="6.57448">
        <ele>411.6</ele>
        <time>2022-11-07T09:01:18Z</time>
      </trkpt>
      <trkpt lat="48.1761" lon="6.57451">
        <ele>411.6</ele>
        <time>2022-11-07T09:01:25Z</time>
      </trkpt>
      <trkpt lat="48.17614" lon="6.57452">
        <ele>411.6</ele>
        <time>2022-11-07T09:01:30Z</time>
      </trkpt>
      <trkpt lat="48.17615" lon="6.57456">
        <ele>411.6</ele>
        <time>2022-11-07T09:01:34Z</time>
      </trkpt>
      <trkpt lat="48.17617" lon="6.57459">
        <ele>411.6</ele>
        <time>2022-11-07T09:01:38Z</time>
      </trkpt>
      <trkpt lat="48.17615" lon="6.57459">
        <ele>412.2</ele>
        <time>2022-11-07T09:02:02Z</time>
      </trkpt>
      <trkpt lat="48.17615" lon="6.57458">
        <ele>412.2</ele>
        <time>2022-11-07T09:02:03Z</time>
      </trkpt>
      <trkpt lat="48.17615" lon="6.57452">
        <ele>411.8</ele>
        <time>2022-11-07T09:02:20Z</time>
      </trkpt>
      <trkpt lat="48.17615" lon="6.57451">
        <ele>411.8</ele>
        <time>2022-11-07T09:02:22Z</time>
      </trkpt>
      <trkpt lat="48.17609" lon="6.57452">
        <ele>412</ele>
        <time>2022-11-07T09:02:39Z</time>
      </trkpt>
      <trkpt lat="48.17609" lon="6.5745">
        <ele>411.6</ele>
        <time>2022-11-07T09:02:48Z</time>
      </trkpt>
      <trkpt lat="48.17609" lon="6.57446">
        <ele>411.4</ele>
        <time>2022-11-07T09:02:55Z</time>
      </trkpt>
      <trkpt lat="48.17608" lon="6.5744">
        <ele>411.6</ele>
        <time>2022-11-07T09:03:10Z</time>
      </trkpt>
      <trkpt lat="48.17607" lon="6.5744">
        <ele>411.6</ele>
        <time>2022-11-07T09:03:25Z</time>
      </trkpt>
      <trkpt lat="48.17608" lon="6.5744">
        <ele>411.8</ele>
        <time>2022-11-07T09:03:28Z</time>
      </trkpt>
      <trkpt lat="48.17609" lon="6.57439">
        <ele>411.8</ele>
        <time>2022-11-07T09:03:34Z</time>
      </trkpt>
      <trkpt lat="48.1761" lon="6.5744">
        <ele>411.8</ele>
        <time>2022-11-07T09:03:35Z</time>
      </trkpt>
      <trkpt lat="48.17611" lon="6.57439">
        <ele>411.8</ele>
        <time>2022-11-07T09:03:43Z</time>
      </trkpt>
      <trkpt lat="48.1761" lon="6.57439">
        <ele>411.8</ele>
        <time>2022-11-07T09:03:52Z</time>
      </trkpt>
      <trkpt lat="48.17607" lon="6.57441">
        <ele>411.8</ele>
        <time>2022-11-07T09:04:01Z</time>
      </trkpt>
      <trkpt lat="48.17614" lon="6.57436">
        <ele>412</ele>
        <time>2022-11-07T09:04:17Z</time>
      </trkpt>
      <trkpt lat="48.17615" lon="6.57437">
        <ele>411.8</ele>
        <time>2022-11-07T09:04:21Z</time>
      </trkpt>
      <trkpt lat="48.17615" lon="6.57436">
        <ele>411.8</ele>
        <time>2022-11-07T09:04:24Z</time>
      </trkpt>
      <trkpt lat="48.17615" lon="6.57435">
        <ele>412.2</ele>
        <time>2022-11-07T09:04:30Z</time>
      </trkpt>
      <trkpt lat="48.17614" lon="6.57436">
        <ele>412.4</ele>
        <time>2022-11-07T09:04:32Z</time>
      </trkpt>
      <trkpt lat="48.17615" lon="6.57437">
        <ele>412</ele>
        <time>2022-11-07T09:04:38Z</time>
      </trkpt>
      <trkpt lat="48.17614" lon="6.57437">
        <ele>412.4</ele>
        <time>2022-11-07T09:04:47Z</time>
      </trkpt>
      <trkpt lat="48.17614" lon="6.57438">
        <ele>412.4</ele>
        <time>2022-11-07T09:04:50Z</time>
      </trkpt>
      <trkpt lat="48.17612" lon="6.57439">
        <ele>411.8</ele>
        <time>2022-11-07T09:04:55Z</time>
      </trkpt>
      <trkpt lat="48.1761" lon="6.5744">
        <ele>411.8</ele>
        <time>2022-11-07T09:05:01Z</time>
      </trkpt>
      <trkpt lat="48.17608" lon="6.57439">
        <ele>411.6</ele>
        <time>2022-11-07T09:05:03Z</time>
      </trkpt>
      <trkpt lat="48.17606" lon="6.57435">
        <ele>411.6</ele>
        <time>2022-11-07T09:05:14Z</time>
      </trkpt>
      <trkpt lat="48.17605" lon="6.57434">
        <ele>411.6</ele>
        <time>2022-11-07T09:05:17Z</time>
      </trkpt>
      <trkpt lat="48.17603" lon="6.57434">
        <ele>411.4</ele>
        <time>2022-11-07T09:05:29Z</time>
      </trkpt>
      <trkpt lat="48.17603" lon="6.57435">
        <ele>411.6</ele>
        <time>2022-11-07T09:05:36Z</time>
      </trkpt>
      <trkpt lat="48.17601" lon="6.57436">
        <ele>411.4</ele>
        <time>2022-11-07T09:05:44Z</time>
      </trkpt>
      <trkpt lat="48.176" lon="6.57437">
        <ele>411.2</ele>
        <time>2022-11-07T09:06:00Z</time>
      </trkpt>
      <trkpt lat="48.17605" lon="6.57443">
        <ele>411.2</ele>
        <time>2022-11-07T09:06:06Z</time>
      </trkpt>
      <trkpt lat="48.17607" lon="6.57445">
        <ele>411.4</ele>
        <time>2022-11-07T09:06:08Z</time>
      </trkpt>
      <trkpt lat="48.17608" lon="6.57447">
        <ele>411.4</ele>
        <time>2022-11-07T09:06:10Z</time>
      </trkpt>
      <trkpt lat="48.17612" lon="6.57448">
        <ele>411.4</ele>
        <time>2022-11-07T09:06:12Z</time>
      </trkpt>
      <trkpt lat="48.17615" lon="6.57452">
        <ele>411.8</ele>
        <time>2022-11-07T09:06:16Z</time>
      </trkpt>
      <trkpt lat="48.17618" lon="6.57455">
        <ele>412</ele>
        <time>2022-11-07T09:06:18Z</time>
      </trkpt>
      <trkpt lat="48.17625" lon="6.57461">
        <ele>411.6</ele>
        <time>2022-11-07T09:06:25Z</time>
      </trkpt>
      <trkpt lat="48.17626" lon="6.57462">
        <ele>411.4</ele>
        <time>2022-11-07T09:06:26Z</time>
      </trkpt>
      <trkpt lat="48.17628" lon="6.57464">
        <ele>411.4</ele>
        <time>2022-11-07T09:06:28Z</time>
      </trkpt>
      <trkpt lat="48.17632" lon="6.57471">
        <ele>410.8</ele>
        <time>2022-11-07T09:06:33Z</time>
      </trkpt>
      <trkpt lat="48.17633" lon="6.57472">
        <ele>410.6</ele>
        <time>2022-11-07T09:06:34Z</time>
      </trkpt>
      <trkpt lat="48.17634" lon="6.57474">
        <ele>410.6</ele>
        <time>2022-11-07T09:06:35Z</time>
      </trkpt>
      <trkpt lat="48.17641" lon="6.57488">
        <ele>410</ele>
        <time>2022-11-07T09:06:44Z</time>
      </trkpt>
      <trkpt lat="48.1765" lon="6.57499">
        <ele>409.8</ele>
        <time>2022-11-07T09:06:53Z</time>
      </trkpt>
      <trkpt lat="48.17651" lon="6.57501">
        <ele>409.8</ele>
        <time>2022-11-07T09:06:54Z</time>
      </trkpt>
      <trkpt lat="48.17657" lon="6.57511">
        <ele>409.6</ele>
        <time>2022-11-07T09:06:59Z</time>
      </trkpt>
      <trkpt lat="48.17657" lon="6.57512">
        <ele>409.6</ele>
        <time>2022-11-07T09:07:00Z</time>
      </trkpt>
      <trkpt lat="48.17661" lon="6.57519">
        <ele>409.6</ele>
        <time>2022-11-07T09:07:05Z</time>
      </trkpt>
      <trkpt lat="48.17671" lon="6.57533">
        <ele>408.8</ele>
        <time>2022-11-07T09:07:14Z</time>
      </trkpt>
      <trkpt lat="48.17673" lon="6.57536">
        <ele>408.8</ele>
        <time>2022-11-07T09:07:16Z</time>
      </trkpt>
      <trkpt lat="48.17677" lon="6.57541">
        <ele>408.4</ele>
        <time>2022-11-07T09:07:21Z</time>
      </trkpt>
      <trkpt lat="48.17687" lon="6.57554">
        <ele>407.4</ele>
        <time>2022-11-07T09:07:31Z</time>
      </trkpt>
      <trkpt lat="48.17687" lon="6.57555">
        <ele>407.4</ele>
        <time>2022-11-07T09:07:32Z</time>
      </trkpt>
      <trkpt lat="48.17693" lon="6.57567">
        <ele>406.6</ele>
        <time>2022-11-07T09:07:47Z</time>
      </trkpt>
      <trkpt lat="48.17695" lon="6.57571">
        <ele>406.2</ele>
        <time>2022-11-07T09:07:51Z</time>
      </trkpt>
      <trkpt lat="48.177" lon="6.57577">
        <ele>405.8</ele>
        <time>2022-11-07T09:07:59Z</time>
      </trkpt>
      <trkpt lat="48.17703" lon="6.57579">
        <ele>405.4</ele>
        <time>2022-11-07T09:08:02Z</time>
      </trkpt>
      <trkpt lat="48.17705" lon="6.57578">
        <ele>405</ele>
        <time>2022-11-07T09:08:03Z</time>
      </trkpt>
      <trkpt lat="48.17706" lon="6.57579">
        <ele>404.8</ele>
        <time>2022-11-07T09:08:04Z</time>
      </trkpt>
      <trkpt lat="48.17707" lon="6.57579">
        <ele>404.8</ele>
        <time>2022-11-07T09:08:05Z</time>
      </trkpt>
      <trkpt lat="48.1771" lon="6.5758">
        <ele>404</ele>
        <time>2022-11-07T09:08:10Z</time>
      </trkpt>
      <trkpt lat="48.17712" lon="6.57581">
        <ele>403.6</ele>
        <time>2022-11-07T09:08:13Z</time>
      </trkpt>
      <trkpt lat="48.17713" lon="6.57585">
        <ele>403.2</ele>
        <time>2022-11-07T09:08:17Z</time>
      </trkpt>
      <trkpt lat="48.17713" lon="6.57586">
        <ele>403</ele>
        <time>2022-11-07T09:08:19Z</time>
      </trkpt>
      <trkpt lat="48.17714" lon="6.57586">
        <ele>402.8</ele>
        <time>2022-11-07T09:08:20Z</time>
      </trkpt>
      <trkpt lat="48.17715" lon="6.57588">
        <ele>402.4</ele>
        <time>2022-11-07T09:08:24Z</time>
      </trkpt>
      <trkpt lat="48.17715" lon="6.57589">
        <ele>402.4</ele>
        <time>2022-11-07T09:08:25Z</time>
      </trkpt>
      <trkpt lat="48.17715" lon="6.5759">
        <ele>402</ele>
        <time>2022-11-07T09:08:27Z</time>
      </trkpt>
      <trkpt lat="48.17715" lon="6.57591">
        <ele>401.8</ele>
        <time>2022-11-07T09:08:28Z</time>
      </trkpt>
      <trkpt lat="48.17717" lon="6.57595">
        <ele>401.4</ele>
        <time>2022-11-07T09:08:34Z</time>
      </trkpt>
      <trkpt lat="48.17719" lon="6.57598">
        <ele>401.2</ele>
        <time>2022-11-07T09:08:36Z</time>
      </trkpt>
      <trkpt lat="48.1772" lon="6.57599">
        <ele>401</ele>
        <time>2022-11-07T09:08:37Z</time>
      </trkpt>
      <trkpt lat="48.1772" lon="6.576">
        <ele>401</ele>
        <time>2022-11-07T09:08:39Z</time>
      </trkpt>
      <trkpt lat="48.17717" lon="6.57601">
        <ele>401</ele>
        <time>2022-11-07T09:08:46Z</time>
      </trkpt>
      <trkpt lat="48.17717" lon="6.57602">
        <ele>401</ele>
        <time>2022-11-07T09:08:47Z</time>
      </trkpt>
      <trkpt lat="48.17717" lon="6.57605">
        <ele>400.6</ele>
        <time>2022-11-07T09:08:55Z</time>
      </trkpt>
      <trkpt lat="48.17718" lon="6.57608">
        <ele>400</ele>
        <time>2022-11-07T09:09:01Z</time>
      </trkpt>
      <trkpt lat="48.1772" lon="6.57609">
        <ele>399.8</ele>
        <time>2022-11-07T09:09:03Z</time>
      </trkpt>
      <trkpt lat="48.17724" lon="6.5761">
        <ele>399</ele>
        <time>2022-11-07T09:09:09Z</time>
      </trkpt>
      <trkpt lat="48.17725" lon="6.57609">
        <ele>399</ele>
        <time>2022-11-07T09:09:10Z</time>
      </trkpt>
      <trkpt lat="48.17726" lon="6.57611">
        <ele>398.8</ele>
        <time>2022-11-07T09:09:12Z</time>
      </trkpt>
      <trkpt lat="48.1773" lon="6.57616">
        <ele>398.2</ele>
        <time>2022-11-07T09:09:18Z</time>
      </trkpt>
      <trkpt lat="48.1773" lon="6.57618">
        <ele>398.2</ele>
        <time>2022-11-07T09:09:19Z</time>
      </trkpt>
      <trkpt lat="48.17732" lon="6.57619">
        <ele>398.2</ele>
        <time>2022-11-07T09:09:20Z</time>
      </trkpt>
      <trkpt lat="48.17734" lon="6.5762">
        <ele>397.8</ele>
        <time>2022-11-07T09:09:22Z</time>
      </trkpt>
      <trkpt lat="48.17736" lon="6.57621">
        <ele>397.6</ele>
        <time>2022-11-07T09:09:23Z</time>
      </trkpt>
      <trkpt lat="48.17736" lon="6.57622">
        <ele>397.4</ele>
        <time>2022-11-07T09:09:24Z</time>
      </trkpt>
      <trkpt lat="48.17737" lon="6.57628">
        <ele>396.8</ele>
        <time>2022-11-07T09:09:28Z</time>
      </trkpt>
      <trkpt lat="48.17737" lon="6.5763">
        <ele>396.6</ele>
        <time>2022-11-07T09:09:29Z</time>
      </trkpt>
      <trkpt lat="48.17738" lon="6.57634">
        <ele>396</ele>
        <time>2022-11-07T09:09:32Z</time>
      </trkpt>
      <trkpt lat="48.17742" lon="6.5764">
        <ele>395.4</ele>
        <time>2022-11-07T09:09:36Z</time>
      </trkpt>
      <trkpt lat="48.17744" lon="6.57642">
        <ele>395.2</ele>
        <time>2022-11-07T09:09:38Z</time>
      </trkpt>
      <trkpt lat="48.17745" lon="6.57645">
        <ele>395</ele>
        <time>2022-11-07T09:09:40Z</time>
      </trkpt>
      <trkpt lat="48.17745" lon="6.57646">
        <ele>394.8</ele>
        <time>2022-11-07T09:09:41Z</time>
      </trkpt>
      <trkpt lat="48.17748" lon="6.57651">
        <ele>394.2</ele>
        <time>2022-11-07T09:09:45Z</time>
      </trkpt>
      <trkpt lat="48.17749" lon="6.57652">
        <ele>394</ele>
        <time>2022-11-07T09:09:47Z</time>
      </trkpt>
      <trkpt lat="48.17751" lon="6.57654">
        <ele>393.6</ele>
        <time>2022-11-07T09:09:52Z</time>
      </trkpt>
      <trkpt lat="48.17752" lon="6.57655">
        <ele>393.2</ele>
        <time>2022-11-07T09:09:54Z</time>
      </trkpt>
      <trkpt lat="48.17753" lon="6.57655">
        <ele>393.2</ele>
        <time>2022-11-07T09:09:55Z</time>
      </trkpt>
      <trkpt lat="48.17754" lon="6.57656">
        <ele>393</ele>
        <time>2022-11-07T09:09:57Z</time>
      </trkpt>
      <trkpt lat="48.17755" lon="6.57659">
        <ele>393</ele>
        <time>2022-11-07T09:10:03Z</time>
      </trkpt>
      <trkpt lat="48.17757" lon="6.57666">
        <ele>393.2</ele>
        <time>2022-11-07T09:10:09Z</time>
      </trkpt>
      <trkpt lat="48.17757" lon="6.57669">
        <ele>393.2</ele>
        <time>2022-11-07T09:10:11Z</time>
      </trkpt>
      <trkpt lat="48.1776" lon="6.57681">
        <ele>393</ele>
        <time>2022-11-07T09:10:22Z</time>
      </trkpt>
      <trkpt lat="48.17757" lon="6.57687">
        <ele>393</ele>
        <time>2022-11-07T09:10:28Z</time>
      </trkpt>
      <trkpt lat="48.1775" lon="6.57691">
        <ele>393.2</ele>
        <time>2022-11-07T09:10:34Z</time>
      </trkpt>
      <trkpt lat="48.17749" lon="6.57692">
        <ele>393.2</ele>
        <time>2022-11-07T09:10:35Z</time>
      </trkpt>
      <trkpt lat="48.17748" lon="6.57693">
        <ele>393.4</ele>
        <time>2022-11-07T09:10:36Z</time>
      </trkpt>
      <trkpt lat="48.17747" lon="6.57694">
        <ele>393.4</ele>
        <time>2022-11-07T09:10:37Z</time>
      </trkpt>
      <trkpt lat="48.17745" lon="6.57696">
        <ele>393.4</ele>
        <time>2022-11-07T09:10:39Z</time>
      </trkpt>
      <trkpt lat="48.17744" lon="6.57697">
        <ele>393.6</ele>
        <time>2022-11-07T09:10:41Z</time>
      </trkpt>
      <trkpt lat="48.17743" lon="6.57698">
        <ele>393.8</ele>
        <time>2022-11-07T09:10:42Z</time>
      </trkpt>
      <trkpt lat="48.17743" lon="6.57699">
        <ele>393.8</ele>
        <time>2022-11-07T09:10:43Z</time>
      </trkpt>
      <trkpt lat="48.17741" lon="6.57701">
        <ele>394.2</ele>
        <time>2022-11-07T09:10:46Z</time>
      </trkpt>
      <trkpt lat="48.17741" lon="6.57704">
        <ele>394.2</ele>
        <time>2022-11-07T09:10:48Z</time>
      </trkpt>
      <trkpt lat="48.1774" lon="6.57705">
        <ele>394.4</ele>
        <time>2022-11-07T09:10:49Z</time>
      </trkpt>
      <trkpt lat="48.17738" lon="6.57707">
        <ele>394.8</ele>
        <time>2022-11-07T09:10:52Z</time>
      </trkpt>
      <trkpt lat="48.17737" lon="6.57707">
        <ele>394.8</ele>
        <time>2022-11-07T09:10:54Z</time>
      </trkpt>
      <trkpt lat="48.17735" lon="6.5771">
        <ele>395.4</ele>
        <time>2022-11-07T09:10:59Z</time>
      </trkpt>
      <trkpt lat="48.17734" lon="6.57711">
        <ele>395.6</ele>
        <time>2022-11-07T09:11:01Z</time>
      </trkpt>
      <trkpt lat="48.17733" lon="6.57713">
        <ele>395.6</ele>
        <time>2022-11-07T09:11:03Z</time>
      </trkpt>
      <trkpt lat="48.17728" lon="6.57717">
        <ele>396.2</ele>
        <time>2022-11-07T09:11:10Z</time>
      </trkpt>
      <trkpt lat="48.17725" lon="6.57718">
        <ele>396.4</ele>
        <time>2022-11-07T09:11:13Z</time>
      </trkpt>
      <trkpt lat="48.17718" lon="6.57723">
        <ele>397.2</ele>
        <time>2022-11-07T09:11:21Z</time>
      </trkpt>
      <trkpt lat="48.17714" lon="6.57726">
        <ele>397.6</ele>
        <time>2022-11-07T09:11:25Z</time>
      </trkpt>
      <trkpt lat="48.17712" lon="6.57728">
        <ele>397.8</ele>
        <time>2022-11-07T09:11:27Z</time>
      </trkpt>
      <trkpt lat="48.1771" lon="6.5773">
        <ele>398.2</ele>
        <time>2022-11-07T09:11:29Z</time>
      </trkpt>
      <trkpt lat="48.1771" lon="6.57732">
        <ele>398.4</ele>
        <time>2022-11-07T09:11:30Z</time>
      </trkpt>
      <trkpt lat="48.17708" lon="6.57733">
        <ele>398.4</ele>
        <time>2022-11-07T09:11:31Z</time>
      </trkpt>
      <trkpt lat="48.17707" lon="6.57734">
        <ele>398.6</ele>
        <time>2022-11-07T09:11:32Z</time>
      </trkpt>
      <trkpt lat="48.17707" lon="6.57735">
        <ele>398.6</ele>
        <time>2022-11-07T09:11:33Z</time>
      </trkpt>
      <trkpt lat="48.17704" lon="6.57738">
        <ele>399</ele>
        <time>2022-11-07T09:11:36Z</time>
      </trkpt>
      <trkpt lat="48.17702" lon="6.5774">
        <ele>399.2</ele>
        <time>2022-11-07T09:11:38Z</time>
      </trkpt>
      <trkpt lat="48.177" lon="6.57745">
        <ele>399.8</ele>
        <time>2022-11-07T09:11:41Z</time>
      </trkpt>
      <trkpt lat="48.17699" lon="6.57746">
        <ele>399.8</ele>
        <time>2022-11-07T09:11:42Z</time>
      </trkpt>
      <trkpt lat="48.17694" lon="6.5775">
        <ele>400.6</ele>
        <time>2022-11-07T09:11:47Z</time>
      </trkpt>
      <trkpt lat="48.1769" lon="6.57753">
        <ele>401.6</ele>
        <time>2022-11-07T09:11:51Z</time>
      </trkpt>
      <trkpt lat="48.17687" lon="6.57755">
        <ele>401.8</ele>
        <time>2022-11-07T09:11:53Z</time>
      </trkpt>
      <trkpt lat="48.17683" lon="6.57761">
        <ele>402</ele>
        <time>2022-11-07T09:11:57Z</time>
      </trkpt>
      <trkpt lat="48.17681" lon="6.57763">
        <ele>402.2</ele>
        <time>2022-11-07T09:11:59Z</time>
      </trkpt>
      <trkpt lat="48.17678" lon="6.57766">
        <ele>403</ele>
        <time>2022-11-07T09:12:02Z</time>
      </trkpt>
      <trkpt lat="48.17671" lon="6.57774">
        <ele>404</ele>
        <time>2022-11-07T09:12:09Z</time>
      </trkpt>
      <trkpt lat="48.17668" lon="6.57779">
        <ele>404.2</ele>
        <time>2022-11-07T09:12:13Z</time>
      </trkpt>
      <trkpt lat="48.17665" lon="6.57785">
        <ele>405</ele>
        <time>2022-11-07T09:12:18Z</time>
      </trkpt>
      <trkpt lat="48.17664" lon="6.57787">
        <ele>405.2</ele>
        <time>2022-11-07T09:12:20Z</time>
      </trkpt>
      <trkpt lat="48.17659" lon="6.57797">
        <ele>406</ele>
        <time>2022-11-07T09:12:28Z</time>
      </trkpt>
      <trkpt lat="48.17656" lon="6.578">
        <ele>406.2</ele>
        <time>2022-11-07T09:12:31Z</time>
      </trkpt>
      <trkpt lat="48.1765" lon="6.57806">
        <ele>406.8</ele>
        <time>2022-11-07T09:12:39Z</time>
      </trkpt>
      <trkpt lat="48.17649" lon="6.57809">
        <ele>407</ele>
        <time>2022-11-07T09:12:41Z</time>
      </trkpt>
      <trkpt lat="48.17645" lon="6.57812">
        <ele>407.4</ele>
        <time>2022-11-07T09:12:45Z</time>
      </trkpt>
      <trkpt lat="48.17638" lon="6.57819">
        <ele>408</ele>
        <time>2022-11-07T09:12:53Z</time>
      </trkpt>
      <trkpt lat="48.17636" lon="6.5782">
        <ele>408</ele>
        <time>2022-11-07T09:12:54Z</time>
      </trkpt>
      <trkpt lat="48.17634" lon="6.57822">
        <ele>408.2</ele>
        <time>2022-11-07T09:12:56Z</time>
      </trkpt>
      <trkpt lat="48.1763" lon="6.57824">
        <ele>408.6</ele>
        <time>2022-11-07T09:12:59Z</time>
      </trkpt>
      <trkpt lat="48.17627" lon="6.57829">
        <ele>409.2</ele>
        <time>2022-11-07T09:13:04Z</time>
      </trkpt>
      <trkpt lat="48.17623" lon="6.57839">
        <ele>410</ele>
        <time>2022-11-07T09:13:12Z</time>
      </trkpt>
      <trkpt lat="48.17623" lon="6.5784">
        <ele>410.2</ele>
        <time>2022-11-07T09:13:13Z</time>
      </trkpt>
      <trkpt lat="48.17622" lon="6.57853">
        <ele>411.2</ele>
        <time>2022-11-07T09:13:20Z</time>
      </trkpt>
      <trkpt lat="48.17618" lon="6.57863">
        <ele>412</ele>
        <time>2022-11-07T09:13:28Z</time>
      </trkpt>
      <trkpt lat="48.17615" lon="6.57869">
        <ele>412.4</ele>
        <time>2022-11-07T09:13:32Z</time>
      </trkpt>
      <trkpt lat="48.17608" lon="6.57876">
        <ele>412.8</ele>
        <time>2022-11-07T09:13:40Z</time>
      </trkpt>
      <trkpt lat="48.17602" lon="6.57882">
        <ele>413.2</ele>
        <time>2022-11-07T09:13:45Z</time>
      </trkpt>
      <trkpt lat="48.176" lon="6.57885">
        <ele>413.2</ele>
        <time>2022-11-07T09:13:47Z</time>
      </trkpt>
      <trkpt lat="48.17589" lon="6.57903">
        <ele>413.4</ele>
        <time>2022-11-07T09:14:02Z</time>
      </trkpt>
      <trkpt lat="48.17587" lon="6.57908">
        <ele>413.8</ele>
        <time>2022-11-07T09:14:05Z</time>
      </trkpt>
      <trkpt lat="48.17586" lon="6.57909">
        <ele>413.8</ele>
        <time>2022-11-07T09:14:07Z</time>
      </trkpt>
      <trkpt lat="48.17583" lon="6.57911">
        <ele>413.8</ele>
        <time>2022-11-07T09:14:10Z</time>
      </trkpt>
      <trkpt lat="48.17582" lon="6.57914">
        <ele>413.8</ele>
        <time>2022-11-07T09:14:12Z</time>
      </trkpt>
      <trkpt lat="48.17579" lon="6.57918">
        <ele>414</ele>
        <time>2022-11-07T09:14:15Z</time>
      </trkpt>
      <trkpt lat="48.17578" lon="6.57919">
        <ele>414</ele>
        <time>2022-11-07T09:14:16Z</time>
      </trkpt>
      <trkpt lat="48.17576" lon="6.5792">
        <ele>414</ele>
        <time>2022-11-07T09:14:18Z</time>
      </trkpt>
      <trkpt lat="48.17572" lon="6.57921">
        <ele>414</ele>
        <time>2022-11-07T09:14:21Z</time>
      </trkpt>
      <trkpt lat="48.1757" lon="6.57923">
        <ele>414.2</ele>
        <time>2022-11-07T09:14:23Z</time>
      </trkpt>
      <trkpt lat="48.17569" lon="6.57924">
        <ele>414.2</ele>
        <time>2022-11-07T09:14:24Z</time>
      </trkpt>
      <trkpt lat="48.17565" lon="6.57927">
        <ele>414.2</ele>
        <time>2022-11-07T09:14:27Z</time>
      </trkpt>
      <trkpt lat="48.1756" lon="6.57931">
        <ele>414.4</ele>
        <time>2022-11-07T09:14:31Z</time>
      </trkpt>
      <trkpt lat="48.17559" lon="6.57932">
        <ele>414.4</ele>
        <time>2022-11-07T09:14:32Z</time>
      </trkpt>
      <trkpt lat="48.17548" lon="6.57937">
        <ele>414.4</ele>
        <time>2022-11-07T09:14:39Z</time>
      </trkpt>
      <trkpt lat="48.17545" lon="6.57938">
        <ele>414.6</ele>
        <time>2022-11-07T09:14:42Z</time>
      </trkpt>
      <trkpt lat="48.17541" lon="6.57939">
        <ele>414.8</ele>
        <time>2022-11-07T09:14:47Z</time>
      </trkpt>
      <trkpt lat="48.1754" lon="6.57939">
        <ele>414.8</ele>
        <time>2022-11-07T09:14:51Z</time>
      </trkpt>
      <trkpt lat="48.1754" lon="6.57938">
        <ele>415</ele>
        <time>2022-11-07T09:14:53Z</time>
      </trkpt>
      <trkpt lat="48.17535" lon="6.5794">
        <ele>414.6</ele>
        <time>2022-11-07T09:15:03Z</time>
      </trkpt>
      <trkpt lat="48.17534" lon="6.5794">
        <ele>415</ele>
        <time>2022-11-07T09:15:08Z</time>
      </trkpt>
      <trkpt lat="48.17533" lon="6.5794">
        <ele>414.8</ele>
        <time>2022-11-07T09:15:13Z</time>
      </trkpt>
      <trkpt lat="48.1753" lon="6.57939">
        <ele>414.6</ele>
        <time>2022-11-07T09:15:27Z</time>
      </trkpt>
      <trkpt lat="48.17529" lon="6.57938">
        <ele>414.8</ele>
        <time>2022-11-07T09:15:29Z</time>
      </trkpt>
      <trkpt lat="48.17528" lon="6.57939">
        <ele>415</ele>
        <time>2022-11-07T09:15:33Z</time>
      </trkpt>
      <trkpt lat="48.17527" lon="6.57939">
        <ele>415</ele>
        <time>2022-11-07T09:15:36Z</time>
      </trkpt>
      <trkpt lat="48.17526" lon="6.57939">
        <ele>415.2</ele>
        <time>2022-11-07T09:15:37Z</time>
      </trkpt>
      <trkpt lat="48.17524" lon="6.57941">
        <ele>415</ele>
        <time>2022-11-07T09:15:44Z</time>
      </trkpt>
      <trkpt lat="48.17522" lon="6.57944">
        <ele>415.2</ele>
        <time>2022-11-07T09:15:57Z</time>
      </trkpt>
      <trkpt lat="48.17517" lon="6.57945">
        <ele>415.2</ele>
        <time>2022-11-07T09:16:10Z</time>
      </trkpt>
      <trkpt lat="48.17519" lon="6.57947">
        <ele>415.2</ele>
        <time>2022-11-07T09:16:13Z</time>
      </trkpt>
      <trkpt lat="48.17521" lon="6.57948">
        <ele>415.2</ele>
        <time>2022-11-07T09:16:15Z</time>
      </trkpt>
      <trkpt lat="48.17522" lon="6.57948">
        <ele>415</ele>
        <time>2022-11-07T09:16:16Z</time>
      </trkpt>
      <trkpt lat="48.17523" lon="6.57949">
        <ele>415</ele>
        <time>2022-11-07T09:16:17Z</time>
      </trkpt>
      <trkpt lat="48.17524" lon="6.5795">
        <ele>415</ele>
        <time>2022-11-07T09:16:18Z</time>
      </trkpt>
      <trkpt lat="48.17526" lon="6.57951">
        <ele>415</ele>
        <time>2022-11-07T09:16:20Z</time>
      </trkpt>
      <trkpt lat="48.17527" lon="6.57952">
        <ele>415</ele>
        <time>2022-11-07T09:16:21Z</time>
      </trkpt>
      <trkpt lat="48.17529" lon="6.57953">
        <ele>415.2</ele>
        <time>2022-11-07T09:16:23Z</time>
      </trkpt>
      <trkpt lat="48.17532" lon="6.57954">
        <ele>415.2</ele>
        <time>2022-11-07T09:16:26Z</time>
      </trkpt>
      <trkpt lat="48.17533" lon="6.57955">
        <ele>415.2</ele>
        <time>2022-11-07T09:16:28Z</time>
      </trkpt>
      <trkpt lat="48.17534" lon="6.57955">
        <ele>415.2</ele>
        <time>2022-11-07T09:16:29Z</time>
      </trkpt>
      <trkpt lat="48.17535" lon="6.57955">
        <ele>415.2</ele>
        <time>2022-11-07T09:16:30Z</time>
      </trkpt>
      <trkpt lat="48.17537" lon="6.57956">
        <ele>415.2</ele>
        <time>2022-11-07T09:16:33Z</time>
      </trkpt>
      <trkpt lat="48.17544" lon="6.57957">
        <ele>415.4</ele>
        <time>2022-11-07T09:16:39Z</time>
      </trkpt>
      <trkpt lat="48.17546" lon="6.57957">
        <ele>415.4</ele>
        <time>2022-11-07T09:16:40Z</time>
      </trkpt>
      <trkpt lat="48.17548" lon="6.57956">
        <ele>415.4</ele>
        <time>2022-11-07T09:16:42Z</time>
      </trkpt>
      <trkpt lat="48.1755" lon="6.57953">
        <ele>415.4</ele>
        <time>2022-11-07T09:16:45Z</time>
      </trkpt>
      <trkpt lat="48.17559" lon="6.57954">
        <ele>415.6</ele>
        <time>2022-11-07T09:16:53Z</time>
      </trkpt>
      <trkpt lat="48.17561" lon="6.57955">
        <ele>415.6</ele>
        <time>2022-11-07T09:16:55Z</time>
      </trkpt>
      <trkpt lat="48.17568" lon="6.57956">
        <ele>415.6</ele>
        <time>2022-11-07T09:17:00Z</time>
      </trkpt>
      <trkpt lat="48.17575" lon="6.57954">
        <ele>416</ele>
        <time>2022-11-07T09:17:08Z</time>
      </trkpt>
      <trkpt lat="48.17594" lon="6.57956">
        <ele>416.2</ele>
        <time>2022-11-07T09:17:22Z</time>
      </trkpt>
      <trkpt lat="48.17598" lon="6.57955">
        <ele>416.4</ele>
        <time>2022-11-07T09:17:26Z</time>
      </trkpt>
      <trkpt lat="48.17604" lon="6.57954">
        <ele>416.4</ele>
        <time>2022-11-07T09:17:32Z</time>
      </trkpt>
      <trkpt lat="48.17619" lon="6.57946">
        <ele>416</ele>
        <time>2022-11-07T09:17:44Z</time>
      </trkpt>
      <trkpt lat="48.17622" lon="6.57945">
        <ele>415.8</ele>
        <time>2022-11-07T09:17:47Z</time>
      </trkpt>
      <trkpt lat="48.17627" lon="6.57945">
        <ele>415.8</ele>
        <time>2022-11-07T09:17:50Z</time>
      </trkpt>
      <trkpt lat="48.17633" lon="6.57947">
        <ele>415.8</ele>
        <time>2022-11-07T09:17:55Z</time>
      </trkpt>
      <trkpt lat="48.17639" lon="6.57948">
        <ele>416</ele>
        <time>2022-11-07T09:17:59Z</time>
      </trkpt>
      <trkpt lat="48.1764" lon="6.57948">
        <ele>416</ele>
        <time>2022-11-07T09:18:00Z</time>
      </trkpt>
      <trkpt lat="48.17646" lon="6.57948">
        <ele>416</ele>
        <time>2022-11-07T09:18:05Z</time>
      </trkpt>
      <trkpt lat="48.17662" lon="6.57945">
        <ele>416.2</ele>
        <time>2022-11-07T09:18:18Z</time>
      </trkpt>
      <trkpt lat="48.17673" lon="6.57945">
        <ele>416.4</ele>
        <time>2022-11-07T09:18:31Z</time>
      </trkpt>
      <trkpt lat="48.17681" lon="6.57948">
        <ele>416.2</ele>
        <time>2022-11-07T09:18:39Z</time>
      </trkpt>
      <trkpt lat="48.17691" lon="6.57955">
        <ele>416.6</ele>
        <time>2022-11-07T09:18:47Z</time>
      </trkpt>
      <trkpt lat="48.17702" lon="6.57963">
        <ele>417</ele>
        <time>2022-11-07T09:18:59Z</time>
      </trkpt>
      <trkpt lat="48.17704" lon="6.57965">
        <ele>417</ele>
        <time>2022-11-07T09:19:01Z</time>
      </trkpt>
      <trkpt lat="48.17709" lon="6.57967">
        <ele>417.4</ele>
        <time>2022-11-07T09:19:05Z</time>
      </trkpt>
      <trkpt lat="48.17718" lon="6.5797">
        <ele>417.6</ele>
        <time>2022-11-07T09:19:09Z</time>
      </trkpt>
      <trkpt lat="48.17725" lon="6.5797">
        <ele>417.8</ele>
        <time>2022-11-07T09:19:14Z</time>
      </trkpt>
      <trkpt lat="48.17728" lon="6.57971">
        <ele>417.8</ele>
        <time>2022-11-07T09:19:16Z</time>
      </trkpt>
      <trkpt lat="48.1773" lon="6.57972">
        <ele>417.8</ele>
        <time>2022-11-07T09:19:17Z</time>
      </trkpt>
      <trkpt lat="48.17731" lon="6.57972">
        <ele>417.6</ele>
        <time>2022-11-07T09:19:18Z</time>
      </trkpt>
      <trkpt lat="48.17736" lon="6.57976">
        <ele>417.8</ele>
        <time>2022-11-07T09:19:23Z</time>
      </trkpt>
      <trkpt lat="48.17745" lon="6.57985">
        <ele>418.2</ele>
        <time>2022-11-07T09:19:33Z</time>
      </trkpt>
      <trkpt lat="48.17752" lon="6.5799">
        <ele>418.4</ele>
        <time>2022-11-07T09:19:39Z</time>
      </trkpt>
      <trkpt lat="48.17755" lon="6.57991">
        <ele>418.6</ele>
        <time>2022-11-07T09:19:42Z</time>
      </trkpt>
      <trkpt lat="48.17763" lon="6.57992">
        <ele>418.6</ele>
        <time>2022-11-07T09:19:50Z</time>
      </trkpt>
      <trkpt lat="48.17769" lon="6.57993">
        <ele>419.2</ele>
        <time>2022-11-07T09:19:55Z</time>
      </trkpt>
      <trkpt lat="48.17776" lon="6.57993">
        <ele>419.6</ele>
        <time>2022-11-07T09:20:00Z</time>
      </trkpt>
      <trkpt lat="48.17783" lon="6.57991">
        <ele>419.4</ele>
        <time>2022-11-07T09:20:07Z</time>
      </trkpt>
      <trkpt lat="48.17801" lon="6.57984">
        <ele>420</ele>
        <time>2022-11-07T09:20:24Z</time>
      </trkpt>
      <trkpt lat="48.17806" lon="6.57984">
        <ele>420.4</ele>
        <time>2022-11-07T09:20:28Z</time>
      </trkpt>
      <trkpt lat="48.17817" lon="6.57983">
        <ele>420.2</ele>
        <time>2022-11-07T09:20:38Z</time>
      </trkpt>
      <trkpt lat="48.1782" lon="6.57982">
        <ele>420.4</ele>
        <time>2022-11-07T09:20:41Z</time>
      </trkpt>
      <trkpt lat="48.17826" lon="6.57973">
        <ele>420.6</ele>
        <time>2022-11-07T09:20:51Z</time>
      </trkpt>
      <trkpt lat="48.17829" lon="6.5797">
        <ele>420.6</ele>
        <time>2022-11-07T09:20:56Z</time>
      </trkpt>
      <trkpt lat="48.1783" lon="6.57968">
        <ele>420.6</ele>
        <time>2022-11-07T09:20:57Z</time>
      </trkpt>
      <trkpt lat="48.17833" lon="6.57967">
        <ele>420.8</ele>
        <time>2022-11-07T09:20:59Z</time>
      </trkpt>
      <trkpt lat="48.17849" lon="6.57963">
        <ele>421.4</ele>
        <time>2022-11-07T09:21:13Z</time>
      </trkpt>
      <trkpt lat="48.17856" lon="6.5796">
        <ele>421.4</ele>
        <time>2022-11-07T09:21:19Z</time>
      </trkpt>
      <trkpt lat="48.17858" lon="6.57959">
        <ele>421.4</ele>
        <time>2022-11-07T09:21:20Z</time>
      </trkpt>
      <trkpt lat="48.17867" lon="6.57959">
        <ele>421.6</ele>
        <time>2022-11-07T09:21:26Z</time>
      </trkpt>
      <trkpt lat="48.17868" lon="6.57959">
        <ele>421.6</ele>
        <time>2022-11-07T09:21:27Z</time>
      </trkpt>
      <trkpt lat="48.1787" lon="6.57958">
        <ele>421.6</ele>
        <time>2022-11-07T09:21:29Z</time>
      </trkpt>
      <trkpt lat="48.17872" lon="6.57958">
        <ele>421.8</ele>
        <time>2022-11-07T09:21:31Z</time>
      </trkpt>
      <trkpt lat="48.17877" lon="6.57955">
        <ele>421.8</ele>
        <time>2022-11-07T09:21:38Z</time>
      </trkpt>
      <trkpt lat="48.1788" lon="6.57954">
        <ele>422</ele>
        <time>2022-11-07T09:21:48Z</time>
      </trkpt>
      <trkpt lat="48.17883" lon="6.57951">
        <ele>422</ele>
        <time>2022-11-07T09:21:55Z</time>
      </trkpt>
      <trkpt lat="48.17888" lon="6.57954">
        <ele>421.6</ele>
        <time>2022-11-07T09:22:09Z</time>
      </trkpt>
      <trkpt lat="48.17893" lon="6.5796">
        <ele>421.6</ele>
        <time>2022-11-07T09:22:15Z</time>
      </trkpt>
      <trkpt lat="48.17895" lon="6.57964">
        <ele>421.6</ele>
        <time>2022-11-07T09:22:18Z</time>
      </trkpt>
      <trkpt lat="48.17895" lon="6.57965">
        <ele>421.6</ele>
        <time>2022-11-07T09:22:19Z</time>
      </trkpt>
      <trkpt lat="48.17897" lon="6.57969">
        <ele>421.8</ele>
        <time>2022-11-07T09:22:22Z</time>
      </trkpt>
      <trkpt lat="48.17899" lon="6.57971">
        <ele>421.8</ele>
        <time>2022-11-07T09:22:24Z</time>
      </trkpt>
      <trkpt lat="48.17901" lon="6.57975">
        <ele>421.6</ele>
        <time>2022-11-07T09:22:28Z</time>
      </trkpt>
      <trkpt lat="48.17901" lon="6.57978">
        <ele>421.6</ele>
        <time>2022-11-07T09:22:30Z</time>
      </trkpt>
      <trkpt lat="48.17902" lon="6.57984">
        <ele>421.8</ele>
        <time>2022-11-07T09:22:33Z</time>
      </trkpt>
      <trkpt lat="48.17903" lon="6.57988">
        <ele>421.6</ele>
        <time>2022-11-07T09:22:38Z</time>
      </trkpt>
      <trkpt lat="48.17904" lon="6.5799">
        <ele>421.4</ele>
        <time>2022-11-07T09:22:40Z</time>
      </trkpt>
      <trkpt lat="48.17906" lon="6.57993">
        <ele>421.4</ele>
        <time>2022-11-07T09:22:43Z</time>
      </trkpt>
      <trkpt lat="48.17907" lon="6.57996">
        <ele>421.4</ele>
        <time>2022-11-07T09:22:45Z</time>
      </trkpt>
      <trkpt lat="48.17909" lon="6.57999">
        <ele>421.4</ele>
        <time>2022-11-07T09:22:47Z</time>
      </trkpt>
      <trkpt lat="48.17911" lon="6.58006">
        <ele>421.4</ele>
        <time>2022-11-07T09:22:51Z</time>
      </trkpt>
      <trkpt lat="48.17912" lon="6.58008">
        <ele>421.4</ele>
        <time>2022-11-07T09:22:52Z</time>
      </trkpt>
      <trkpt lat="48.17913" lon="6.58013">
        <ele>421.4</ele>
        <time>2022-11-07T09:22:55Z</time>
      </trkpt>
      <trkpt lat="48.17913" lon="6.58018">
        <ele>421.4</ele>
        <time>2022-11-07T09:22:57Z</time>
      </trkpt>
      <trkpt lat="48.17914" lon="6.5802">
        <ele>421.4</ele>
        <time>2022-11-07T09:22:58Z</time>
      </trkpt>
      <trkpt lat="48.17916" lon="6.58029">
        <ele>421.2</ele>
        <time>2022-11-07T09:23:03Z</time>
      </trkpt>
      <trkpt lat="48.17916" lon="6.5803">
        <ele>421.2</ele>
        <time>2022-11-07T09:23:04Z</time>
      </trkpt>
      <trkpt lat="48.1792" lon="6.58048">
        <ele>421.6</ele>
        <time>2022-11-07T09:23:16Z</time>
      </trkpt>
      <trkpt lat="48.17921" lon="6.58055">
        <ele>421.4</ele>
        <time>2022-11-07T09:23:19Z</time>
      </trkpt>
      <trkpt lat="48.17922" lon="6.58057">
        <ele>421.4</ele>
        <time>2022-11-07T09:23:20Z</time>
      </trkpt>
      <trkpt lat="48.17923" lon="6.58063">
        <ele>421.2</ele>
        <time>2022-11-07T09:23:24Z</time>
      </trkpt>
      <trkpt lat="48.17925" lon="6.58068">
        <ele>421</ele>
        <time>2022-11-07T09:23:28Z</time>
      </trkpt>
      <trkpt lat="48.17926" lon="6.58069">
        <ele>421</ele>
        <time>2022-11-07T09:23:29Z</time>
      </trkpt>
      <trkpt lat="48.17931" lon="6.58076">
        <ele>421</ele>
        <time>2022-11-07T09:23:36Z</time>
      </trkpt>
      <trkpt lat="48.17942" lon="6.58095">
        <ele>421.2</ele>
        <time>2022-11-07T09:23:51Z</time>
      </trkpt>
      <trkpt lat="48.17944" lon="6.58109">
        <ele>420.8</ele>
        <time>2022-11-07T09:24:03Z</time>
      </trkpt>
      <trkpt lat="48.17945" lon="6.58119">
        <ele>421</ele>
        <time>2022-11-07T09:24:07Z</time>
      </trkpt>
      <trkpt lat="48.17947" lon="6.58126">
        <ele>421</ele>
        <time>2022-11-07T09:24:11Z</time>
      </trkpt>
      <trkpt lat="48.17948" lon="6.5813">
        <ele>421</ele>
        <time>2022-11-07T09:24:13Z</time>
      </trkpt>
      <trkpt lat="48.17955" lon="6.58146">
        <ele>421</ele>
        <time>2022-11-07T09:24:23Z</time>
      </trkpt>
      <trkpt lat="48.17956" lon="6.5815">
        <ele>420.6</ele>
        <time>2022-11-07T09:24:25Z</time>
      </trkpt>
      <trkpt lat="48.17957" lon="6.58153">
        <ele>420.4</ele>
        <time>2022-11-07T09:24:27Z</time>
      </trkpt>
      <trkpt lat="48.17958" lon="6.58155">
        <ele>420.4</ele>
        <time>2022-11-07T09:24:29Z</time>
      </trkpt>
      <trkpt lat="48.17959" lon="6.58156">
        <ele>420.4</ele>
        <time>2022-11-07T09:24:30Z</time>
      </trkpt>
      <trkpt lat="48.17961" lon="6.5816">
        <ele>420.6</ele>
        <time>2022-11-07T09:24:33Z</time>
      </trkpt>
      <trkpt lat="48.17963" lon="6.58165">
        <ele>420.6</ele>
        <time>2022-11-07T09:24:37Z</time>
      </trkpt>
      <trkpt lat="48.17971" lon="6.5819">
        <ele>420</ele>
        <time>2022-11-07T09:24:53Z</time>
      </trkpt>
      <trkpt lat="48.17978" lon="6.58216">
        <ele>420</ele>
        <time>2022-11-07T09:25:07Z</time>
      </trkpt>
      <trkpt lat="48.17978" lon="6.58219">
        <ele>419.8</ele>
        <time>2022-11-07T09:25:09Z</time>
      </trkpt>
      <trkpt lat="48.17979" lon="6.58221">
        <ele>419.8</ele>
        <time>2022-11-07T09:25:11Z</time>
      </trkpt>
      <trkpt lat="48.17981" lon="6.58225">
        <ele>419.8</ele>
        <time>2022-11-07T09:25:16Z</time>
      </trkpt>
      <trkpt lat="48.17982" lon="6.58227">
        <ele>419.8</ele>
        <time>2022-11-07T09:25:18Z</time>
      </trkpt>
      <trkpt lat="48.17982" lon="6.5823">
        <ele>419.8</ele>
        <time>2022-11-07T09:25:21Z</time>
      </trkpt>
      <trkpt lat="48.17982" lon="6.58232">
        <ele>419.6</ele>
        <time>2022-11-07T09:25:23Z</time>
      </trkpt>
      <trkpt lat="48.17982" lon="6.58235">
        <ele>419.8</ele>
        <time>2022-11-07T09:25:25Z</time>
      </trkpt>
      <trkpt lat="48.17981" lon="6.58237">
        <ele>419.6</ele>
        <time>2022-11-07T09:25:27Z</time>
      </trkpt>
      <trkpt lat="48.17982" lon="6.5824">
        <ele>419.6</ele>
        <time>2022-11-07T09:25:29Z</time>
      </trkpt>
      <trkpt lat="48.17982" lon="6.58241">
        <ele>419.6</ele>
        <time>2022-11-07T09:25:30Z</time>
      </trkpt>
      <trkpt lat="48.17983" lon="6.58244">
        <ele>419.6</ele>
        <time>2022-11-07T09:25:33Z</time>
      </trkpt>
      <trkpt lat="48.17983" lon="6.58245">
        <ele>419.6</ele>
        <time>2022-11-07T09:25:34Z</time>
      </trkpt>
      <trkpt lat="48.17983" lon="6.58247">
        <ele>419.4</ele>
        <time>2022-11-07T09:25:35Z</time>
      </trkpt>
      <trkpt lat="48.17984" lon="6.58251">
        <ele>419.4</ele>
        <time>2022-11-07T09:25:38Z</time>
      </trkpt>
      <trkpt lat="48.17985" lon="6.58253">
        <ele>419.4</ele>
        <time>2022-11-07T09:25:41Z</time>
      </trkpt>
      <trkpt lat="48.17986" lon="6.58254">
        <ele>419.2</ele>
        <time>2022-11-07T09:25:43Z</time>
      </trkpt>
      <trkpt lat="48.17987" lon="6.58257">
        <ele>419</ele>
        <time>2022-11-07T09:25:46Z</time>
      </trkpt>
      <trkpt lat="48.17988" lon="6.5826">
        <ele>419.2</ele>
        <time>2022-11-07T09:25:49Z</time>
      </trkpt>
      <trkpt lat="48.17989" lon="6.58264">
        <ele>419.4</ele>
        <time>2022-11-07T09:25:53Z</time>
      </trkpt>
      <trkpt lat="48.1799" lon="6.58265">
        <ele>419.4</ele>
        <time>2022-11-07T09:25:54Z</time>
      </trkpt>
      <trkpt lat="48.17995" lon="6.58274">
        <ele>419.2</ele>
        <time>2022-11-07T09:26:00Z</time>
      </trkpt>
      <trkpt lat="48.17996" lon="6.58275">
        <ele>419.2</ele>
        <time>2022-11-07T09:26:01Z</time>
      </trkpt>
      <trkpt lat="48.17999" lon="6.5828">
        <ele>419.2</ele>
        <time>2022-11-07T09:26:05Z</time>
      </trkpt>
      <trkpt lat="48.18005" lon="6.58288">
        <ele>419.2</ele>
        <time>2022-11-07T09:26:16Z</time>
      </trkpt>
      <trkpt lat="48.18006" lon="6.58291">
        <ele>419.4</ele>
        <time>2022-11-07T09:26:18Z</time>
      </trkpt>
      <trkpt lat="48.18007" lon="6.58294">
        <ele>419.4</ele>
        <time>2022-11-07T09:26:20Z</time>
      </trkpt>
      <trkpt lat="48.18009" lon="6.58299">
        <ele>419</ele>
        <time>2022-11-07T09:26:23Z</time>
      </trkpt>
      <trkpt lat="48.1801" lon="6.58302">
        <ele>418.8</ele>
        <time>2022-11-07T09:26:26Z</time>
      </trkpt>
      <trkpt lat="48.18012" lon="6.58311">
        <ele>418.8</ele>
        <time>2022-11-07T09:26:31Z</time>
      </trkpt>
      <trkpt lat="48.18014" lon="6.58321">
        <ele>418.6</ele>
        <time>2022-11-07T09:26:39Z</time>
      </trkpt>
      <trkpt lat="48.18013" lon="6.58322">
        <ele>418.8</ele>
        <time>2022-11-07T09:26:41Z</time>
      </trkpt>
      <trkpt lat="48.18013" lon="6.58323">
        <ele>418.8</ele>
        <time>2022-11-07T09:26:43Z</time>
      </trkpt>
      <trkpt lat="48.18013" lon="6.58324">
        <ele>418.8</ele>
        <time>2022-11-07T09:26:45Z</time>
      </trkpt>
      <trkpt lat="48.18013" lon="6.58334">
        <ele>418.6</ele>
        <time>2022-11-07T09:26:51Z</time>
      </trkpt>
      <trkpt lat="48.18014" lon="6.5834">
        <ele>418.2</ele>
        <time>2022-11-07T09:26:54Z</time>
      </trkpt>
      <trkpt lat="48.18018" lon="6.58355">
        <ele>418.4</ele>
        <time>2022-11-07T09:27:03Z</time>
      </trkpt>
      <trkpt lat="48.18019" lon="6.58357">
        <ele>418.4</ele>
        <time>2022-11-07T09:27:05Z</time>
      </trkpt>
      <trkpt lat="48.1802" lon="6.58359">
        <ele>418.6</ele>
        <time>2022-11-07T09:27:07Z</time>
      </trkpt>
      <trkpt lat="48.18026" lon="6.58366">
        <ele>419</ele>
        <time>2022-11-07T09:27:15Z</time>
      </trkpt>
      <trkpt lat="48.18029" lon="6.5837">
        <ele>418.6</ele>
        <time>2022-11-07T09:27:18Z</time>
      </trkpt>
      <trkpt lat="48.18031" lon="6.58375">
        <ele>418.8</ele>
        <time>2022-11-07T09:27:21Z</time>
      </trkpt>
      <trkpt lat="48.18041" lon="6.58396">
        <ele>418.8</ele>
        <time>2022-11-07T09:27:36Z</time>
      </trkpt>
      <trkpt lat="48.18047" lon="6.58412">
        <ele>419</ele>
        <time>2022-11-07T09:27:45Z</time>
      </trkpt>
      <trkpt lat="48.1805" lon="6.58423">
        <ele>419.2</ele>
        <time>2022-11-07T09:27:50Z</time>
      </trkpt>
      <trkpt lat="48.18051" lon="6.58427">
        <ele>419.4</ele>
        <time>2022-11-07T09:27:52Z</time>
      </trkpt>
      <trkpt lat="48.18051" lon="6.58433">
        <ele>419.4</ele>
        <time>2022-11-07T09:27:55Z</time>
      </trkpt>
      <trkpt lat="48.18052" lon="6.58439">
        <ele>419.4</ele>
        <time>2022-11-07T09:27:58Z</time>
      </trkpt>
      <trkpt lat="48.18054" lon="6.58451">
        <ele>419.4</ele>
        <time>2022-11-07T09:28:04Z</time>
      </trkpt>
      <trkpt lat="48.18055" lon="6.58452">
        <ele>419.6</ele>
        <time>2022-11-07T09:28:05Z</time>
      </trkpt>
      <trkpt lat="48.18056" lon="6.58455">
        <ele>419.8</ele>
        <time>2022-11-07T09:28:07Z</time>
      </trkpt>
      <trkpt lat="48.18058" lon="6.58471">
        <ele>420.2</ele>
        <time>2022-11-07T09:28:20Z</time>
      </trkpt>
      <trkpt lat="48.18064" lon="6.58488">
        <ele>420.2</ele>
        <time>2022-11-07T09:28:31Z</time>
      </trkpt>
      <trkpt lat="48.1807" lon="6.58502">
        <ele>420.4</ele>
        <time>2022-11-07T09:28:39Z</time>
      </trkpt>
      <trkpt lat="48.1807" lon="6.58507">
        <ele>420.6</ele>
        <time>2022-11-07T09:28:41Z</time>
      </trkpt>
      <trkpt lat="48.18077" lon="6.5853">
        <ele>420.8</ele>
        <time>2022-11-07T09:28:54Z</time>
      </trkpt>
      <trkpt lat="48.18082" lon="6.58541">
        <ele>421.4</ele>
        <time>2022-11-07T09:29:00Z</time>
      </trkpt>
      <trkpt lat="48.18084" lon="6.58546">
        <ele>421.2</ele>
        <time>2022-11-07T09:29:03Z</time>
      </trkpt>
      <trkpt lat="48.18089" lon="6.58558">
        <ele>421.4</ele>
        <time>2022-11-07T09:29:09Z</time>
      </trkpt>
      <trkpt lat="48.18092" lon="6.58564">
        <ele>421.4</ele>
        <time>2022-11-07T09:29:12Z</time>
      </trkpt>
      <trkpt lat="48.18093" lon="6.58567">
        <ele>421.6</ele>
        <time>2022-11-07T09:29:14Z</time>
      </trkpt>
      <trkpt lat="48.18096" lon="6.58575">
        <ele>421.8</ele>
        <time>2022-11-07T09:29:19Z</time>
      </trkpt>
      <trkpt lat="48.18098" lon="6.5858">
        <ele>421.8</ele>
        <time>2022-11-07T09:29:22Z</time>
      </trkpt>
      <trkpt lat="48.18099" lon="6.58583">
        <ele>421.8</ele>
        <time>2022-11-07T09:29:24Z</time>
      </trkpt>
      <trkpt lat="48.18103" lon="6.58593">
        <ele>422.2</ele>
        <time>2022-11-07T09:29:33Z</time>
      </trkpt>
      <trkpt lat="48.18106" lon="6.58601">
        <ele>422.2</ele>
        <time>2022-11-07T09:29:39Z</time>
      </trkpt>
      <trkpt lat="48.18116" lon="6.58617">
        <ele>422.6</ele>
        <time>2022-11-07T09:29:51Z</time>
      </trkpt>
      <trkpt lat="48.18117" lon="6.58619">
        <ele>422.8</ele>
        <time>2022-11-07T09:29:53Z</time>
      </trkpt>
      <trkpt lat="48.18118" lon="6.5862">
        <ele>422.8</ele>
        <time>2022-11-07T09:29:54Z</time>
      </trkpt>
      <trkpt lat="48.18119" lon="6.58623">
        <ele>422.8</ele>
        <time>2022-11-07T09:29:56Z</time>
      </trkpt>
      <trkpt lat="48.18123" lon="6.58629">
        <ele>423</ele>
        <time>2022-11-07T09:30:02Z</time>
      </trkpt>
      <trkpt lat="48.18127" lon="6.58634">
        <ele>423.2</ele>
        <time>2022-11-07T09:30:06Z</time>
      </trkpt>
      <trkpt lat="48.18131" lon="6.58639">
        <ele>423.6</ele>
        <time>2022-11-07T09:30:11Z</time>
      </trkpt>
      <trkpt lat="48.18136" lon="6.58644">
        <ele>423.6</ele>
        <time>2022-11-07T09:30:16Z</time>
      </trkpt>
      <trkpt lat="48.18137" lon="6.58645">
        <ele>423.8</ele>
        <time>2022-11-07T09:30:17Z</time>
      </trkpt>
      <trkpt lat="48.18143" lon="6.58653">
        <ele>423.8</ele>
        <time>2022-11-07T09:30:24Z</time>
      </trkpt>
      <trkpt lat="48.18146" lon="6.58657">
        <ele>424</ele>
        <time>2022-11-07T09:30:27Z</time>
      </trkpt>
      <trkpt lat="48.18147" lon="6.58658">
        <ele>424</ele>
        <time>2022-11-07T09:30:28Z</time>
      </trkpt>
      <trkpt lat="48.18153" lon="6.58667">
        <ele>424.2</ele>
        <time>2022-11-07T09:30:32Z</time>
      </trkpt>
      <trkpt lat="48.18155" lon="6.58673">
        <ele>424.2</ele>
        <time>2022-11-07T09:30:36Z</time>
      </trkpt>
      <trkpt lat="48.1816" lon="6.58682">
        <ele>424.6</ele>
        <time>2022-11-07T09:30:41Z</time>
      </trkpt>
      <trkpt lat="48.18163" lon="6.5869">
        <ele>424.6</ele>
        <time>2022-11-07T09:30:46Z</time>
      </trkpt>
      <trkpt lat="48.18168" lon="6.58698">
        <ele>424.8</ele>
        <time>2022-11-07T09:30:51Z</time>
      </trkpt>
      <trkpt lat="48.18169" lon="6.58701">
        <ele>424.8</ele>
        <time>2022-11-07T09:30:53Z</time>
      </trkpt>
      <trkpt lat="48.18173" lon="6.58708">
        <ele>425.2</ele>
        <time>2022-11-07T09:30:58Z</time>
      </trkpt>
      <trkpt lat="48.18175" lon="6.58711">
        <ele>425.4</ele>
        <time>2022-11-07T09:31:00Z</time>
      </trkpt>
      <trkpt lat="48.18177" lon="6.58715">
        <ele>425.4</ele>
        <time>2022-11-07T09:31:03Z</time>
      </trkpt>
      <trkpt lat="48.18183" lon="6.58726">
        <ele>425.4</ele>
        <time>2022-11-07T09:31:10Z</time>
      </trkpt>
      <trkpt lat="48.18186" lon="6.58729">
        <ele>425.8</ele>
        <time>2022-11-07T09:31:13Z</time>
      </trkpt>
      <trkpt lat="48.18188" lon="6.58729">
        <ele>426</ele>
        <time>2022-11-07T09:31:17Z</time>
      </trkpt>
      <trkpt lat="48.18188" lon="6.5873">
        <ele>426</ele>
        <time>2022-11-07T09:31:32Z</time>
      </trkpt>
      <trkpt lat="48.18189" lon="6.58731">
        <ele>426</ele>
        <time>2022-11-07T09:31:35Z</time>
      </trkpt>
      <trkpt lat="48.1819" lon="6.58731">
        <ele>426.2</ele>
        <time>2022-11-07T09:31:52Z</time>
      </trkpt>
      <trkpt lat="48.18189" lon="6.58732">
        <ele>426</ele>
        <time>2022-11-07T09:32:10Z</time>
      </trkpt>
      <trkpt lat="48.18188" lon="6.58732">
        <ele>426.2</ele>
        <time>2022-11-07T09:32:26Z</time>
      </trkpt>
      <trkpt lat="48.18187" lon="6.58732">
        <ele>426.2</ele>
        <time>2022-11-07T09:32:40Z</time>
      </trkpt>
      <trkpt lat="48.18188" lon="6.5873">
        <ele>425.8</ele>
        <time>2022-11-07T09:32:46Z</time>
      </trkpt>
      <trkpt lat="48.18186" lon="6.58732">
        <ele>425.6</ele>
        <time>2022-11-07T09:32:53Z</time>
      </trkpt>
      <trkpt lat="48.18186" lon="6.58733">
        <ele>425.8</ele>
        <time>2022-11-07T09:33:03Z</time>
      </trkpt>
      <trkpt lat="48.18185" lon="6.58738">
        <ele>426</ele>
        <time>2022-11-07T09:33:07Z</time>
      </trkpt>
      <trkpt lat="48.18185" lon="6.58739">
        <ele>426.2</ele>
        <time>2022-11-07T09:33:08Z</time>
      </trkpt>
      <trkpt lat="48.18183" lon="6.58742">
        <ele>426.8</ele>
        <time>2022-11-07T09:33:10Z</time>
      </trkpt>
      <trkpt lat="48.18183" lon="6.58743">
        <ele>427</ele>
        <time>2022-11-07T09:33:11Z</time>
      </trkpt>
      <trkpt lat="48.18182" lon="6.58744">
        <ele>427</ele>
        <time>2022-11-07T09:33:12Z</time>
      </trkpt>
      <trkpt lat="48.18182" lon="6.58745">
        <ele>427</ele>
        <time>2022-11-07T09:33:13Z</time>
      </trkpt>
      <trkpt lat="48.18181" lon="6.58746">
        <ele>427.2</ele>
        <time>2022-11-07T09:33:14Z</time>
      </trkpt>
      <trkpt lat="48.1818" lon="6.58746">
        <ele>427.2</ele>
        <time>2022-11-07T09:33:15Z</time>
      </trkpt>
      <trkpt lat="48.18179" lon="6.58748">
        <ele>427.2</ele>
        <time>2022-11-07T09:33:17Z</time>
      </trkpt>
      <trkpt lat="48.18177" lon="6.58749">
        <ele>427.2</ele>
        <time>2022-11-07T09:33:19Z</time>
      </trkpt>
      <trkpt lat="48.18177" lon="6.5875">
        <ele>427.2</ele>
        <time>2022-11-07T09:33:20Z</time>
      </trkpt>
      <trkpt lat="48.18176" lon="6.58751">
        <ele>427.2</ele>
        <time>2022-11-07T09:33:21Z</time>
      </trkpt>
      <trkpt lat="48.18172" lon="6.58755">
        <ele>426.6</ele>
        <time>2022-11-07T09:33:26Z</time>
      </trkpt>
      <trkpt lat="48.1817" lon="6.58757">
        <ele>426.4</ele>
        <time>2022-11-07T09:33:29Z</time>
      </trkpt>
      <trkpt lat="48.18169" lon="6.58758">
        <ele>426.6</ele>
        <time>2022-11-07T09:33:30Z</time>
      </trkpt>
      <trkpt lat="48.18167" lon="6.58759">
        <ele>426.8</ele>
        <time>2022-11-07T09:33:32Z</time>
      </trkpt>
      <trkpt lat="48.18158" lon="6.58765">
        <ele>426.8</ele>
        <time>2022-11-07T09:33:40Z</time>
      </trkpt>
      <trkpt lat="48.18156" lon="6.58767">
        <ele>426.8</ele>
        <time>2022-11-07T09:33:42Z</time>
      </trkpt>
      <trkpt lat="48.18145" lon="6.58773">
        <ele>426.2</ele>
        <time>2022-11-07T09:33:50Z</time>
      </trkpt>
      <trkpt lat="48.18144" lon="6.58773">
        <ele>426.2</ele>
        <time>2022-11-07T09:33:51Z</time>
      </trkpt>
      <trkpt lat="48.18143" lon="6.58774">
        <ele>426.2</ele>
        <time>2022-11-07T09:33:52Z</time>
      </trkpt>
      <trkpt lat="48.18134" lon="6.58782">
        <ele>426.4</ele>
        <time>2022-11-07T09:34:00Z</time>
      </trkpt>
      <trkpt lat="48.18124" lon="6.58793">
        <ele>426.6</ele>
        <time>2022-11-07T09:34:11Z</time>
      </trkpt>
      <trkpt lat="48.18118" lon="6.58798">
        <ele>426.4</ele>
        <time>2022-11-07T09:34:17Z</time>
      </trkpt>
      <trkpt lat="48.18117" lon="6.588">
        <ele>426.2</ele>
        <time>2022-11-07T09:34:19Z</time>
      </trkpt>
      <trkpt lat="48.18112" lon="6.58805">
        <ele>426.8</ele>
        <time>2022-11-07T09:34:25Z</time>
      </trkpt>
      <trkpt lat="48.18103" lon="6.58809">
        <ele>427.4</ele>
        <time>2022-11-07T09:34:33Z</time>
      </trkpt>
      <trkpt lat="48.18102" lon="6.5881">
        <ele>427.4</ele>
        <time>2022-11-07T09:34:34Z</time>
      </trkpt>
      <trkpt lat="48.18099" lon="6.58812">
        <ele>427</ele>
        <time>2022-11-07T09:34:38Z</time>
      </trkpt>
      <trkpt lat="48.18093" lon="6.58814">
        <ele>426.8</ele>
        <time>2022-11-07T09:34:44Z</time>
      </trkpt>
      <trkpt lat="48.18085" lon="6.58816">
        <ele>426.8</ele>
        <time>2022-11-07T09:34:50Z</time>
      </trkpt>
      <trkpt lat="48.18066" lon="6.58822">
        <ele>427</ele>
        <time>2022-11-07T09:35:02Z</time>
      </trkpt>
      <trkpt lat="48.18062" lon="6.58824">
        <ele>427</ele>
        <time>2022-11-07T09:35:04Z</time>
      </trkpt>
      <trkpt lat="48.18059" lon="6.58826">
        <ele>427</ele>
        <time>2022-11-07T09:35:06Z</time>
      </trkpt>
      <trkpt lat="48.18057" lon="6.58826">
        <ele>427</ele>
        <time>2022-11-07T09:35:07Z</time>
      </trkpt>
      <trkpt lat="48.18056" lon="6.58827">
        <ele>427</ele>
        <time>2022-11-07T09:35:08Z</time>
      </trkpt>
      <trkpt lat="48.18052" lon="6.58829">
        <ele>427</ele>
        <time>2022-11-07T09:35:11Z</time>
      </trkpt>
      <trkpt lat="48.18046" lon="6.58829">
        <ele>427.4</ele>
        <time>2022-11-07T09:35:16Z</time>
      </trkpt>
      <trkpt lat="48.18039" lon="6.58827">
        <ele>427.8</ele>
        <time>2022-11-07T09:35:22Z</time>
      </trkpt>
      <trkpt lat="48.18038" lon="6.58827">
        <ele>427.8</ele>
        <time>2022-11-07T09:35:23Z</time>
      </trkpt>
      <trkpt lat="48.18036" lon="6.58826">
        <ele>428</ele>
        <time>2022-11-07T09:35:24Z</time>
      </trkpt>
      <trkpt lat="48.18027" lon="6.58825">
        <ele>428.8</ele>
        <time>2022-11-07T09:35:33Z</time>
      </trkpt>
      <trkpt lat="48.18023" lon="6.58825">
        <ele>429</ele>
        <time>2022-11-07T09:35:37Z</time>
      </trkpt>
      <trkpt lat="48.18018" lon="6.58824">
        <ele>429.2</ele>
        <time>2022-11-07T09:35:41Z</time>
      </trkpt>
      <trkpt lat="48.18016" lon="6.58825">
        <ele>429.4</ele>
        <time>2022-11-07T09:35:44Z</time>
      </trkpt>
      <trkpt lat="48.18013" lon="6.58825">
        <ele>429.6</ele>
        <time>2022-11-07T09:35:47Z</time>
      </trkpt>
      <trkpt lat="48.18005" lon="6.58824">
        <ele>430</ele>
        <time>2022-11-07T09:35:53Z</time>
      </trkpt>
      <trkpt lat="48.18002" lon="6.58823">
        <ele>430.2</ele>
        <time>2022-11-07T09:35:55Z</time>
      </trkpt>
      <trkpt lat="48.17993" lon="6.58822">
        <ele>430.6</ele>
        <time>2022-11-07T09:36:02Z</time>
      </trkpt>
      <trkpt lat="48.1799" lon="6.58822">
        <ele>430.8</ele>
        <time>2022-11-07T09:36:04Z</time>
      </trkpt>
      <trkpt lat="48.17988" lon="6.58822">
        <ele>431</ele>
        <time>2022-11-07T09:36:06Z</time>
      </trkpt>
      <trkpt lat="48.17985" lon="6.5882">
        <ele>431.2</ele>
        <time>2022-11-07T09:36:09Z</time>
      </trkpt>
      <trkpt lat="48.1798" lon="6.58819">
        <ele>431.6</ele>
        <time>2022-11-07T09:36:13Z</time>
      </trkpt>
      <trkpt lat="48.17969" lon="6.58818">
        <ele>432</ele>
        <time>2022-11-07T09:36:22Z</time>
      </trkpt>
      <trkpt lat="48.17968" lon="6.58817">
        <ele>432</ele>
        <time>2022-11-07T09:36:23Z</time>
      </trkpt>
      <trkpt lat="48.17966" lon="6.58817">
        <ele>432</ele>
        <time>2022-11-07T09:36:25Z</time>
      </trkpt>
      <trkpt lat="48.17965" lon="6.58816">
        <ele>432.2</ele>
        <time>2022-11-07T09:36:26Z</time>
      </trkpt>
      <trkpt lat="48.17957" lon="6.58815">
        <ele>433</ele>
        <time>2022-11-07T09:36:33Z</time>
      </trkpt>
      <trkpt lat="48.17951" lon="6.58817">
        <ele>433.2</ele>
        <time>2022-11-07T09:36:38Z</time>
      </trkpt>
      <trkpt lat="48.17949" lon="6.58817">
        <ele>433.4</ele>
        <time>2022-11-07T09:36:40Z</time>
      </trkpt>
      <trkpt lat="48.17945" lon="6.58817">
        <ele>433.4</ele>
        <time>2022-11-07T09:36:43Z</time>
      </trkpt>
      <trkpt lat="48.17936" lon="6.58818">
        <ele>434.4</ele>
        <time>2022-11-07T09:36:50Z</time>
      </trkpt>
      <trkpt lat="48.17934" lon="6.58818">
        <ele>434.4</ele>
        <time>2022-11-07T09:36:52Z</time>
      </trkpt>
      <trkpt lat="48.17923" lon="6.5882">
        <ele>434.8</ele>
        <time>2022-11-07T09:36:59Z</time>
      </trkpt>
      <trkpt lat="48.17916" lon="6.5882">
        <ele>435</ele>
        <time>2022-11-07T09:37:04Z</time>
      </trkpt>
      <trkpt lat="48.17914" lon="6.5882">
        <ele>435</ele>
        <time>2022-11-07T09:37:06Z</time>
      </trkpt>
      <trkpt lat="48.17905" lon="6.58821">
        <ele>435</ele>
        <time>2022-11-07T09:37:13Z</time>
      </trkpt>
      <trkpt lat="48.17903" lon="6.5882">
        <ele>435.2</ele>
        <time>2022-11-07T09:37:15Z</time>
      </trkpt>
      <trkpt lat="48.17902" lon="6.5882">
        <ele>435.2</ele>
        <time>2022-11-07T09:37:16Z</time>
      </trkpt>
      <trkpt lat="48.179" lon="6.5882">
        <ele>435.4</ele>
        <time>2022-11-07T09:37:18Z</time>
      </trkpt>
      <trkpt lat="48.17897" lon="6.58821">
        <ele>435.4</ele>
        <time>2022-11-07T09:37:21Z</time>
      </trkpt>
      <trkpt lat="48.17893" lon="6.5882">
        <ele>435.4</ele>
        <time>2022-11-07T09:37:25Z</time>
      </trkpt>
      <trkpt lat="48.17888" lon="6.58818">
        <ele>436</ele>
        <time>2022-11-07T09:37:30Z</time>
      </trkpt>
      <trkpt lat="48.17886" lon="6.58818">
        <ele>436</ele>
        <time>2022-11-07T09:37:33Z</time>
      </trkpt>
      <trkpt lat="48.17885" lon="6.58818">
        <ele>435.8</ele>
        <time>2022-11-07T09:37:39Z</time>
      </trkpt>
      <trkpt lat="48.17886" lon="6.58818">
        <ele>436</ele>
        <time>2022-11-07T09:37:50Z</time>
      </trkpt>
      <trkpt lat="48.17884" lon="6.58822">
        <ele>436.2</ele>
        <time>2022-11-07T09:37:58Z</time>
      </trkpt>
      <trkpt lat="48.17884" lon="6.58823">
        <ele>436.2</ele>
        <time>2022-11-07T09:38:04Z</time>
      </trkpt>
      <trkpt lat="48.17883" lon="6.58822">
        <ele>436</ele>
        <time>2022-11-07T09:38:08Z</time>
      </trkpt>
      <trkpt lat="48.1788" lon="6.58821">
        <ele>436.4</ele>
        <time>2022-11-07T09:38:11Z</time>
      </trkpt>
      <trkpt lat="48.17879" lon="6.58821">
        <ele>436.6</ele>
        <time>2022-11-07T09:38:12Z</time>
      </trkpt>
      <trkpt lat="48.17878" lon="6.5882">
        <ele>436.6</ele>
        <time>2022-11-07T09:38:13Z</time>
      </trkpt>
      <trkpt lat="48.17876" lon="6.58819">
        <ele>436.6</ele>
        <time>2022-11-07T09:38:15Z</time>
      </trkpt>
      <trkpt lat="48.17873" lon="6.58818">
        <ele>436.4</ele>
        <time>2022-11-07T09:38:19Z</time>
      </trkpt>
      <trkpt lat="48.17866" lon="6.58816">
        <ele>436.8</ele>
        <time>2022-11-07T09:38:25Z</time>
      </trkpt>
      <trkpt lat="48.17865" lon="6.58816">
        <ele>437</ele>
        <time>2022-11-07T09:38:26Z</time>
      </trkpt>
      <trkpt lat="48.17864" lon="6.58815">
        <ele>437</ele>
        <time>2022-11-07T09:38:27Z</time>
      </trkpt>
      <trkpt lat="48.17852" lon="6.58814">
        <ele>437.4</ele>
        <time>2022-11-07T09:38:37Z</time>
      </trkpt>
      <trkpt lat="48.17848" lon="6.58813">
        <ele>437.6</ele>
        <time>2022-11-07T09:38:40Z</time>
      </trkpt>
      <trkpt lat="48.17846" lon="6.58813">
        <ele>437.8</ele>
        <time>2022-11-07T09:38:42Z</time>
      </trkpt>
      <trkpt lat="48.17839" lon="6.58813">
        <ele>438</ele>
        <time>2022-11-07T09:38:47Z</time>
      </trkpt>
      <trkpt lat="48.17832" lon="6.58815">
        <ele>438.4</ele>
        <time>2022-11-07T09:38:52Z</time>
      </trkpt>
      <trkpt lat="48.17831" lon="6.58816">
        <ele>438.6</ele>
        <time>2022-11-07T09:38:53Z</time>
      </trkpt>
      <trkpt lat="48.17829" lon="6.58816">
        <ele>438.8</ele>
        <time>2022-11-07T09:38:56Z</time>
      </trkpt>
      <trkpt lat="48.17828" lon="6.58816">
        <ele>439</ele>
        <time>2022-11-07T09:38:57Z</time>
      </trkpt>
      <trkpt lat="48.17826" lon="6.58816">
        <ele>439</ele>
        <time>2022-11-07T09:38:58Z</time>
      </trkpt>
      <trkpt lat="48.1782" lon="6.58816">
        <ele>439.6</ele>
        <time>2022-11-07T09:39:04Z</time>
      </trkpt>
      <trkpt lat="48.17814" lon="6.58815">
        <ele>440</ele>
        <time>2022-11-07T09:39:09Z</time>
      </trkpt>
      <trkpt lat="48.17813" lon="6.58815">
        <ele>440</ele>
        <time>2022-11-07T09:39:10Z</time>
      </trkpt>
      <trkpt lat="48.17804" lon="6.58808">
        <ele>438.6</ele>
        <time>2022-11-07T09:39:18Z</time>
      </trkpt>
      <trkpt lat="48.17801" lon="6.58805">
        <ele>437.8</ele>
        <time>2022-11-07T09:39:21Z</time>
      </trkpt>
      <trkpt lat="48.17799" lon="6.58802">
        <ele>437.8</ele>
        <time>2022-11-07T09:39:24Z</time>
      </trkpt>
      <trkpt lat="48.17795" lon="6.58797">
        <ele>438.6</ele>
        <time>2022-11-07T09:39:28Z</time>
      </trkpt>
      <trkpt lat="48.17788" lon="6.5879">
        <ele>438.6</ele>
        <time>2022-11-07T09:39:35Z</time>
      </trkpt>
      <trkpt lat="48.17787" lon="6.58789">
        <ele>438.6</ele>
        <time>2022-11-07T09:39:36Z</time>
      </trkpt>
      <trkpt lat="48.17783" lon="6.58785">
        <ele>439.2</ele>
        <time>2022-11-07T09:39:40Z</time>
      </trkpt>
      <trkpt lat="48.17776" lon="6.58778">
        <ele>439.2</ele>
        <time>2022-11-07T09:39:47Z</time>
      </trkpt>
      <trkpt lat="48.17772" lon="6.58776">
        <ele>439.2</ele>
        <time>2022-11-07T09:39:50Z</time>
      </trkpt>
      <trkpt lat="48.17762" lon="6.58767">
        <ele>439.6</ele>
        <time>2022-11-07T09:39:59Z</time>
      </trkpt>
      <trkpt lat="48.17758" lon="6.58762">
        <ele>439.8</ele>
        <time>2022-11-07T09:40:04Z</time>
      </trkpt>
      <trkpt lat="48.17755" lon="6.58759">
        <ele>439.4</ele>
        <time>2022-11-07T09:40:07Z</time>
      </trkpt>
      <trkpt lat="48.17744" lon="6.58747">
        <ele>439.4</ele>
        <time>2022-11-07T09:40:19Z</time>
      </trkpt>
      <trkpt lat="48.17734" lon="6.58728">
        <ele>439.6</ele>
        <time>2022-11-07T09:40:32Z</time>
      </trkpt>
      <trkpt lat="48.17733" lon="6.58725">
        <ele>439.6</ele>
        <time>2022-11-07T09:40:34Z</time>
      </trkpt>
      <trkpt lat="48.17733" lon="6.58718">
        <ele>439.4</ele>
        <time>2022-11-07T09:40:38Z</time>
      </trkpt>
      <trkpt lat="48.17732" lon="6.58705">
        <ele>439.4</ele>
        <time>2022-11-07T09:40:45Z</time>
      </trkpt>
      <trkpt lat="48.17732" lon="6.587">
        <ele>439.4</ele>
        <time>2022-11-07T09:40:48Z</time>
      </trkpt>
      <trkpt lat="48.17729" lon="6.58685">
        <ele>439.2</ele>
        <time>2022-11-07T09:40:59Z</time>
      </trkpt>
      <trkpt lat="48.17728" lon="6.58682">
        <ele>439</ele>
        <time>2022-11-07T09:41:02Z</time>
      </trkpt>
      <trkpt lat="48.17727" lon="6.58681">
        <ele>439</ele>
        <time>2022-11-07T09:41:03Z</time>
      </trkpt>
      <trkpt lat="48.17725" lon="6.58679">
        <ele>438.8</ele>
        <time>2022-11-07T09:41:05Z</time>
      </trkpt>
      <trkpt lat="48.17723" lon="6.58678">
        <ele>438.8</ele>
        <time>2022-11-07T09:41:07Z</time>
      </trkpt>
      <trkpt lat="48.17721" lon="6.58675">
        <ele>438.6</ele>
        <time>2022-11-07T09:41:10Z</time>
      </trkpt>
      <trkpt lat="48.17718" lon="6.58671">
        <ele>438.6</ele>
        <time>2022-11-07T09:41:15Z</time>
      </trkpt>
      <trkpt lat="48.17714" lon="6.58668">
        <ele>438.6</ele>
        <time>2022-11-07T09:41:18Z</time>
      </trkpt>
      <trkpt lat="48.17704" lon="6.58657">
        <ele>437.6</ele>
        <time>2022-11-07T09:41:28Z</time>
      </trkpt>
      <trkpt lat="48.17701" lon="6.58653">
        <ele>437.6</ele>
        <time>2022-11-07T09:41:32Z</time>
      </trkpt>
      <trkpt lat="48.17692" lon="6.58642">
        <ele>437.2</ele>
        <time>2022-11-07T09:41:43Z</time>
      </trkpt>
      <trkpt lat="48.17687" lon="6.58634">
        <ele>436.8</ele>
        <time>2022-11-07T09:41:50Z</time>
      </trkpt>
      <trkpt lat="48.17686" lon="6.58632">
        <ele>436.6</ele>
        <time>2022-11-07T09:41:52Z</time>
      </trkpt>
      <trkpt lat="48.17682" lon="6.58625">
        <ele>436.6</ele>
        <time>2022-11-07T09:41:59Z</time>
      </trkpt>
      <trkpt lat="48.17679" lon="6.5862">
        <ele>436.6</ele>
        <time>2022-11-07T09:42:02Z</time>
      </trkpt>
      <trkpt lat="48.17676" lon="6.58614">
        <ele>436.6</ele>
        <time>2022-11-07T09:42:06Z</time>
      </trkpt>
      <trkpt lat="48.17675" lon="6.58612">
        <ele>436.4</ele>
        <time>2022-11-07T09:42:08Z</time>
      </trkpt>
      <trkpt lat="48.17668" lon="6.58604">
        <ele>436.2</ele>
        <time>2022-11-07T09:42:14Z</time>
      </trkpt>
      <trkpt lat="48.17666" lon="6.58602">
        <ele>436.2</ele>
        <time>2022-11-07T09:42:15Z</time>
      </trkpt>
      <trkpt lat="48.17663" lon="6.58598">
        <ele>436.2</ele>
        <time>2022-11-07T09:42:18Z</time>
      </trkpt>
      <trkpt lat="48.17662" lon="6.58596">
        <ele>436</ele>
        <time>2022-11-07T09:42:19Z</time>
      </trkpt>
      <trkpt lat="48.17653" lon="6.58582">
        <ele>435.8</ele>
        <time>2022-11-07T09:42:30Z</time>
      </trkpt>
      <trkpt lat="48.17649" lon="6.58573">
        <ele>435.6</ele>
        <time>2022-11-07T09:42:35Z</time>
      </trkpt>
      <trkpt lat="48.17648" lon="6.58572">
        <ele>435.4</ele>
        <time>2022-11-07T09:42:36Z</time>
      </trkpt>
      <trkpt lat="48.1764" lon="6.58559">
        <ele>435</ele>
        <time>2022-11-07T09:42:45Z</time>
      </trkpt>
      <trkpt lat="48.17639" lon="6.58557">
        <ele>435</ele>
        <time>2022-11-07T09:42:47Z</time>
      </trkpt>
      <trkpt lat="48.17628" lon="6.5854">
        <ele>434.8</ele>
        <time>2022-11-07T09:42:58Z</time>
      </trkpt>
      <trkpt lat="48.17627" lon="6.58538">
        <ele>434.4</ele>
        <time>2022-11-07T09:43:01Z</time>
      </trkpt>
      <trkpt lat="48.17621" lon="6.58534">
        <ele>434.2</ele>
        <time>2022-11-07T09:43:08Z</time>
      </trkpt>
      <trkpt lat="48.17615" lon="6.58529">
        <ele>433.8</ele>
        <time>2022-11-07T09:43:15Z</time>
      </trkpt>
      <trkpt lat="48.17613" lon="6.58528">
        <ele>433.8</ele>
        <time>2022-11-07T09:43:17Z</time>
      </trkpt>
      <trkpt lat="48.17599" lon="6.58517">
        <ele>433.8</ele>
        <time>2022-11-07T09:43:30Z</time>
      </trkpt>
      <trkpt lat="48.17598" lon="6.58515">
        <ele>433.8</ele>
        <time>2022-11-07T09:43:32Z</time>
      </trkpt>
      <trkpt lat="48.17597" lon="6.58513">
        <ele>433.6</ele>
        <time>2022-11-07T09:43:34Z</time>
      </trkpt>
      <trkpt lat="48.17594" lon="6.58507">
        <ele>433.6</ele>
        <time>2022-11-07T09:43:40Z</time>
      </trkpt>
      <trkpt lat="48.17592" lon="6.58503">
        <ele>433.4</ele>
        <time>2022-11-07T09:43:43Z</time>
      </trkpt>
      <trkpt lat="48.17589" lon="6.58497">
        <ele>433.4</ele>
        <time>2022-11-07T09:43:48Z</time>
      </trkpt>
      <trkpt lat="48.17585" lon="6.58494">
        <ele>433.4</ele>
        <time>2022-11-07T09:43:53Z</time>
      </trkpt>
      <trkpt lat="48.17579" lon="6.58488">
        <ele>433.2</ele>
        <time>2022-11-07T09:43:59Z</time>
      </trkpt>
      <trkpt lat="48.17578" lon="6.58488">
        <ele>433.2</ele>
        <time>2022-11-07T09:44:00Z</time>
      </trkpt>
      <trkpt lat="48.17576" lon="6.58485">
        <ele>433.2</ele>
        <time>2022-11-07T09:44:02Z</time>
      </trkpt>
      <trkpt lat="48.17568" lon="6.58477">
        <ele>433.6</ele>
        <time>2022-11-07T09:44:10Z</time>
      </trkpt>
      <trkpt lat="48.17559" lon="6.58471">
        <ele>433.4</ele>
        <time>2022-11-07T09:44:17Z</time>
      </trkpt>
      <trkpt lat="48.17552" lon="6.58464">
        <ele>433.6</ele>
        <time>2022-11-07T09:44:23Z</time>
      </trkpt>
      <trkpt lat="48.17549" lon="6.58463">
        <ele>433.6</ele>
        <time>2022-11-07T09:44:25Z</time>
      </trkpt>
      <trkpt lat="48.17545" lon="6.58458">
        <ele>433.8</ele>
        <time>2022-11-07T09:44:30Z</time>
      </trkpt>
      <trkpt lat="48.17543" lon="6.58457">
        <ele>433.8</ele>
        <time>2022-11-07T09:44:32Z</time>
      </trkpt>
      <trkpt lat="48.17542" lon="6.58456">
        <ele>433.8</ele>
        <time>2022-11-07T09:44:33Z</time>
      </trkpt>
      <trkpt lat="48.1753" lon="6.5844">
        <ele>433.8</ele>
        <time>2022-11-07T09:44:47Z</time>
      </trkpt>
      <trkpt lat="48.17529" lon="6.58438">
        <ele>433.8</ele>
        <time>2022-11-07T09:44:49Z</time>
      </trkpt>
      <trkpt lat="48.17527" lon="6.58435">
        <ele>433.8</ele>
        <time>2022-11-07T09:44:51Z</time>
      </trkpt>
      <trkpt lat="48.17526" lon="6.58433">
        <ele>434</ele>
        <time>2022-11-07T09:44:53Z</time>
      </trkpt>
      <trkpt lat="48.17524" lon="6.58431">
        <ele>434.4</ele>
        <time>2022-11-07T09:44:54Z</time>
      </trkpt>
      <trkpt lat="48.17522" lon="6.58426">
        <ele>435</ele>
        <time>2022-11-07T09:44:57Z</time>
      </trkpt>
      <trkpt lat="48.17518" lon="6.5842">
        <ele>435</ele>
        <time>2022-11-07T09:45:01Z</time>
      </trkpt>
      <trkpt lat="48.17517" lon="6.58418">
        <ele>434.6</ele>
        <time>2022-11-07T09:45:03Z</time>
      </trkpt>
      <trkpt lat="48.17515" lon="6.58416">
        <ele>434.4</ele>
        <time>2022-11-07T09:45:05Z</time>
      </trkpt>
      <trkpt lat="48.17507" lon="6.58407">
        <ele>434.2</ele>
        <time>2022-11-07T09:45:13Z</time>
      </trkpt>
      <trkpt lat="48.17501" lon="6.58399">
        <ele>433.6</ele>
        <time>2022-11-07T09:45:20Z</time>
      </trkpt>
      <trkpt lat="48.17499" lon="6.58395">
        <ele>433.2</ele>
        <time>2022-11-07T09:45:23Z</time>
      </trkpt>
      <trkpt lat="48.17498" lon="6.58394">
        <ele>433.4</ele>
        <time>2022-11-07T09:45:24Z</time>
      </trkpt>
      <trkpt lat="48.17492" lon="6.58389">
        <ele>433.4</ele>
        <time>2022-11-07T09:45:29Z</time>
      </trkpt>
      <trkpt lat="48.17487" lon="6.58383">
        <ele>433</ele>
        <time>2022-11-07T09:45:34Z</time>
      </trkpt>
      <trkpt lat="48.17479" lon="6.58376">
        <ele>432.8</ele>
        <time>2022-11-07T09:45:41Z</time>
      </trkpt>
      <trkpt lat="48.17478" lon="6.58374">
        <ele>432.8</ele>
        <time>2022-11-07T09:45:42Z</time>
      </trkpt>
      <trkpt lat="48.17476" lon="6.5837">
        <ele>432.8</ele>
        <time>2022-11-07T09:45:46Z</time>
      </trkpt>
      <trkpt lat="48.1747" lon="6.5836">
        <ele>432.6</ele>
        <time>2022-11-07T09:45:53Z</time>
      </trkpt>
      <trkpt lat="48.17459" lon="6.58345">
        <ele>433</ele>
        <time>2022-11-07T09:46:07Z</time>
      </trkpt>
      <trkpt lat="48.1746" lon="6.58343">
        <ele>433</ele>
        <time>2022-11-07T09:46:08Z</time>
      </trkpt>
      <trkpt lat="48.1746" lon="6.58341">
        <ele>433</ele>
        <time>2022-11-07T09:46:10Z</time>
      </trkpt>
      <trkpt lat="48.17461" lon="6.5834">
        <ele>432.8</ele>
        <time>2022-11-07T09:46:12Z</time>
      </trkpt>
      <trkpt lat="48.17459" lon="6.58334">
        <ele>433.2</ele>
        <time>2022-11-07T09:46:20Z</time>
      </trkpt>
      <trkpt lat="48.17458" lon="6.5833">
        <ele>433.2</ele>
        <time>2022-11-07T09:46:24Z</time>
      </trkpt>
      <trkpt lat="48.17458" lon="6.58328">
        <ele>433.2</ele>
        <time>2022-11-07T09:46:26Z</time>
      </trkpt>
      <trkpt lat="48.17453" lon="6.58321">
        <ele>433.4</ele>
        <time>2022-11-07T09:46:34Z</time>
      </trkpt>
      <trkpt lat="48.17452" lon="6.5832">
        <ele>433.4</ele>
        <time>2022-11-07T09:46:39Z</time>
      </trkpt>
      <trkpt lat="48.17452" lon="6.58319">
        <ele>433.6</ele>
        <time>2022-11-07T09:46:48Z</time>
      </trkpt>
      <trkpt lat="48.1745" lon="6.58319">
        <ele>433.6</ele>
        <time>2022-11-07T09:46:50Z</time>
      </trkpt>
      <trkpt lat="48.17447" lon="6.5832">
        <ele>433.6</ele>
        <time>2022-11-07T09:46:53Z</time>
      </trkpt>
      <trkpt lat="48.17443" lon="6.58321">
        <ele>434.4</ele>
        <time>2022-11-07T09:46:58Z</time>
      </trkpt>
      <trkpt lat="48.17442" lon="6.5832">
        <ele>434.6</ele>
        <time>2022-11-07T09:47:00Z</time>
      </trkpt>
      <trkpt lat="48.1744" lon="6.5832">
        <ele>434.8</ele>
        <time>2022-11-07T09:47:02Z</time>
      </trkpt>
      <trkpt lat="48.17439" lon="6.5832">
        <ele>435</ele>
        <time>2022-11-07T09:47:03Z</time>
      </trkpt>
      <trkpt lat="48.17436" lon="6.58319">
        <ele>435.2</ele>
        <time>2022-11-07T09:47:08Z</time>
      </trkpt>
      <trkpt lat="48.17435" lon="6.58319">
        <ele>435.4</ele>
        <time>2022-11-07T09:47:09Z</time>
      </trkpt>
      <trkpt lat="48.17433" lon="6.58319">
        <ele>435.6</ele>
        <time>2022-11-07T09:47:11Z</time>
      </trkpt>
      <trkpt lat="48.17431" lon="6.5832">
        <ele>435.8</ele>
        <time>2022-11-07T09:47:13Z</time>
      </trkpt>
      <trkpt lat="48.17426" lon="6.58319">
        <ele>436.2</ele>
        <time>2022-11-07T09:47:18Z</time>
      </trkpt>
      <trkpt lat="48.17422" lon="6.5832">
        <ele>436.2</ele>
        <time>2022-11-07T09:47:20Z</time>
      </trkpt>
      <trkpt lat="48.17421" lon="6.5832">
        <ele>436.4</ele>
        <time>2022-11-07T09:47:21Z</time>
      </trkpt>
      <trkpt lat="48.1742" lon="6.5832">
        <ele>436.6</ele>
        <time>2022-11-07T09:47:22Z</time>
      </trkpt>
      <trkpt lat="48.1741" lon="6.58319">
        <ele>437</ele>
        <time>2022-11-07T09:47:32Z</time>
      </trkpt>
      <trkpt lat="48.17408" lon="6.58319">
        <ele>437.4</ele>
        <time>2022-11-07T09:47:34Z</time>
      </trkpt>
      <trkpt lat="48.17407" lon="6.58319">
        <ele>437.6</ele>
        <time>2022-11-07T09:47:35Z</time>
      </trkpt>
      <trkpt lat="48.17402" lon="6.58317">
        <ele>438</ele>
        <time>2022-11-07T09:47:40Z</time>
      </trkpt>
      <trkpt lat="48.17392" lon="6.58312">
        <ele>438.6</ele>
        <time>2022-11-07T09:47:48Z</time>
      </trkpt>
      <trkpt lat="48.17391" lon="6.58312">
        <ele>438.6</ele>
        <time>2022-11-07T09:47:49Z</time>
      </trkpt>
      <trkpt lat="48.17381" lon="6.58311">
        <ele>439.8</ele>
        <time>2022-11-07T09:47:58Z</time>
      </trkpt>
      <trkpt lat="48.17376" lon="6.58311">
        <ele>440</ele>
        <time>2022-11-07T09:48:03Z</time>
      </trkpt>
      <trkpt lat="48.17372" lon="6.5831">
        <ele>440.2</ele>
        <time>2022-11-07T09:48:07Z</time>
      </trkpt>
      <trkpt lat="48.17367" lon="6.58308">
        <ele>441</ele>
        <time>2022-11-07T09:48:13Z</time>
      </trkpt>
      <trkpt lat="48.1736" lon="6.58307">
        <ele>441.8</ele>
        <time>2022-11-07T09:48:19Z</time>
      </trkpt>
      <trkpt lat="48.17358" lon="6.58307">
        <ele>442</ele>
        <time>2022-11-07T09:48:21Z</time>
      </trkpt>
      <trkpt lat="48.17347" lon="6.58308">
        <ele>443</ele>
        <time>2022-11-07T09:48:29Z</time>
      </trkpt>
      <trkpt lat="48.17343" lon="6.58309">
        <ele>443.2</ele>
        <time>2022-11-07T09:48:32Z</time>
      </trkpt>
      <trkpt lat="48.17341" lon="6.5831">
        <ele>443.4</ele>
        <time>2022-11-07T09:48:34Z</time>
      </trkpt>
      <trkpt lat="48.17337" lon="6.58311">
        <ele>444.2</ele>
        <time>2022-11-07T09:48:38Z</time>
      </trkpt>
      <trkpt lat="48.17327" lon="6.58312">
        <ele>445.4</ele>
        <time>2022-11-07T09:48:48Z</time>
      </trkpt>
      <trkpt lat="48.17321" lon="6.58311">
        <ele>445.6</ele>
        <time>2022-11-07T09:48:53Z</time>
      </trkpt>
      <trkpt lat="48.17312" lon="6.58309">
        <ele>446.4</ele>
        <time>2022-11-07T09:49:00Z</time>
      </trkpt>
      <trkpt lat="48.17305" lon="6.58309">
        <ele>447</ele>
        <time>2022-11-07T09:49:08Z</time>
      </trkpt>
      <trkpt lat="48.17303" lon="6.5831">
        <ele>447.2</ele>
        <time>2022-11-07T09:49:10Z</time>
      </trkpt>
      <trkpt lat="48.17301" lon="6.5831">
        <ele>447.6</ele>
        <time>2022-11-07T09:49:11Z</time>
      </trkpt>
      <trkpt lat="48.17284" lon="6.58309">
        <ele>448</ele>
        <time>2022-11-07T09:49:23Z</time>
      </trkpt>
      <trkpt lat="48.17272" lon="6.58306">
        <ele>448</ele>
        <time>2022-11-07T09:49:35Z</time>
      </trkpt>
      <trkpt lat="48.17271" lon="6.58305">
        <ele>448</ele>
        <time>2022-11-07T09:49:36Z</time>
      </trkpt>
      <trkpt lat="48.1727" lon="6.58305">
        <ele>448</ele>
        <time>2022-11-07T09:49:37Z</time>
      </trkpt>
      <trkpt lat="48.17267" lon="6.58305">
        <ele>448.6</ele>
        <time>2022-11-07T09:49:40Z</time>
      </trkpt>
      <trkpt lat="48.17265" lon="6.58305">
        <ele>449</ele>
        <time>2022-11-07T09:49:44Z</time>
      </trkpt>
      <trkpt lat="48.17264" lon="6.58305">
        <ele>449</ele>
        <time>2022-11-07T09:49:45Z</time>
      </trkpt>
      <trkpt lat="48.17261" lon="6.58304">
        <ele>448.6</ele>
        <time>2022-11-07T09:49:49Z</time>
      </trkpt>
      <trkpt lat="48.1726" lon="6.58304">
        <ele>448.6</ele>
        <time>2022-11-07T09:49:50Z</time>
      </trkpt>
      <trkpt lat="48.17259" lon="6.58304">
        <ele>448.8</ele>
        <time>2022-11-07T09:49:52Z</time>
      </trkpt>
      <trkpt lat="48.17253" lon="6.58303">
        <ele>448.8</ele>
        <time>2022-11-07T09:49:59Z</time>
      </trkpt>
      <trkpt lat="48.17251" lon="6.58302">
        <ele>448.8</ele>
        <time>2022-11-07T09:50:01Z</time>
      </trkpt>
      <trkpt lat="48.1725" lon="6.58302">
        <ele>448.8</ele>
        <time>2022-11-07T09:50:03Z</time>
      </trkpt>
      <trkpt lat="48.1725" lon="6.58301">
        <ele>448.8</ele>
        <time>2022-11-07T09:50:04Z</time>
      </trkpt>
      <trkpt lat="48.17249" lon="6.58301">
        <ele>449</ele>
        <time>2022-11-07T09:50:05Z</time>
      </trkpt>
      <trkpt lat="48.17242" lon="6.58299">
        <ele>449</ele>
        <time>2022-11-07T09:50:10Z</time>
      </trkpt>
      <trkpt lat="48.1724" lon="6.58299">
        <ele>449</ele>
        <time>2022-11-07T09:50:11Z</time>
      </trkpt>
      <trkpt lat="48.17234" lon="6.58297">
        <ele>449</ele>
        <time>2022-11-07T09:50:17Z</time>
      </trkpt>
      <trkpt lat="48.17221" lon="6.58293">
        <ele>447.8</ele>
        <time>2022-11-07T09:50:29Z</time>
      </trkpt>
      <trkpt lat="48.17217" lon="6.58292">
        <ele>447.6</ele>
        <time>2022-11-07T09:50:33Z</time>
      </trkpt>
      <trkpt lat="48.17206" lon="6.58289">
        <ele>446.4</ele>
        <time>2022-11-07T09:50:43Z</time>
      </trkpt>
      <trkpt lat="48.17204" lon="6.58287">
        <ele>446.2</ele>
        <time>2022-11-07T09:50:45Z</time>
      </trkpt>
      <trkpt lat="48.17197" lon="6.58284">
        <ele>445.4</ele>
        <time>2022-11-07T09:50:52Z</time>
      </trkpt>
      <trkpt lat="48.17195" lon="6.58284">
        <ele>445.2</ele>
        <time>2022-11-07T09:50:53Z</time>
      </trkpt>
      <trkpt lat="48.17192" lon="6.58284">
        <ele>444.6</ele>
        <time>2022-11-07T09:50:56Z</time>
      </trkpt>
      <trkpt lat="48.17188" lon="6.58284">
        <ele>444.2</ele>
        <time>2022-11-07T09:51:00Z</time>
      </trkpt>
      <trkpt lat="48.17185" lon="6.58285">
        <ele>443.8</ele>
        <time>2022-11-07T09:51:03Z</time>
      </trkpt>
      <trkpt lat="48.17181" lon="6.58285">
        <ele>442.8</ele>
        <time>2022-11-07T09:51:07Z</time>
      </trkpt>
      <trkpt lat="48.17177" lon="6.58284">
        <ele>442.4</ele>
        <time>2022-11-07T09:51:12Z</time>
      </trkpt>
      <trkpt lat="48.17175" lon="6.58283">
        <ele>441.6</ele>
        <time>2022-11-07T09:51:15Z</time>
      </trkpt>
      <trkpt lat="48.17173" lon="6.58283">
        <ele>441.2</ele>
        <time>2022-11-07T09:51:17Z</time>
      </trkpt>
      <trkpt lat="48.17173" lon="6.58282">
        <ele>441</ele>
        <time>2022-11-07T09:51:18Z</time>
      </trkpt>
      <trkpt lat="48.17172" lon="6.58282">
        <ele>440.8</ele>
        <time>2022-11-07T09:51:19Z</time>
      </trkpt>
      <trkpt lat="48.17171" lon="6.58282">
        <ele>440.6</ele>
        <time>2022-11-07T09:51:20Z</time>
      </trkpt>
      <trkpt lat="48.17169" lon="6.58283">
        <ele>440.4</ele>
        <time>2022-11-07T09:51:23Z</time>
      </trkpt>
      <trkpt lat="48.17167" lon="6.58283">
        <ele>440</ele>
        <time>2022-11-07T09:51:25Z</time>
      </trkpt>
      <trkpt lat="48.17163" lon="6.58284">
        <ele>439.8</ele>
        <time>2022-11-07T09:51:29Z</time>
      </trkpt>
      <trkpt lat="48.17162" lon="6.58284">
        <ele>439.6</ele>
        <time>2022-11-07T09:51:30Z</time>
      </trkpt>
      <trkpt lat="48.17158" lon="6.58285">
        <ele>439</ele>
        <time>2022-11-07T09:51:33Z</time>
      </trkpt>
      <trkpt lat="48.17154" lon="6.58285">
        <ele>438.8</ele>
        <time>2022-11-07T09:51:37Z</time>
      </trkpt>
      <trkpt lat="48.17152" lon="6.58286">
        <ele>438.6</ele>
        <time>2022-11-07T09:51:39Z</time>
      </trkpt>
      <trkpt lat="48.17146" lon="6.58286">
        <ele>437.8</ele>
        <time>2022-11-07T09:51:45Z</time>
      </trkpt>
      <trkpt lat="48.17143" lon="6.58287">
        <ele>437.4</ele>
        <time>2022-11-07T09:51:48Z</time>
      </trkpt>
      <trkpt lat="48.17141" lon="6.58287">
        <ele>437.2</ele>
        <time>2022-11-07T09:51:49Z</time>
      </trkpt>
      <trkpt lat="48.17135" lon="6.58289">
        <ele>436.4</ele>
        <time>2022-11-07T09:51:56Z</time>
      </trkpt>
      <trkpt lat="48.1713" lon="6.58292">
        <ele>435.2</ele>
        <time>2022-11-07T09:52:01Z</time>
      </trkpt>
      <trkpt lat="48.17129" lon="6.58292">
        <ele>435</ele>
        <time>2022-11-07T09:52:02Z</time>
      </trkpt>
      <trkpt lat="48.17128" lon="6.58291">
        <ele>434.8</ele>
        <time>2022-11-07T09:52:04Z</time>
      </trkpt>
      <trkpt lat="48.17126" lon="6.5829">
        <ele>434.6</ele>
        <time>2022-11-07T09:52:06Z</time>
      </trkpt>
      <trkpt lat="48.17119" lon="6.58289">
        <ele>434.2</ele>
        <time>2022-11-07T09:52:12Z</time>
      </trkpt>
      <trkpt lat="48.17106" lon="6.58289">
        <ele>433.4</ele>
        <time>2022-11-07T09:52:23Z</time>
      </trkpt>
      <trkpt lat="48.17104" lon="6.58289">
        <ele>433</ele>
        <time>2022-11-07T09:52:25Z</time>
      </trkpt>
      <trkpt lat="48.17099" lon="6.58288">
        <ele>432.4</ele>
        <time>2022-11-07T09:52:30Z</time>
      </trkpt>
      <trkpt lat="48.17097" lon="6.58288">
        <ele>432.2</ele>
        <time>2022-11-07T09:52:31Z</time>
      </trkpt>
      <trkpt lat="48.17094" lon="6.58289">
        <ele>432</ele>
        <time>2022-11-07T09:52:33Z</time>
      </trkpt>
      <trkpt lat="48.17088" lon="6.58291">
        <ele>431.4</ele>
        <time>2022-11-07T09:52:38Z</time>
      </trkpt>
      <trkpt lat="48.17083" lon="6.58291">
        <ele>431</ele>
        <time>2022-11-07T09:52:42Z</time>
      </trkpt>
      <trkpt lat="48.17076" lon="6.58293">
        <ele>430</ele>
        <time>2022-11-07T09:52:47Z</time>
      </trkpt>
      <trkpt lat="48.17075" lon="6.58293">
        <ele>429.8</ele>
        <time>2022-11-07T09:52:48Z</time>
      </trkpt>
      <trkpt lat="48.17069" lon="6.58294">
        <ele>428.6</ele>
        <time>2022-11-07T09:52:55Z</time>
      </trkpt>
      <trkpt lat="48.17065" lon="6.58295">
        <ele>427.6</ele>
        <time>2022-11-07T09:53:01Z</time>
      </trkpt>
      <trkpt lat="48.17064" lon="6.58297">
        <ele>427.2</ele>
        <time>2022-11-07T09:53:03Z</time>
      </trkpt>
      <trkpt lat="48.17063" lon="6.58297">
        <ele>427</ele>
        <time>2022-11-07T09:53:05Z</time>
      </trkpt>
      <trkpt lat="48.17062" lon="6.58298">
        <ele>426.8</ele>
        <time>2022-11-07T09:53:07Z</time>
      </trkpt>
      <trkpt lat="48.17059" lon="6.58298">
        <ele>426.6</ele>
        <time>2022-11-07T09:53:10Z</time>
      </trkpt>
      <trkpt lat="48.17057" lon="6.58297">
        <ele>426.4</ele>
        <time>2022-11-07T09:53:12Z</time>
      </trkpt>
      <trkpt lat="48.17054" lon="6.58298">
        <ele>425.8</ele>
        <time>2022-11-07T09:53:16Z</time>
      </trkpt>
      <trkpt lat="48.17052" lon="6.58298">
        <ele>425.4</ele>
        <time>2022-11-07T09:53:19Z</time>
      </trkpt>
      <trkpt lat="48.17051" lon="6.58298">
        <ele>425</ele>
        <time>2022-11-07T09:53:20Z</time>
      </trkpt>
      <trkpt lat="48.17049" lon="6.58298">
        <ele>424.6</ele>
        <time>2022-11-07T09:53:23Z</time>
      </trkpt>
      <trkpt lat="48.17048" lon="6.58299">
        <ele>424.2</ele>
        <time>2022-11-07T09:53:26Z</time>
      </trkpt>
      <trkpt lat="48.17046" lon="6.583">
        <ele>423.8</ele>
        <time>2022-11-07T09:53:28Z</time>
      </trkpt>
      <trkpt lat="48.17043" lon="6.58302">
        <ele>423</ele>
        <time>2022-11-07T09:53:32Z</time>
      </trkpt>
      <trkpt lat="48.17039" lon="6.58304">
        <ele>422.2</ele>
        <time>2022-11-07T09:53:36Z</time>
      </trkpt>
      <trkpt lat="48.17037" lon="6.58305">
        <ele>422.2</ele>
        <time>2022-11-07T09:53:38Z</time>
      </trkpt>
      <trkpt lat="48.17036" lon="6.58306">
        <ele>422</ele>
        <time>2022-11-07T09:53:39Z</time>
      </trkpt>
      <trkpt lat="48.17034" lon="6.58307">
        <ele>421.4</ele>
        <time>2022-11-07T09:53:41Z</time>
      </trkpt>
      <trkpt lat="48.17033" lon="6.58308">
        <ele>421.2</ele>
        <time>2022-11-07T09:53:43Z</time>
      </trkpt>
      <trkpt lat="48.17031" lon="6.58309">
        <ele>421</ele>
        <time>2022-11-07T09:53:45Z</time>
      </trkpt>
      <trkpt lat="48.17027" lon="6.5831">
        <ele>420.8</ele>
        <time>2022-11-07T09:53:48Z</time>
      </trkpt>
      <trkpt lat="48.17026" lon="6.58311">
        <ele>420.6</ele>
        <time>2022-11-07T09:53:49Z</time>
      </trkpt>
      <trkpt lat="48.17025" lon="6.58311">
        <ele>420.6</ele>
        <time>2022-11-07T09:53:50Z</time>
      </trkpt>
      <trkpt lat="48.17023" lon="6.58313">
        <ele>420.2</ele>
        <time>2022-11-07T09:53:53Z</time>
      </trkpt>
      <trkpt lat="48.17021" lon="6.58315">
        <ele>419.8</ele>
        <time>2022-11-07T09:53:55Z</time>
      </trkpt>
      <trkpt lat="48.17019" lon="6.58316">
        <ele>419.6</ele>
        <time>2022-11-07T09:53:58Z</time>
      </trkpt>
      <trkpt lat="48.17017" lon="6.58316">
        <ele>419.2</ele>
        <time>2022-11-07T09:54:00Z</time>
      </trkpt>
      <trkpt lat="48.17016" lon="6.58316">
        <ele>419.2</ele>
        <time>2022-11-07T09:54:01Z</time>
      </trkpt>
      <trkpt lat="48.17015" lon="6.58316">
        <ele>419</ele>
        <time>2022-11-07T09:54:02Z</time>
      </trkpt>
      <trkpt lat="48.1701" lon="6.58315">
        <ele>418.8</ele>
        <time>2022-11-07T09:54:06Z</time>
      </trkpt>
      <trkpt lat="48.17009" lon="6.58314">
        <ele>418.6</ele>
        <time>2022-11-07T09:54:07Z</time>
      </trkpt>
      <trkpt lat="48.17005" lon="6.58312">
        <ele>418.2</ele>
        <time>2022-11-07T09:54:10Z</time>
      </trkpt>
      <trkpt lat="48.17003" lon="6.58313">
        <ele>418</ele>
        <time>2022-11-07T09:54:12Z</time>
      </trkpt>
      <trkpt lat="48.16999" lon="6.58313">
        <ele>417.6</ele>
        <time>2022-11-07T09:54:18Z</time>
      </trkpt>
      <trkpt lat="48.16991" lon="6.5832">
        <ele>416.6</ele>
        <time>2022-11-07T09:54:28Z</time>
      </trkpt>
      <trkpt lat="48.1699" lon="6.5832">
        <ele>416</ele>
        <time>2022-11-07T09:54:31Z</time>
      </trkpt>
      <trkpt lat="48.16989" lon="6.5832">
        <ele>415.8</ele>
        <time>2022-11-07T09:54:33Z</time>
      </trkpt>
      <trkpt lat="48.16989" lon="6.58318">
        <ele>414.8</ele>
        <time>2022-11-07T09:54:53Z</time>
      </trkpt>
      <trkpt lat="48.16987" lon="6.58317">
        <ele>415.2</ele>
        <time>2022-11-07T09:55:10Z</time>
      </trkpt>
      <trkpt lat="48.16987" lon="6.58316">
        <ele>415</ele>
        <time>2022-11-07T09:55:14Z</time>
      </trkpt>
      <trkpt lat="48.16988" lon="6.58317">
        <ele>414.8</ele>
        <time>2022-11-07T09:55:19Z</time>
      </trkpt>
      <trkpt lat="48.16988" lon="6.58316">
        <ele>415.6</ele>
        <time>2022-11-07T09:55:34Z</time>
      </trkpt>
      <trkpt lat="48.16989" lon="6.58315">
        <ele>415.4</ele>
        <time>2022-11-07T09:55:46Z</time>
      </trkpt>
      <trkpt lat="48.16989" lon="6.58314">
        <ele>415</ele>
        <time>2022-11-07T09:55:56Z</time>
      </trkpt>
      <trkpt lat="48.16989" lon="6.58316">
        <ele>414.6</ele>
        <time>2022-11-07T09:56:03Z</time>
      </trkpt>
      <trkpt lat="48.16989" lon="6.58317">
        <ele>414.4</ele>
        <time>2022-11-07T09:56:05Z</time>
      </trkpt>
      <trkpt lat="48.1699" lon="6.58315">
        <ele>414.6</ele>
        <time>2022-11-07T09:56:13Z</time>
      </trkpt>
      <trkpt lat="48.16989" lon="6.58316">
        <ele>415.4</ele>
        <time>2022-11-07T09:56:32Z</time>
      </trkpt>
      <trkpt lat="48.16988" lon="6.58316">
        <ele>415.2</ele>
        <time>2022-11-07T09:56:36Z</time>
      </trkpt>
      <trkpt lat="48.16986" lon="6.58318">
        <ele>415.2</ele>
        <time>2022-11-07T09:56:44Z</time>
      </trkpt>
      <trkpt lat="48.16985" lon="6.58318">
        <ele>414.8</ele>
        <time>2022-11-07T09:56:52Z</time>
      </trkpt>
      <trkpt lat="48.16985" lon="6.58317">
        <ele>415</ele>
        <time>2022-11-07T09:57:04Z</time>
      </trkpt>
      <trkpt lat="48.16987" lon="6.58316">
        <ele>415</ele>
        <time>2022-11-07T09:57:10Z</time>
      </trkpt>
      <trkpt lat="48.16989" lon="6.58315">
        <ele>415</ele>
        <time>2022-11-07T09:57:27Z</time>
      </trkpt>
      <trkpt lat="48.16988" lon="6.58317">
        <ele>415.2</ele>
        <time>2022-11-07T09:57:32Z</time>
      </trkpt>
      <trkpt lat="48.16987" lon="6.58317">
        <ele>415.2</ele>
        <time>2022-11-07T09:57:40Z</time>
      </trkpt>
      <trkpt lat="48.16986" lon="6.58316">
        <ele>415</ele>
        <time>2022-11-07T09:57:42Z</time>
      </trkpt>
      <trkpt lat="48.16985" lon="6.58317">
        <ele>415</ele>
        <time>2022-11-07T09:57:45Z</time>
      </trkpt>
      <trkpt lat="48.16984" lon="6.58317">
        <ele>415</ele>
        <time>2022-11-07T09:57:51Z</time>
      </trkpt>
      <trkpt lat="48.16985" lon="6.58316">
        <ele>415</ele>
        <time>2022-11-07T09:57:54Z</time>
      </trkpt>
      <trkpt lat="48.16989" lon="6.58312">
        <ele>415</ele>
        <time>2022-11-07T09:58:01Z</time>
      </trkpt>
      <trkpt lat="48.16988" lon="6.58311">
        <ele>415</ele>
        <time>2022-11-07T09:58:15Z</time>
      </trkpt>
      <trkpt lat="48.16989" lon="6.58311">
        <ele>415</ele>
        <time>2022-11-07T09:58:16Z</time>
      </trkpt>
      <trkpt lat="48.16989" lon="6.58312">
        <ele>415</ele>
        <time>2022-11-07T09:58:22Z</time>
      </trkpt>
      <trkpt lat="48.16988" lon="6.58312">
        <ele>414.8</ele>
        <time>2022-11-07T09:58:31Z</time>
      </trkpt>
      <trkpt lat="48.16989" lon="6.58314">
        <ele>414.6</ele>
        <time>2022-11-07T09:58:53Z</time>
      </trkpt>
      <trkpt lat="48.1699" lon="6.58315">
        <ele>414.6</ele>
        <time>2022-11-07T09:59:01Z</time>
      </trkpt>
      <trkpt lat="48.16991" lon="6.58315">
        <ele>414.4</ele>
        <time>2022-11-07T09:59:04Z</time>
      </trkpt>
      <trkpt lat="48.16991" lon="6.58314">
        <ele>414.4</ele>
        <time>2022-11-07T09:59:05Z</time>
      </trkpt>
      <trkpt lat="48.16992" lon="6.58313">
        <ele>414.4</ele>
        <time>2022-11-07T09:59:19Z</time>
      </trkpt>
      <trkpt lat="48.16994" lon="6.58312">
        <ele>414.4</ele>
        <time>2022-11-07T09:59:26Z</time>
      </trkpt>
      <trkpt lat="48.16994" lon="6.58313">
        <ele>414.4</ele>
        <time>2022-11-07T09:59:35Z</time>
      </trkpt>
      <trkpt lat="48.16995" lon="6.58314">
        <ele>414.2</ele>
        <time>2022-11-07T09:59:54Z</time>
      </trkpt>
      <trkpt lat="48.16995" lon="6.58313">
        <ele>414.2</ele>
        <time>2022-11-07T09:59:55Z</time>
      </trkpt>
      <trkpt lat="48.16994" lon="6.58314">
        <ele>414.8</ele>
        <time>2022-11-07T10:00:00Z</time>
      </trkpt>
      <trkpt lat="48.16994" lon="6.58316">
        <ele>414.6</ele>
        <time>2022-11-07T10:00:10Z</time>
      </trkpt>
      <trkpt lat="48.1699" lon="6.58314">
        <ele>414.4</ele>
        <time>2022-11-07T10:00:23Z</time>
      </trkpt>
      <trkpt lat="48.1699" lon="6.5831">
        <ele>415.4</ele>
        <time>2022-11-07T10:00:28Z</time>
      </trkpt>
      <trkpt lat="48.16988" lon="6.58308">
        <ele>415.6</ele>
        <time>2022-11-07T10:00:30Z</time>
      </trkpt>
      <trkpt lat="48.16988" lon="6.58306">
        <ele>415.6</ele>
        <time>2022-11-07T10:00:31Z</time>
      </trkpt>
      <trkpt lat="48.16987" lon="6.58305">
        <ele>415.6</ele>
        <time>2022-11-07T10:00:32Z</time>
      </trkpt>
      <trkpt lat="48.16987" lon="6.58302">
        <ele>415.6</ele>
        <time>2022-11-07T10:00:33Z</time>
      </trkpt>
      <trkpt lat="48.16987" lon="6.58301">
        <ele>415.4</ele>
        <time>2022-11-07T10:00:34Z</time>
      </trkpt>
      <trkpt lat="48.16986" lon="6.58301">
        <ele>415.4</ele>
        <time>2022-11-07T10:00:35Z</time>
      </trkpt>
      <trkpt lat="48.16985" lon="6.58299">
        <ele>415.4</ele>
        <time>2022-11-07T10:00:37Z</time>
      </trkpt>
      <trkpt lat="48.16983" lon="6.58286">
        <ele>415.2</ele>
        <time>2022-11-07T10:00:45Z</time>
      </trkpt>
      <trkpt lat="48.16983" lon="6.58282">
        <ele>415.2</ele>
        <time>2022-11-07T10:00:47Z</time>
      </trkpt>
      <trkpt lat="48.16982" lon="6.58272">
        <ele>414.6</ele>
        <time>2022-11-07T10:00:52Z</time>
      </trkpt>
      <trkpt lat="48.16982" lon="6.58267">
        <ele>414.6</ele>
        <time>2022-11-07T10:00:55Z</time>
      </trkpt>
      <trkpt lat="48.16982" lon="6.58257">
        <ele>414.4</ele>
        <time>2022-11-07T10:01:01Z</time>
      </trkpt>
      <trkpt lat="48.16982" lon="6.58253">
        <ele>414.4</ele>
        <time>2022-11-07T10:01:03Z</time>
      </trkpt>
      <trkpt lat="48.1698" lon="6.58245">
        <ele>414.2</ele>
        <time>2022-11-07T10:01:10Z</time>
      </trkpt>
      <trkpt lat="48.1698" lon="6.58243">
        <ele>414.2</ele>
        <time>2022-11-07T10:01:13Z</time>
      </trkpt>
      <trkpt lat="48.1698" lon="6.58242">
        <ele>414.2</ele>
        <time>2022-11-07T10:01:15Z</time>
      </trkpt>
      <trkpt lat="48.16978" lon="6.58234">
        <ele>414.4</ele>
        <time>2022-11-07T10:01:22Z</time>
      </trkpt>
      <trkpt lat="48.16978" lon="6.58232">
        <ele>414.4</ele>
        <time>2022-11-07T10:01:23Z</time>
      </trkpt>
      <trkpt lat="48.16978" lon="6.5822">
        <ele>414.4</ele>
        <time>2022-11-07T10:01:33Z</time>
      </trkpt>
      <trkpt lat="48.16978" lon="6.58212">
        <ele>414.2</ele>
        <time>2022-11-07T10:01:39Z</time>
      </trkpt>
      <trkpt lat="48.16977" lon="6.58206">
        <ele>414.4</ele>
        <time>2022-11-07T10:01:43Z</time>
      </trkpt>
      <trkpt lat="48.16977" lon="6.58201">
        <ele>413.8</ele>
        <time>2022-11-07T10:01:46Z</time>
      </trkpt>
      <trkpt lat="48.16977" lon="6.58189">
        <ele>413.6</ele>
        <time>2022-11-07T10:01:54Z</time>
      </trkpt>
      <trkpt lat="48.16977" lon="6.58187">
        <ele>413.2</ele>
        <time>2022-11-07T10:01:56Z</time>
      </trkpt>
      <trkpt lat="48.16974" lon="6.58171">
        <ele>412.4</ele>
        <time>2022-11-07T10:02:09Z</time>
      </trkpt>
      <trkpt lat="48.16973" lon="6.58162">
        <ele>412.2</ele>
        <time>2022-11-07T10:02:15Z</time>
      </trkpt>
      <trkpt lat="48.16971" lon="6.58149">
        <ele>412</ele>
        <time>2022-11-07T10:02:23Z</time>
      </trkpt>
      <trkpt lat="48.1697" lon="6.58148">
        <ele>412</ele>
        <time>2022-11-07T10:02:24Z</time>
      </trkpt>
      <trkpt lat="48.1697" lon="6.58128">
        <ele>411.8</ele>
        <time>2022-11-07T10:02:35Z</time>
      </trkpt>
      <trkpt lat="48.16971" lon="6.58127">
        <ele>411.8</ele>
        <time>2022-11-07T10:02:36Z</time>
      </trkpt>
      <trkpt lat="48.1697" lon="6.5812">
        <ele>411.6</ele>
        <time>2022-11-07T10:02:39Z</time>
      </trkpt>
      <trkpt lat="48.16971" lon="6.58106">
        <ele>411.2</ele>
        <time>2022-11-07T10:02:46Z</time>
      </trkpt>
      <trkpt lat="48.16972" lon="6.58097">
        <ele>410.6</ele>
        <time>2022-11-07T10:02:52Z</time>
      </trkpt>
      <trkpt lat="48.16973" lon="6.58089">
        <ele>410.6</ele>
        <time>2022-11-07T10:02:57Z</time>
      </trkpt>
      <trkpt lat="48.16976" lon="6.58074">
        <ele>410.2</ele>
        <time>2022-11-07T10:03:06Z</time>
      </trkpt>
      <trkpt lat="48.16977" lon="6.58069">
        <ele>410.2</ele>
        <time>2022-11-07T10:03:09Z</time>
      </trkpt>
      <trkpt lat="48.16978" lon="6.58067">
        <ele>410</ele>
        <time>2022-11-07T10:03:11Z</time>
      </trkpt>
      <trkpt lat="48.16978" lon="6.58065">
        <ele>409.8</ele>
        <time>2022-11-07T10:03:13Z</time>
      </trkpt>
      <trkpt lat="48.1698" lon="6.5806">
        <ele>409.8</ele>
        <time>2022-11-07T10:03:17Z</time>
      </trkpt>
      <trkpt lat="48.16981" lon="6.58055">
        <ele>409.4</ele>
        <time>2022-11-07T10:03:19Z</time>
      </trkpt>
      <trkpt lat="48.16984" lon="6.58044">
        <ele>409</ele>
        <time>2022-11-07T10:03:26Z</time>
      </trkpt>
      <trkpt lat="48.16986" lon="6.58032">
        <ele>408.8</ele>
        <time>2022-11-07T10:03:31Z</time>
      </trkpt>
      <trkpt lat="48.16987" lon="6.58029">
        <ele>408.8</ele>
        <time>2022-11-07T10:03:33Z</time>
      </trkpt>
      <trkpt lat="48.16995" lon="6.58018">
        <ele>409.2</ele>
        <time>2022-11-07T10:03:40Z</time>
      </trkpt>
      <trkpt lat="48.17" lon="6.58013">
        <ele>408.8</ele>
        <time>2022-11-07T10:03:47Z</time>
      </trkpt>
      <trkpt lat="48.17011" lon="6.58">
        <ele>408.4</ele>
        <time>2022-11-07T10:03:59Z</time>
      </trkpt>
      <trkpt lat="48.17013" lon="6.57999">
        <ele>408.2</ele>
        <time>2022-11-07T10:04:01Z</time>
      </trkpt>
      <trkpt lat="48.17014" lon="6.57997">
        <ele>408</ele>
        <time>2022-11-07T10:04:03Z</time>
      </trkpt>
      <trkpt lat="48.17024" lon="6.57984">
        <ele>407.6</ele>
        <time>2022-11-07T10:04:13Z</time>
      </trkpt>
      <trkpt lat="48.17026" lon="6.57982">
        <ele>407.6</ele>
        <time>2022-11-07T10:04:15Z</time>
      </trkpt>
      <trkpt lat="48.17028" lon="6.57981">
        <ele>407.6</ele>
        <time>2022-11-07T10:04:16Z</time>
      </trkpt>
      <trkpt lat="48.17035" lon="6.57972">
        <ele>407.8</ele>
        <time>2022-11-07T10:04:24Z</time>
      </trkpt>
      <trkpt lat="48.1704" lon="6.57968">
        <ele>407.2</ele>
        <time>2022-11-07T10:04:29Z</time>
      </trkpt>
      <trkpt lat="48.17042" lon="6.57967">
        <ele>407</ele>
        <time>2022-11-07T10:04:31Z</time>
      </trkpt>
      <trkpt lat="48.17046" lon="6.57964">
        <ele>406.8</ele>
        <time>2022-11-07T10:04:35Z</time>
      </trkpt>
      <trkpt lat="48.1705" lon="6.57961">
        <ele>406.4</ele>
        <time>2022-11-07T10:04:39Z</time>
      </trkpt>
      <trkpt lat="48.17055" lon="6.57959">
        <ele>405.8</ele>
        <time>2022-11-07T10:04:44Z</time>
      </trkpt>
      <trkpt lat="48.17056" lon="6.57958">
        <ele>405.8</ele>
        <time>2022-11-07T10:04:45Z</time>
      </trkpt>
      <trkpt lat="48.17059" lon="6.57957">
        <ele>405.4</ele>
        <time>2022-11-07T10:04:48Z</time>
      </trkpt>
      <trkpt lat="48.17063" lon="6.57955">
        <ele>405.4</ele>
        <time>2022-11-07T10:04:51Z</time>
      </trkpt>
      <trkpt lat="48.17065" lon="6.57954">
        <ele>405.4</ele>
        <time>2022-11-07T10:04:53Z</time>
      </trkpt>
      <trkpt lat="48.17068" lon="6.57949">
        <ele>405</ele>
        <time>2022-11-07T10:04:57Z</time>
      </trkpt>
      <trkpt lat="48.17072" lon="6.57945">
        <ele>405</ele>
        <time>2022-11-07T10:05:01Z</time>
      </trkpt>
      <trkpt lat="48.17073" lon="6.57944">
        <ele>404.8</ele>
        <time>2022-11-07T10:05:02Z</time>
      </trkpt>
      <trkpt lat="48.17085" lon="6.57941">
        <ele>403.8</ele>
        <time>2022-11-07T10:05:12Z</time>
      </trkpt>
      <trkpt lat="48.17086" lon="6.5794">
        <ele>403.8</ele>
        <time>2022-11-07T10:05:14Z</time>
      </trkpt>
      <trkpt lat="48.17087" lon="6.57939">
        <ele>403.8</ele>
        <time>2022-11-07T10:05:15Z</time>
      </trkpt>
      <trkpt lat="48.17088" lon="6.57938">
        <ele>403.8</ele>
        <time>2022-11-07T10:05:16Z</time>
      </trkpt>
      <trkpt lat="48.17093" lon="6.57936">
        <ele>403.8</ele>
        <time>2022-11-07T10:05:22Z</time>
      </trkpt>
      <trkpt lat="48.17094" lon="6.57935">
        <ele>403.6</ele>
        <time>2022-11-07T10:05:23Z</time>
      </trkpt>
      <trkpt lat="48.17097" lon="6.57934">
        <ele>403.2</ele>
        <time>2022-11-07T10:05:27Z</time>
      </trkpt>
      <trkpt lat="48.17098" lon="6.57933">
        <ele>403.2</ele>
        <time>2022-11-07T10:05:28Z</time>
      </trkpt>
      <trkpt lat="48.17102" lon="6.57933">
        <ele>403.2</ele>
        <time>2022-11-07T10:05:33Z</time>
      </trkpt>
      <trkpt lat="48.17105" lon="6.57933">
        <ele>403.4</ele>
        <time>2022-11-07T10:05:36Z</time>
      </trkpt>
      <trkpt lat="48.17112" lon="6.57929">
        <ele>403</ele>
        <time>2022-11-07T10:05:43Z</time>
      </trkpt>
      <trkpt lat="48.17113" lon="6.57927">
        <ele>403.2</ele>
        <time>2022-11-07T10:05:45Z</time>
      </trkpt>
      <trkpt lat="48.17114" lon="6.57924">
        <ele>403.4</ele>
        <time>2022-11-07T10:05:47Z</time>
      </trkpt>
      <trkpt lat="48.17114" lon="6.57922">
        <ele>403.4</ele>
        <time>2022-11-07T10:05:48Z</time>
      </trkpt>
      <trkpt lat="48.17118" lon="6.57913">
        <ele>403.4</ele>
        <time>2022-11-07T10:05:53Z</time>
      </trkpt>
      <trkpt lat="48.17121" lon="6.57908">
        <ele>403.6</ele>
        <time>2022-11-07T10:05:58Z</time>
      </trkpt>
      <trkpt lat="48.17122" lon="6.57908">
        <ele>403.6</ele>
        <time>2022-11-07T10:05:59Z</time>
      </trkpt>
      <trkpt lat="48.17124" lon="6.57902">
        <ele>403.8</ele>
        <time>2022-11-07T10:06:04Z</time>
      </trkpt>
      <trkpt lat="48.17135" lon="6.57888">
        <ele>403.2</ele>
        <time>2022-11-07T10:06:14Z</time>
      </trkpt>
      <trkpt lat="48.1714" lon="6.57885">
        <ele>403.4</ele>
        <time>2022-11-07T10:06:18Z</time>
      </trkpt>
      <trkpt lat="48.17148" lon="6.57877">
        <ele>404.2</ele>
        <time>2022-11-07T10:06:25Z</time>
      </trkpt>
      <trkpt lat="48.17149" lon="6.57876">
        <ele>404.2</ele>
        <time>2022-11-07T10:06:26Z</time>
      </trkpt>
      <trkpt lat="48.17161" lon="6.5787">
        <ele>404.8</ele>
        <time>2022-11-07T10:06:34Z</time>
      </trkpt>
      <trkpt lat="48.17168" lon="6.57866">
        <ele>405</ele>
        <time>2022-11-07T10:06:38Z</time>
      </trkpt>
      <trkpt lat="48.17169" lon="6.57865">
        <ele>405</ele>
        <time>2022-11-07T10:06:39Z</time>
      </trkpt>
      <trkpt lat="48.1717" lon="6.57865">
        <ele>405</ele>
        <time>2022-11-07T10:06:40Z</time>
      </trkpt>
      <trkpt lat="48.17175" lon="6.57862">
        <ele>405</ele>
        <time>2022-11-07T10:06:44Z</time>
      </trkpt>
      <trkpt lat="48.17184" lon="6.57854">
        <ele>405.4</ele>
        <time>2022-11-07T10:06:51Z</time>
      </trkpt>
      <trkpt lat="48.17186" lon="6.57852">
        <ele>405.4</ele>
        <time>2022-11-07T10:06:53Z</time>
      </trkpt>
      <trkpt lat="48.17188" lon="6.57849">
        <ele>406</ele>
        <time>2022-11-07T10:06:55Z</time>
      </trkpt>
      <trkpt lat="48.1719" lon="6.57848">
        <ele>406.2</ele>
        <time>2022-11-07T10:06:57Z</time>
      </trkpt>
      <trkpt lat="48.17191" lon="6.57847">
        <ele>406.2</ele>
        <time>2022-11-07T10:06:58Z</time>
      </trkpt>
      <trkpt lat="48.17193" lon="6.57845">
        <ele>406.2</ele>
        <time>2022-11-07T10:07:00Z</time>
      </trkpt>
      <trkpt lat="48.17201" lon="6.57838">
        <ele>406.4</ele>
        <time>2022-11-07T10:07:07Z</time>
      </trkpt>
      <trkpt lat="48.17205" lon="6.57831">
        <ele>407</ele>
        <time>2022-11-07T10:07:12Z</time>
      </trkpt>
      <trkpt lat="48.17206" lon="6.57829">
        <ele>407</ele>
        <time>2022-11-07T10:07:13Z</time>
      </trkpt>
      <trkpt lat="48.17207" lon="6.57828">
        <ele>407</ele>
        <time>2022-11-07T10:07:14Z</time>
      </trkpt>
      <trkpt lat="48.17213" lon="6.57819">
        <ele>407.4</ele>
        <time>2022-11-07T10:07:20Z</time>
      </trkpt>
      <trkpt lat="48.17215" lon="6.57815">
        <ele>407.6</ele>
        <time>2022-11-07T10:07:23Z</time>
      </trkpt>
      <trkpt lat="48.17224" lon="6.57805">
        <ele>407.8</ele>
        <time>2022-11-07T10:07:31Z</time>
      </trkpt>
      <trkpt lat="48.17226" lon="6.57802">
        <ele>408.2</ele>
        <time>2022-11-07T10:07:33Z</time>
      </trkpt>
      <trkpt lat="48.17229" lon="6.57799">
        <ele>408.4</ele>
        <time>2022-11-07T10:07:36Z</time>
      </trkpt>
      <trkpt lat="48.17231" lon="6.57793">
        <ele>408.6</ele>
        <time>2022-11-07T10:07:39Z</time>
      </trkpt>
      <trkpt lat="48.17233" lon="6.5779">
        <ele>409.2</ele>
        <time>2022-11-07T10:07:41Z</time>
      </trkpt>
      <trkpt lat="48.17233" lon="6.57789">
        <ele>409.4</ele>
        <time>2022-11-07T10:07:42Z</time>
      </trkpt>
      <trkpt lat="48.17234" lon="6.57787">
        <ele>409.4</ele>
        <time>2022-11-07T10:07:43Z</time>
      </trkpt>
      <trkpt lat="48.17237" lon="6.5778">
        <ele>409.6</ele>
        <time>2022-11-07T10:07:47Z</time>
      </trkpt>
      <trkpt lat="48.17238" lon="6.57778">
        <ele>409.6</ele>
        <time>2022-11-07T10:07:48Z</time>
      </trkpt>
      <trkpt lat="48.17239" lon="6.57776">
        <ele>409.8</ele>
        <time>2022-11-07T10:07:49Z</time>
      </trkpt>
      <trkpt lat="48.17244" lon="6.57766">
        <ele>410</ele>
        <time>2022-11-07T10:07:55Z</time>
      </trkpt>
      <trkpt lat="48.17247" lon="6.57761">
        <ele>410.2</ele>
        <time>2022-11-07T10:07:59Z</time>
      </trkpt>
      <trkpt lat="48.1725" lon="6.57754">
        <ele>410.6</ele>
        <time>2022-11-07T10:08:04Z</time>
      </trkpt>
      <trkpt lat="48.1725" lon="6.57751">
        <ele>410.8</ele>
        <time>2022-11-07T10:08:06Z</time>
      </trkpt>
      <trkpt lat="48.17252" lon="6.57741">
        <ele>411.4</ele>
        <time>2022-11-07T10:08:12Z</time>
      </trkpt>
      <trkpt lat="48.17252" lon="6.5774">
        <ele>411.4</ele>
        <time>2022-11-07T10:08:13Z</time>
      </trkpt>
      <trkpt lat="48.17252" lon="6.57739">
        <ele>411.6</ele>
        <time>2022-11-07T10:08:14Z</time>
      </trkpt>
      <trkpt lat="48.17252" lon="6.57738">
        <ele>411.6</ele>
        <time>2022-11-07T10:08:16Z</time>
      </trkpt>
      <trkpt lat="48.17253" lon="6.57736">
        <ele>411.8</ele>
        <time>2022-11-07T10:08:19Z</time>
      </trkpt>
      <trkpt lat="48.17253" lon="6.57734">
        <ele>412</ele>
        <time>2022-11-07T10:08:22Z</time>
      </trkpt>
      <trkpt lat="48.17254" lon="6.57729">
        <ele>412.2</ele>
        <time>2022-11-07T10:08:26Z</time>
      </trkpt>
      <trkpt lat="48.17254" lon="6.57728">
        <ele>412</ele>
        <time>2022-11-07T10:08:27Z</time>
      </trkpt>
      <trkpt lat="48.17254" lon="6.57727">
        <ele>412</ele>
        <time>2022-11-07T10:08:28Z</time>
      </trkpt>
      <trkpt lat="48.17254" lon="6.57725">
        <ele>412.2</ele>
        <time>2022-11-07T10:08:29Z</time>
      </trkpt>
      <trkpt lat="48.17254" lon="6.57724">
        <ele>412.2</ele>
        <time>2022-11-07T10:08:31Z</time>
      </trkpt>
      <trkpt lat="48.17254" lon="6.57722">
        <ele>412.2</ele>
        <time>2022-11-07T10:08:37Z</time>
      </trkpt>
      <trkpt lat="48.17257" lon="6.5772">
        <ele>412.4</ele>
        <time>2022-11-07T10:08:42Z</time>
      </trkpt>
      <trkpt lat="48.17258" lon="6.57719">
        <ele>412.6</ele>
        <time>2022-11-07T10:08:44Z</time>
      </trkpt>
      <trkpt lat="48.17259" lon="6.57717">
        <ele>412.6</ele>
        <time>2022-11-07T10:08:47Z</time>
      </trkpt>
      <trkpt lat="48.17259" lon="6.57716">
        <ele>412.6</ele>
        <time>2022-11-07T10:08:48Z</time>
      </trkpt>
      <trkpt lat="48.17264" lon="6.57711">
        <ele>412.6</ele>
        <time>2022-11-07T10:08:53Z</time>
      </trkpt>
      <trkpt lat="48.17265" lon="6.5771">
        <ele>412.6</ele>
        <time>2022-11-07T10:08:54Z</time>
      </trkpt>
      <trkpt lat="48.17266" lon="6.57709">
        <ele>412.8</ele>
        <time>2022-11-07T10:08:55Z</time>
      </trkpt>
      <trkpt lat="48.17267" lon="6.57708">
        <ele>412.8</ele>
        <time>2022-11-07T10:08:57Z</time>
      </trkpt>
      <trkpt lat="48.17268" lon="6.57706">
        <ele>413</ele>
        <time>2022-11-07T10:08:59Z</time>
      </trkpt>
      <trkpt lat="48.17269" lon="6.57704">
        <ele>413</ele>
        <time>2022-11-07T10:09:00Z</time>
      </trkpt>
      <trkpt lat="48.17271" lon="6.57702">
        <ele>413</ele>
        <time>2022-11-07T10:09:02Z</time>
      </trkpt>
      <trkpt lat="48.17272" lon="6.57701">
        <ele>413.2</ele>
        <time>2022-11-07T10:09:04Z</time>
      </trkpt>
      <trkpt lat="48.17274" lon="6.57699">
        <ele>413.4</ele>
        <time>2022-11-07T10:09:08Z</time>
      </trkpt>
      <trkpt lat="48.17276" lon="6.57695">
        <ele>413.8</ele>
        <time>2022-11-07T10:09:11Z</time>
      </trkpt>
      <trkpt lat="48.17281" lon="6.57686">
        <ele>414.4</ele>
        <time>2022-11-07T10:09:19Z</time>
      </trkpt>
      <trkpt lat="48.17283" lon="6.57682">
        <ele>414.4</ele>
        <time>2022-11-07T10:09:22Z</time>
      </trkpt>
      <trkpt lat="48.17284" lon="6.57678">
        <ele>414.4</ele>
        <time>2022-11-07T10:09:26Z</time>
      </trkpt>
      <trkpt lat="48.17292" lon="6.57667">
        <ele>414.4</ele>
        <time>2022-11-07T10:09:35Z</time>
      </trkpt>
      <trkpt lat="48.17295" lon="6.5766">
        <ele>414.2</ele>
        <time>2022-11-07T10:09:41Z</time>
      </trkpt>
      <trkpt lat="48.17297" lon="6.57656">
        <ele>414.4</ele>
        <time>2022-11-07T10:09:45Z</time>
      </trkpt>
      <trkpt lat="48.17305" lon="6.57646">
        <ele>414.4</ele>
        <time>2022-11-07T10:09:55Z</time>
      </trkpt>
      <trkpt lat="48.17308" lon="6.57639">
        <ele>414.8</ele>
        <time>2022-11-07T10:10:00Z</time>
      </trkpt>
      <trkpt lat="48.17312" lon="6.57626">
        <ele>415.6</ele>
        <time>2022-11-07T10:10:08Z</time>
      </trkpt>
      <trkpt lat="48.17315" lon="6.57623">
        <ele>416</ele>
        <time>2022-11-07T10:10:10Z</time>
      </trkpt>
      <trkpt lat="48.17323" lon="6.57606">
        <ele>416.2</ele>
        <time>2022-11-07T10:10:23Z</time>
      </trkpt>
      <trkpt lat="48.17324" lon="6.57604">
        <ele>416.2</ele>
        <time>2022-11-07T10:10:24Z</time>
      </trkpt>
      <trkpt lat="48.17327" lon="6.5759">
        <ele>416.6</ele>
        <time>2022-11-07T10:10:33Z</time>
      </trkpt>
      <trkpt lat="48.17327" lon="6.57583">
        <ele>417.2</ele>
        <time>2022-11-07T10:10:37Z</time>
      </trkpt>
      <trkpt lat="48.17327" lon="6.57581">
        <ele>417.4</ele>
        <time>2022-11-07T10:10:38Z</time>
      </trkpt>
      <trkpt lat="48.17327" lon="6.57579">
        <ele>417.4</ele>
        <time>2022-11-07T10:10:39Z</time>
      </trkpt>
      <trkpt lat="48.17327" lon="6.57568">
        <ele>417.6</ele>
        <time>2022-11-07T10:10:45Z</time>
      </trkpt>
      <trkpt lat="48.17327" lon="6.57566">
        <ele>417.8</ele>
        <time>2022-11-07T10:10:46Z</time>
      </trkpt>
      <trkpt lat="48.17326" lon="6.57559">
        <ele>418.2</ele>
        <time>2022-11-07T10:10:52Z</time>
      </trkpt>
      <trkpt lat="48.17325" lon="6.57558">
        <ele>418.4</ele>
        <time>2022-11-07T10:10:53Z</time>
      </trkpt>
      <trkpt lat="48.17325" lon="6.57555">
        <ele>418.8</ele>
        <time>2022-11-07T10:10:56Z</time>
      </trkpt>
      <trkpt lat="48.17324" lon="6.57538">
        <ele>419.6</ele>
        <time>2022-11-07T10:11:08Z</time>
      </trkpt>
      <trkpt lat="48.17324" lon="6.57535">
        <ele>419.8</ele>
        <time>2022-11-07T10:11:10Z</time>
      </trkpt>
      <trkpt lat="48.17324" lon="6.57527">
        <ele>420.2</ele>
        <time>2022-11-07T10:11:14Z</time>
      </trkpt>
      <trkpt lat="48.17324" lon="6.57525">
        <ele>420.2</ele>
        <time>2022-11-07T10:11:15Z</time>
      </trkpt>
      <trkpt lat="48.17323" lon="6.57513">
        <ele>420.4</ele>
        <time>2022-11-07T10:11:23Z</time>
      </trkpt>
      <trkpt lat="48.17323" lon="6.57508">
        <ele>420.4</ele>
        <time>2022-11-07T10:11:26Z</time>
      </trkpt>
      <trkpt lat="48.17324" lon="6.57502">
        <ele>420.6</ele>
        <time>2022-11-07T10:11:30Z</time>
      </trkpt>
      <trkpt lat="48.17324" lon="6.5749">
        <ele>421</ele>
        <time>2022-11-07T10:11:37Z</time>
      </trkpt>
      <trkpt lat="48.17324" lon="6.57489">
        <ele>421</ele>
        <time>2022-11-07T10:11:38Z</time>
      </trkpt>
      <trkpt lat="48.17324" lon="6.57477">
        <ele>421.2</ele>
        <time>2022-11-07T10:11:46Z</time>
      </trkpt>
      <trkpt lat="48.17328" lon="6.5746">
        <ele>421.6</ele>
        <time>2022-11-07T10:11:53Z</time>
      </trkpt>
      <trkpt lat="48.17332" lon="6.57437">
        <ele>421.2</ele>
        <time>2022-11-07T10:12:05Z</time>
      </trkpt>
      <trkpt lat="48.17332" lon="6.57435">
        <ele>421.2</ele>
        <time>2022-11-07T10:12:06Z</time>
      </trkpt>
      <trkpt lat="48.17332" lon="6.57433">
        <ele>421.2</ele>
        <time>2022-11-07T10:12:07Z</time>
      </trkpt>
      <trkpt lat="48.17334" lon="6.57424">
        <ele>421.2</ele>
        <time>2022-11-07T10:12:12Z</time>
      </trkpt>
      <trkpt lat="48.17335" lon="6.57418">
        <ele>421</ele>
        <time>2022-11-07T10:12:15Z</time>
      </trkpt>
      <trkpt lat="48.17336" lon="6.57404">
        <ele>420.6</ele>
        <time>2022-11-07T10:12:22Z</time>
      </trkpt>
      <trkpt lat="48.17335" lon="6.57386">
        <ele>420.8</ele>
        <time>2022-11-07T10:12:35Z</time>
      </trkpt>
      <trkpt lat="48.17335" lon="6.57383">
        <ele>420.8</ele>
        <time>2022-11-07T10:12:37Z</time>
      </trkpt>
      <trkpt lat="48.17335" lon="6.57378">
        <ele>420.8</ele>
        <time>2022-11-07T10:12:41Z</time>
      </trkpt>
      <trkpt lat="48.17338" lon="6.57367">
        <ele>421</ele>
        <time>2022-11-07T10:12:49Z</time>
      </trkpt>
      <trkpt lat="48.17338" lon="6.57356">
        <ele>420.8</ele>
        <time>2022-11-07T10:12:54Z</time>
      </trkpt>
      <trkpt lat="48.17338" lon="6.57349">
        <ele>420.8</ele>
        <time>2022-11-07T10:12:58Z</time>
      </trkpt>
      <trkpt lat="48.1734" lon="6.5734">
        <ele>420.8</ele>
        <time>2022-11-07T10:13:02Z</time>
      </trkpt>
      <trkpt lat="48.1734" lon="6.57334">
        <ele>420.8</ele>
        <time>2022-11-07T10:13:05Z</time>
      </trkpt>
      <trkpt lat="48.17341" lon="6.57328">
        <ele>420.8</ele>
        <time>2022-11-07T10:13:08Z</time>
      </trkpt>
      <trkpt lat="48.1734" lon="6.57302">
        <ele>420.4</ele>
        <time>2022-11-07T10:13:23Z</time>
      </trkpt>
      <trkpt lat="48.1734" lon="6.57299">
        <ele>420.2</ele>
        <time>2022-11-07T10:13:25Z</time>
      </trkpt>
      <trkpt lat="48.17339" lon="6.57297">
        <ele>420.2</ele>
        <time>2022-11-07T10:13:26Z</time>
      </trkpt>
      <trkpt lat="48.17339" lon="6.57284">
        <ele>419.8</ele>
        <time>2022-11-07T10:13:33Z</time>
      </trkpt>
      <trkpt lat="48.17338" lon="6.57276">
        <ele>419.4</ele>
        <time>2022-11-07T10:13:38Z</time>
      </trkpt>
      <trkpt lat="48.17338" lon="6.57265">
        <ele>419.2</ele>
        <time>2022-11-07T10:13:44Z</time>
      </trkpt>
      <trkpt lat="48.17338" lon="6.57264">
        <ele>419</ele>
        <time>2022-11-07T10:13:45Z</time>
      </trkpt>
      <trkpt lat="48.17338" lon="6.57261">
        <ele>418.8</ele>
        <time>2022-11-07T10:13:47Z</time>
      </trkpt>
      <trkpt lat="48.17338" lon="6.57251">
        <ele>418</ele>
        <time>2022-11-07T10:13:53Z</time>
      </trkpt>
      <trkpt lat="48.17338" lon="6.57246">
        <ele>417.8</ele>
        <time>2022-11-07T10:13:56Z</time>
      </trkpt>
      <trkpt lat="48.17338" lon="6.57243">
        <ele>417.8</ele>
        <time>2022-11-07T10:13:58Z</time>
      </trkpt>
      <trkpt lat="48.17337" lon="6.57232">
        <ele>417.4</ele>
        <time>2022-11-07T10:14:03Z</time>
      </trkpt>
      <trkpt lat="48.17338" lon="6.57226">
        <ele>417.2</ele>
        <time>2022-11-07T10:14:07Z</time>
      </trkpt>
      <trkpt lat="48.17338" lon="6.57224">
        <ele>417.2</ele>
        <time>2022-11-07T10:14:08Z</time>
      </trkpt>
      <trkpt lat="48.17337" lon="6.57198">
        <ele>416.6</ele>
        <time>2022-11-07T10:14:23Z</time>
      </trkpt>
      <trkpt lat="48.17337" lon="6.57195">
        <ele>416.6</ele>
        <time>2022-11-07T10:14:24Z</time>
      </trkpt>
      <trkpt lat="48.17334" lon="6.57181">
        <ele>415.6</ele>
        <time>2022-11-07T10:14:35Z</time>
      </trkpt>
      <trkpt lat="48.17332" lon="6.57171">
        <ele>414.8</ele>
        <time>2022-11-07T10:14:42Z</time>
      </trkpt>
      <trkpt lat="48.17333" lon="6.57169">
        <ele>414.8</ele>
        <time>2022-11-07T10:14:44Z</time>
      </trkpt>
      <trkpt lat="48.17332" lon="6.57167">
        <ele>414.6</ele>
        <time>2022-11-07T10:14:45Z</time>
      </trkpt>
      <trkpt lat="48.17331" lon="6.5715">
        <ele>413.8</ele>
        <time>2022-11-07T10:14:54Z</time>
      </trkpt>
      <trkpt lat="48.1733" lon="6.57143">
        <ele>413.6</ele>
        <time>2022-11-07T10:14:58Z</time>
      </trkpt>
      <trkpt lat="48.1733" lon="6.57135">
        <ele>413.4</ele>
        <time>2022-11-07T10:15:02Z</time>
      </trkpt>
      <trkpt lat="48.17328" lon="6.57122">
        <ele>412.8</ele>
        <time>2022-11-07T10:15:10Z</time>
      </trkpt>
      <trkpt lat="48.17327" lon="6.57118">
        <ele>412.6</ele>
        <time>2022-11-07T10:15:13Z</time>
      </trkpt>
      <trkpt lat="48.17327" lon="6.57114">
        <ele>412.6</ele>
        <time>2022-11-07T10:15:15Z</time>
      </trkpt>
      <trkpt lat="48.17328" lon="6.57107">
        <ele>412.4</ele>
        <time>2022-11-07T10:15:18Z</time>
      </trkpt>
      <trkpt lat="48.17327" lon="6.57097">
        <ele>412</ele>
        <time>2022-11-07T10:15:26Z</time>
      </trkpt>
      <trkpt lat="48.17328" lon="6.57098">
        <ele>412</ele>
        <time>2022-11-07T10:15:28Z</time>
      </trkpt>
      <trkpt lat="48.17329" lon="6.57095">
        <ele>412</ele>
        <time>2022-11-07T10:15:34Z</time>
      </trkpt>
      <trkpt lat="48.17329" lon="6.57094">
        <ele>412</ele>
        <time>2022-11-07T10:15:35Z</time>
      </trkpt>
      <trkpt lat="48.1733" lon="6.57094">
        <ele>412</ele>
        <time>2022-11-07T10:15:36Z</time>
      </trkpt>
      <trkpt lat="48.1733" lon="6.57093">
        <ele>412</ele>
        <time>2022-11-07T10:15:37Z</time>
      </trkpt>
      <trkpt lat="48.1733" lon="6.57092">
        <ele>412</ele>
        <time>2022-11-07T10:15:38Z</time>
      </trkpt>
      <trkpt lat="48.17331" lon="6.57089">
        <ele>412.4</ele>
        <time>2022-11-07T10:15:45Z</time>
      </trkpt>
      <trkpt lat="48.17331" lon="6.57088">
        <ele>412.2</ele>
        <time>2022-11-07T10:15:50Z</time>
      </trkpt>
      <trkpt lat="48.17329" lon="6.57086">
        <ele>412.4</ele>
        <time>2022-11-07T10:15:58Z</time>
      </trkpt>
      <trkpt lat="48.17329" lon="6.57083">
        <ele>412.4</ele>
        <time>2022-11-07T10:16:02Z</time>
      </trkpt>
      <trkpt lat="48.17327" lon="6.57078">
        <ele>412.4</ele>
        <time>2022-11-07T10:16:06Z</time>
      </trkpt>
      <trkpt lat="48.17326" lon="6.57076">
        <ele>412.6</ele>
        <time>2022-11-07T10:16:07Z</time>
      </trkpt>
      <trkpt lat="48.17325" lon="6.57074">
        <ele>412.6</ele>
        <time>2022-11-07T10:16:09Z</time>
      </trkpt>
      <trkpt lat="48.17324" lon="6.57073">
        <ele>412.4</ele>
        <time>2022-11-07T10:16:11Z</time>
      </trkpt>
      <trkpt lat="48.17319" lon="6.57072">
        <ele>411.8</ele>
        <time>2022-11-07T10:16:17Z</time>
      </trkpt>
      <trkpt lat="48.17315" lon="6.57076">
        <ele>411.6</ele>
        <time>2022-11-07T10:16:20Z</time>
      </trkpt>
      <trkpt lat="48.17314" lon="6.57076">
        <ele>411.6</ele>
        <time>2022-11-07T10:16:21Z</time>
      </trkpt>
      <trkpt lat="48.17307" lon="6.57081">
        <ele>411.4</ele>
        <time>2022-11-07T10:16:29Z</time>
      </trkpt>
      <trkpt lat="48.17305" lon="6.57081">
        <ele>411.2</ele>
        <time>2022-11-07T10:16:31Z</time>
      </trkpt>
      <trkpt lat="48.17305" lon="6.57082">
        <ele>411.2</ele>
        <time>2022-11-07T10:16:32Z</time>
      </trkpt>
      <trkpt lat="48.17302" lon="6.57081">
        <ele>411.4</ele>
        <time>2022-11-07T10:16:36Z</time>
      </trkpt>
      <trkpt lat="48.17289" lon="6.57082">
        <ele>412</ele>
        <time>2022-11-07T10:16:49Z</time>
      </trkpt>
      <trkpt lat="48.17283" lon="6.57083">
        <ele>412.2</ele>
        <time>2022-11-07T10:16:54Z</time>
      </trkpt>
      <trkpt lat="48.17282" lon="6.57083">
        <ele>412.2</ele>
        <time>2022-11-07T10:16:55Z</time>
      </trkpt>
      <trkpt lat="48.17276" lon="6.57082">
        <ele>412.2</ele>
        <time>2022-11-07T10:16:59Z</time>
      </trkpt>
      <trkpt lat="48.17273" lon="6.57082">
        <ele>412.2</ele>
        <time>2022-11-07T10:17:02Z</time>
      </trkpt>
      <trkpt lat="48.17269" lon="6.5708">
        <ele>412.2</ele>
        <time>2022-11-07T10:17:06Z</time>
      </trkpt>
      <trkpt lat="48.17266" lon="6.57079">
        <ele>412.2</ele>
        <time>2022-11-07T10:17:08Z</time>
      </trkpt>
      <trkpt lat="48.17265" lon="6.57079">
        <ele>412.4</ele>
        <time>2022-11-07T10:17:09Z</time>
      </trkpt>
      <trkpt lat="48.17256" lon="6.57085">
        <ele>412.4</ele>
        <time>2022-11-07T10:17:20Z</time>
      </trkpt>
      <trkpt lat="48.17254" lon="6.57087">
        <ele>412.8</ele>
        <time>2022-11-07T10:17:23Z</time>
      </trkpt>
      <trkpt lat="48.17252" lon="6.57089">
        <ele>413.2</ele>
        <time>2022-11-07T10:17:25Z</time>
      </trkpt>
      <trkpt lat="48.1725" lon="6.57091">
        <ele>413.4</ele>
        <time>2022-11-07T10:17:27Z</time>
      </trkpt>
      <trkpt lat="48.17244" lon="6.57098">
        <ele>413.4</ele>
        <time>2022-11-07T10:17:34Z</time>
      </trkpt>
      <trkpt lat="48.17243" lon="6.57099">
        <ele>413.4</ele>
        <time>2022-11-07T10:17:35Z</time>
      </trkpt>
      <trkpt lat="48.17237" lon="6.57099">
        <ele>413.6</ele>
        <time>2022-11-07T10:17:40Z</time>
      </trkpt>
      <trkpt lat="48.17234" lon="6.57099">
        <ele>413.4</ele>
        <time>2022-11-07T10:17:45Z</time>
      </trkpt>
      <trkpt lat="48.17233" lon="6.57099">
        <ele>413.2</ele>
        <time>2022-11-07T10:17:47Z</time>
      </trkpt>
      <trkpt lat="48.17232" lon="6.57099">
        <ele>413.2</ele>
        <time>2022-11-07T10:17:48Z</time>
      </trkpt>
      <trkpt lat="48.17231" lon="6.571">
        <ele>413</ele>
        <time>2022-11-07T10:17:50Z</time>
      </trkpt>
      <trkpt lat="48.1723" lon="6.57101">
        <ele>413</ele>
        <time>2022-11-07T10:17:52Z</time>
      </trkpt>
      <trkpt lat="48.17229" lon="6.571">
        <ele>413</ele>
        <time>2022-11-07T10:17:55Z</time>
      </trkpt>
      <trkpt lat="48.17228" lon="6.57098">
        <ele>413.2</ele>
        <time>2022-11-07T10:17:59Z</time>
      </trkpt>
      <trkpt lat="48.17218" lon="6.57098">
        <ele>413.6</ele>
        <time>2022-11-07T10:18:11Z</time>
      </trkpt>
      <trkpt lat="48.17215" lon="6.57098">
        <ele>413.8</ele>
        <time>2022-11-07T10:18:13Z</time>
      </trkpt>
      <trkpt lat="48.17214" lon="6.57098">
        <ele>413.8</ele>
        <time>2022-11-07T10:18:15Z</time>
      </trkpt>
      <trkpt lat="48.17213" lon="6.57098">
        <ele>413.8</ele>
        <time>2022-11-07T10:18:17Z</time>
      </trkpt>
      <trkpt lat="48.17211" lon="6.57097">
        <ele>413.8</ele>
        <time>2022-11-07T10:18:20Z</time>
      </trkpt>
      <trkpt lat="48.17207" lon="6.57097">
        <ele>413.8</ele>
        <time>2022-11-07T10:18:24Z</time>
      </trkpt>
      <trkpt lat="48.17205" lon="6.57097">
        <ele>414</ele>
        <time>2022-11-07T10:18:27Z</time>
      </trkpt>
      <trkpt lat="48.17203" lon="6.57098">
        <ele>414.2</ele>
        <time>2022-11-07T10:18:29Z</time>
      </trkpt>
      <trkpt lat="48.17202" lon="6.57099">
        <ele>414.4</ele>
        <time>2022-11-07T10:18:30Z</time>
      </trkpt>
      <trkpt lat="48.17201" lon="6.571">
        <ele>414.4</ele>
        <time>2022-11-07T10:18:31Z</time>
      </trkpt>
      <trkpt lat="48.17199" lon="6.571">
        <ele>414.6</ele>
        <time>2022-11-07T10:18:32Z</time>
      </trkpt>
      <trkpt lat="48.17188" lon="6.57106">
        <ele>415.6</ele>
        <time>2022-11-07T10:18:42Z</time>
      </trkpt>
      <trkpt lat="48.17182" lon="6.57109">
        <ele>415.6</ele>
        <time>2022-11-07T10:18:47Z</time>
      </trkpt>
      <trkpt lat="48.17179" lon="6.5711">
        <ele>415.8</ele>
        <time>2022-11-07T10:18:49Z</time>
      </trkpt>
      <trkpt lat="48.17168" lon="6.57115">
        <ele>416.6</ele>
        <time>2022-11-07T10:19:00Z</time>
      </trkpt>
      <trkpt lat="48.17167" lon="6.57116">
        <ele>416.8</ele>
        <time>2022-11-07T10:19:02Z</time>
      </trkpt>
      <trkpt lat="48.17165" lon="6.57117">
        <ele>417</ele>
        <time>2022-11-07T10:19:04Z</time>
      </trkpt>
      <trkpt lat="48.17164" lon="6.57117">
        <ele>417</ele>
        <time>2022-11-07T10:19:05Z</time>
      </trkpt>
      <trkpt lat="48.17149" lon="6.57122">
        <ele>417.6</ele>
        <time>2022-11-07T10:19:16Z</time>
      </trkpt>
      <trkpt lat="48.17146" lon="6.57122">
        <ele>417.6</ele>
        <time>2022-11-07T10:19:19Z</time>
      </trkpt>
      <trkpt lat="48.17136" lon="6.57125">
        <ele>418</ele>
        <time>2022-11-07T10:19:30Z</time>
      </trkpt>
      <trkpt lat="48.1713" lon="6.57127">
        <ele>418.2</ele>
        <time>2022-11-07T10:19:35Z</time>
      </trkpt>
      <trkpt lat="48.17127" lon="6.57128">
        <ele>418.8</ele>
        <time>2022-11-07T10:19:40Z</time>
      </trkpt>
      <trkpt lat="48.17121" lon="6.57131">
        <ele>418.8</ele>
        <time>2022-11-07T10:19:47Z</time>
      </trkpt>
      <trkpt lat="48.17104" lon="6.57135">
        <ele>419</ele>
        <time>2022-11-07T10:20:03Z</time>
      </trkpt>
      <trkpt lat="48.17099" lon="6.57138">
        <ele>419.4</ele>
        <time>2022-11-07T10:20:08Z</time>
      </trkpt>
      <trkpt lat="48.17093" lon="6.57141">
        <ele>419.6</ele>
        <time>2022-11-07T10:20:14Z</time>
      </trkpt>
      <trkpt lat="48.1709" lon="6.57142">
        <ele>419.4</ele>
        <time>2022-11-07T10:20:18Z</time>
      </trkpt>
      <trkpt lat="48.17089" lon="6.57142">
        <ele>419.6</ele>
        <time>2022-11-07T10:20:19Z</time>
      </trkpt>
      <trkpt lat="48.17071" lon="6.5715">
        <ele>419.4</ele>
        <time>2022-11-07T10:20:35Z</time>
      </trkpt>
      <trkpt lat="48.17067" lon="6.57151">
        <ele>419.8</ele>
        <time>2022-11-07T10:20:38Z</time>
      </trkpt>
      <trkpt lat="48.17054" lon="6.57159">
        <ele>418.8</ele>
        <time>2022-11-07T10:20:51Z</time>
      </trkpt>
      <trkpt lat="48.17053" lon="6.57159">
        <ele>418.8</ele>
        <time>2022-11-07T10:20:52Z</time>
      </trkpt>
      <trkpt lat="48.17051" lon="6.5716">
        <ele>418.8</ele>
        <time>2022-11-07T10:20:53Z</time>
      </trkpt>
      <trkpt lat="48.17037" lon="6.57166">
        <ele>418.4</ele>
        <time>2022-11-07T10:21:06Z</time>
      </trkpt>
      <trkpt lat="48.17035" lon="6.57167">
        <ele>418.4</ele>
        <time>2022-11-07T10:21:08Z</time>
      </trkpt>
      <trkpt lat="48.17031" lon="6.57168">
        <ele>418.6</ele>
        <time>2022-11-07T10:21:11Z</time>
      </trkpt>
      <trkpt lat="48.17019" lon="6.57172">
        <ele>419.2</ele>
        <time>2022-11-07T10:21:21Z</time>
      </trkpt>
      <trkpt lat="48.17016" lon="6.57172">
        <ele>419</ele>
        <time>2022-11-07T10:21:23Z</time>
      </trkpt>
      <trkpt lat="48.17001" lon="6.57177">
        <ele>419.4</ele>
        <time>2022-11-07T10:21:38Z</time>
      </trkpt>
      <trkpt lat="48.17" lon="6.57177">
        <ele>419.4</ele>
        <time>2022-11-07T10:21:39Z</time>
      </trkpt>
      <trkpt lat="48.16985" lon="6.57182">
        <ele>419.2</ele>
        <time>2022-11-07T10:21:53Z</time>
      </trkpt>
      <trkpt lat="48.16969" lon="6.57185">
        <ele>418.8</ele>
        <time>2022-11-07T10:22:04Z</time>
      </trkpt>
      <trkpt lat="48.16965" lon="6.57187">
        <ele>419</ele>
        <time>2022-11-07T10:22:08Z</time>
      </trkpt>
      <trkpt lat="48.16964" lon="6.57187">
        <ele>419</ele>
        <time>2022-11-07T10:22:09Z</time>
      </trkpt>
      <trkpt lat="48.16953" lon="6.57192">
        <ele>419</ele>
        <time>2022-11-07T10:22:21Z</time>
      </trkpt>
      <trkpt lat="48.16951" lon="6.57193">
        <ele>419.2</ele>
        <time>2022-11-07T10:22:23Z</time>
      </trkpt>
      <trkpt lat="48.1695" lon="6.57194">
        <ele>419.4</ele>
        <time>2022-11-07T10:22:24Z</time>
      </trkpt>
      <trkpt lat="48.1694" lon="6.57201">
        <ele>419</ele>
        <time>2022-11-07T10:22:33Z</time>
      </trkpt>
      <trkpt lat="48.16939" lon="6.57201">
        <ele>418.8</ele>
        <time>2022-11-07T10:22:34Z</time>
      </trkpt>
      <trkpt lat="48.16935" lon="6.57202">
        <ele>418.6</ele>
        <time>2022-11-07T10:22:38Z</time>
      </trkpt>
      <trkpt lat="48.16927" lon="6.57206">
        <ele>419</ele>
        <time>2022-11-07T10:22:45Z</time>
      </trkpt>
      <trkpt lat="48.16923" lon="6.57205">
        <ele>419</ele>
        <time>2022-11-07T10:22:48Z</time>
      </trkpt>
      <trkpt lat="48.16917" lon="6.57203">
        <ele>419</ele>
        <time>2022-11-07T10:22:53Z</time>
      </trkpt>
      <trkpt lat="48.16904" lon="6.57195">
        <ele>419</ele>
        <time>2022-11-07T10:23:06Z</time>
      </trkpt>
      <trkpt lat="48.16903" lon="6.57189">
        <ele>419</ele>
        <time>2022-11-07T10:23:09Z</time>
      </trkpt>
      <trkpt lat="48.16902" lon="6.57185">
        <ele>419</ele>
        <time>2022-11-07T10:23:12Z</time>
      </trkpt>
      <trkpt lat="48.169" lon="6.57173">
        <ele>419.2</ele>
        <time>2022-11-07T10:23:18Z</time>
      </trkpt>
      <trkpt lat="48.169" lon="6.57172">
        <ele>419.2</ele>
        <time>2022-11-07T10:23:19Z</time>
      </trkpt>
      <trkpt lat="48.16899" lon="6.57165">
        <ele>418.8</ele>
        <time>2022-11-07T10:23:23Z</time>
      </trkpt>
      <trkpt lat="48.16899" lon="6.57163">
        <ele>418.8</ele>
        <time>2022-11-07T10:23:24Z</time>
      </trkpt>
      <trkpt lat="48.16899" lon="6.57161">
        <ele>418.8</ele>
        <time>2022-11-07T10:23:25Z</time>
      </trkpt>
      <trkpt lat="48.16893" lon="6.57145">
        <ele>419.2</ele>
        <time>2022-11-07T10:23:34Z</time>
      </trkpt>
      <trkpt lat="48.16885" lon="6.57123">
        <ele>419.2</ele>
        <time>2022-11-07T10:23:49Z</time>
      </trkpt>
      <trkpt lat="48.16884" lon="6.57111">
        <ele>419.6</ele>
        <time>2022-11-07T10:23:59Z</time>
      </trkpt>
      <trkpt lat="48.16883" lon="6.57108">
        <ele>419.8</ele>
        <time>2022-11-07T10:24:01Z</time>
      </trkpt>
      <trkpt lat="48.16882" lon="6.57107">
        <ele>419.6</ele>
        <time>2022-11-07T10:24:02Z</time>
      </trkpt>
      <trkpt lat="48.16881" lon="6.57105">
        <ele>419.4</ele>
        <time>2022-11-07T10:24:04Z</time>
      </trkpt>
      <trkpt lat="48.16877" lon="6.571">
        <ele>419.4</ele>
        <time>2022-11-07T10:24:08Z</time>
      </trkpt>
      <trkpt lat="48.16875" lon="6.57097">
        <ele>419.6</ele>
        <time>2022-11-07T10:24:11Z</time>
      </trkpt>
      <trkpt lat="48.16867" lon="6.57089">
        <ele>420.2</ele>
        <time>2022-11-07T10:24:20Z</time>
      </trkpt>
      <trkpt lat="48.16864" lon="6.5709">
        <ele>420</ele>
        <time>2022-11-07T10:24:24Z</time>
      </trkpt>
      <trkpt lat="48.16863" lon="6.57091">
        <ele>419.8</ele>
        <time>2022-11-07T10:24:25Z</time>
      </trkpt>
      <trkpt lat="48.16861" lon="6.57093">
        <ele>419.8</ele>
        <time>2022-11-07T10:24:27Z</time>
      </trkpt>
      <trkpt lat="48.16859" lon="6.57095">
        <ele>419.8</ele>
        <time>2022-11-07T10:24:29Z</time>
      </trkpt>
      <trkpt lat="48.16857" lon="6.57095">
        <ele>420</ele>
        <time>2022-11-07T10:24:31Z</time>
      </trkpt>
      <trkpt lat="48.16852" lon="6.57098">
        <ele>419.8</ele>
        <time>2022-11-07T10:24:37Z</time>
      </trkpt>
      <trkpt lat="48.1685" lon="6.571">
        <ele>419.4</ele>
        <time>2022-11-07T10:24:45Z</time>
      </trkpt>
      <trkpt lat="48.16849" lon="6.571">
        <ele>419.6</ele>
        <time>2022-11-07T10:24:48Z</time>
      </trkpt>
      <trkpt lat="48.16849" lon="6.57098">
        <ele>420.2</ele>
        <time>2022-11-07T10:25:03Z</time>
      </trkpt>
      <trkpt lat="48.16848" lon="6.57098">
        <ele>420.2</ele>
        <time>2022-11-07T10:25:17Z</time>
      </trkpt>
      <trkpt lat="48.16847" lon="6.57099">
        <ele>419.8</ele>
        <time>2022-11-07T10:25:25Z</time>
      </trkpt>
      <trkpt lat="48.16848" lon="6.57099">
        <ele>419.8</ele>
        <time>2022-11-07T10:25:31Z</time>
      </trkpt>
      <trkpt lat="48.16848" lon="6.571">
        <ele>420</ele>
        <time>2022-11-07T10:25:51Z</time>
      </trkpt>
      <trkpt lat="48.16847" lon="6.571">
        <ele>420.4</ele>
        <time>2022-11-07T10:26:06Z</time>
      </trkpt>
      <trkpt lat="48.16846" lon="6.57101">
        <ele>420</ele>
        <time>2022-11-07T10:26:09Z</time>
      </trkpt>
      <trkpt lat="48.16845" lon="6.57102">
        <ele>420</ele>
        <time>2022-11-07T10:26:11Z</time>
      </trkpt>
      <trkpt lat="48.16843" lon="6.57103">
        <ele>420</ele>
        <time>2022-11-07T10:26:16Z</time>
      </trkpt>
      <trkpt lat="48.16842" lon="6.57104">
        <ele>420</ele>
        <time>2022-11-07T10:26:17Z</time>
      </trkpt>
      <trkpt lat="48.16841" lon="6.57104">
        <ele>419.8</ele>
        <time>2022-11-07T10:26:19Z</time>
      </trkpt>
      <trkpt lat="48.1684" lon="6.57104">
        <ele>419.8</ele>
        <time>2022-11-07T10:26:20Z</time>
      </trkpt>
      <trkpt lat="48.1684" lon="6.57105">
        <ele>419.8</ele>
        <time>2022-11-07T10:26:21Z</time>
      </trkpt>
      <trkpt lat="48.16839" lon="6.57104">
        <ele>419.8</ele>
        <time>2022-11-07T10:26:22Z</time>
      </trkpt>
      <trkpt lat="48.16838" lon="6.57104">
        <ele>420</ele>
        <time>2022-11-07T10:26:23Z</time>
      </trkpt>
      <trkpt lat="48.16837" lon="6.57104">
        <ele>420</ele>
        <time>2022-11-07T10:26:24Z</time>
      </trkpt>
      <trkpt lat="48.16835" lon="6.57104">
        <ele>420.4</ele>
        <time>2022-11-07T10:26:26Z</time>
      </trkpt>
      <trkpt lat="48.16833" lon="6.57104">
        <ele>420.2</ele>
        <time>2022-11-07T10:26:28Z</time>
      </trkpt>
      <trkpt lat="48.16832" lon="6.57105">
        <ele>420</ele>
        <time>2022-11-07T10:26:30Z</time>
      </trkpt>
      <trkpt lat="48.16831" lon="6.57106">
        <ele>419.8</ele>
        <time>2022-11-07T10:26:31Z</time>
      </trkpt>
      <trkpt lat="48.16828" lon="6.57105">
        <ele>419.8</ele>
        <time>2022-11-07T10:26:35Z</time>
      </trkpt>
      <trkpt lat="48.16826" lon="6.57107">
        <ele>420.2</ele>
        <time>2022-11-07T10:26:37Z</time>
      </trkpt>
      <trkpt lat="48.16818" lon="6.57109">
        <ele>419.4</ele>
        <time>2022-11-07T10:26:46Z</time>
      </trkpt>
      <trkpt lat="48.16813" lon="6.57111">
        <ele>419.4</ele>
        <time>2022-11-07T10:26:51Z</time>
      </trkpt>
      <trkpt lat="48.16809" lon="6.57112">
        <ele>419.8</ele>
        <time>2022-11-07T10:26:55Z</time>
      </trkpt>
      <trkpt lat="48.16801" lon="6.57115">
        <ele>419.2</ele>
        <time>2022-11-07T10:27:02Z</time>
      </trkpt>
      <trkpt lat="48.168" lon="6.57115">
        <ele>418.8</ele>
        <time>2022-11-07T10:27:03Z</time>
      </trkpt>
      <trkpt lat="48.16795" lon="6.57115">
        <ele>419.8</ele>
        <time>2022-11-07T10:27:08Z</time>
      </trkpt>
      <trkpt lat="48.16793" lon="6.57116">
        <ele>420.6</ele>
        <time>2022-11-07T10:27:10Z</time>
      </trkpt>
      <trkpt lat="48.16789" lon="6.57118">
        <ele>421</ele>
        <time>2022-11-07T10:27:14Z</time>
      </trkpt>
      <trkpt lat="48.16779" lon="6.57121">
        <ele>420.8</ele>
        <time>2022-11-07T10:27:24Z</time>
      </trkpt>
      <trkpt lat="48.16776" lon="6.57124">
        <ele>420.6</ele>
        <time>2022-11-07T10:27:28Z</time>
      </trkpt>
      <trkpt lat="48.16773" lon="6.57124">
        <ele>420.8</ele>
        <time>2022-11-07T10:27:31Z</time>
      </trkpt>
      <trkpt lat="48.16768" lon="6.57126">
        <ele>420.6</ele>
        <time>2022-11-07T10:27:39Z</time>
      </trkpt>
      <trkpt lat="48.16758" lon="6.57129">
        <ele>419.8</ele>
        <time>2022-11-07T10:27:50Z</time>
      </trkpt>
      <trkpt lat="48.16757" lon="6.57131">
        <ele>419.6</ele>
        <time>2022-11-07T10:27:51Z</time>
      </trkpt>
      <trkpt lat="48.1675" lon="6.5714">
        <ele>419</ele>
        <time>2022-11-07T10:27:59Z</time>
      </trkpt>
      <trkpt lat="48.16746" lon="6.57144">
        <ele>418.8</ele>
        <time>2022-11-07T10:28:03Z</time>
      </trkpt>
      <trkpt lat="48.16742" lon="6.57146">
        <ele>418.8</ele>
        <time>2022-11-07T10:28:06Z</time>
      </trkpt>
      <trkpt lat="48.16736" lon="6.57149">
        <ele>418.8</ele>
        <time>2022-11-07T10:28:11Z</time>
      </trkpt>
      <trkpt lat="48.16733" lon="6.5715">
        <ele>418.6</ele>
        <time>2022-11-07T10:28:15Z</time>
      </trkpt>
      <trkpt lat="48.16727" lon="6.57151">
        <ele>418</ele>
        <time>2022-11-07T10:28:21Z</time>
      </trkpt>
      <trkpt lat="48.16725" lon="6.57152">
        <ele>417.8</ele>
        <time>2022-11-07T10:28:22Z</time>
      </trkpt>
      <trkpt lat="48.16716" lon="6.57158">
        <ele>418.4</ele>
        <time>2022-11-07T10:28:31Z</time>
      </trkpt>
      <trkpt lat="48.16711" lon="6.57161">
        <ele>418.4</ele>
        <time>2022-11-07T10:28:37Z</time>
      </trkpt>
      <trkpt lat="48.1671" lon="6.57161">
        <ele>418.4</ele>
        <time>2022-11-07T10:28:40Z</time>
      </trkpt>
      <trkpt lat="48.16709" lon="6.57162">
        <ele>418.6</ele>
        <time>2022-11-07T10:28:50Z</time>
      </trkpt>
      <trkpt lat="48.16707" lon="6.57163">
        <ele>418.2</ele>
        <time>2022-11-07T10:28:53Z</time>
      </trkpt>
      <trkpt lat="48.16706" lon="6.57163">
        <ele>418.2</ele>
        <time>2022-11-07T10:28:55Z</time>
      </trkpt>
      <trkpt lat="48.16705" lon="6.57163">
        <ele>418.2</ele>
        <time>2022-11-07T10:28:56Z</time>
      </trkpt>
      <trkpt lat="48.16704" lon="6.57164">
        <ele>418.2</ele>
        <time>2022-11-07T10:28:58Z</time>
      </trkpt>
      <trkpt lat="48.16703" lon="6.57164">
        <ele>418.2</ele>
        <time>2022-11-07T10:28:59Z</time>
      </trkpt>
      <trkpt lat="48.16702" lon="6.57164">
        <ele>418.2</ele>
        <time>2022-11-07T10:29:00Z</time>
      </trkpt>
      <trkpt lat="48.16701" lon="6.57164">
        <ele>418.2</ele>
        <time>2022-11-07T10:29:01Z</time>
      </trkpt>
      <trkpt lat="48.167" lon="6.57165">
        <ele>418.2</ele>
        <time>2022-11-07T10:29:02Z</time>
      </trkpt>
      <trkpt lat="48.16699" lon="6.57165">
        <ele>418.2</ele>
        <time>2022-11-07T10:29:03Z</time>
      </trkpt>
      <trkpt lat="48.16698" lon="6.57165">
        <ele>418.2</ele>
        <time>2022-11-07T10:29:04Z</time>
      </trkpt>
      <trkpt lat="48.16697" lon="6.57165">
        <ele>418.2</ele>
        <time>2022-11-07T10:29:05Z</time>
      </trkpt>
      <trkpt lat="48.16696" lon="6.57166">
        <ele>418.2</ele>
        <time>2022-11-07T10:29:06Z</time>
      </trkpt>
      <trkpt lat="48.16692" lon="6.57166">
        <ele>418.4</ele>
        <time>2022-11-07T10:29:10Z</time>
      </trkpt>
      <trkpt lat="48.16687" lon="6.57169">
        <ele>418</ele>
        <time>2022-11-07T10:29:17Z</time>
      </trkpt>
      <trkpt lat="48.16682" lon="6.57171">
        <ele>418</ele>
        <time>2022-11-07T10:29:22Z</time>
      </trkpt>
      <trkpt lat="48.16681" lon="6.57171">
        <ele>418</ele>
        <time>2022-11-07T10:29:24Z</time>
      </trkpt>
      <trkpt lat="48.16668" lon="6.57178">
        <ele>418</ele>
        <time>2022-11-07T10:29:38Z</time>
      </trkpt>
      <trkpt lat="48.16665" lon="6.57179">
        <ele>418.2</ele>
        <time>2022-11-07T10:29:42Z</time>
      </trkpt>
      <trkpt lat="48.1666" lon="6.57181">
        <ele>417.8</ele>
        <time>2022-11-07T10:29:48Z</time>
      </trkpt>
      <trkpt lat="48.16651" lon="6.57184">
        <ele>417.4</ele>
        <time>2022-11-07T10:29:57Z</time>
      </trkpt>
      <trkpt lat="48.16647" lon="6.57185">
        <ele>417.2</ele>
        <time>2022-11-07T10:30:01Z</time>
      </trkpt>
      <trkpt lat="48.16646" lon="6.57185">
        <ele>417.2</ele>
        <time>2022-11-07T10:30:02Z</time>
      </trkpt>
      <trkpt lat="48.16642" lon="6.57187">
        <ele>417.2</ele>
        <time>2022-11-07T10:30:05Z</time>
      </trkpt>
      <trkpt lat="48.16638" lon="6.57189">
        <ele>417.2</ele>
        <time>2022-11-07T10:30:10Z</time>
      </trkpt>
      <trkpt lat="48.16637" lon="6.5719">
        <ele>417</ele>
        <time>2022-11-07T10:30:12Z</time>
      </trkpt>
      <trkpt lat="48.16629" lon="6.57193">
        <ele>417.4</ele>
        <time>2022-11-07T10:30:20Z</time>
      </trkpt>
      <trkpt lat="48.16627" lon="6.57194">
        <ele>417.4</ele>
        <time>2022-11-07T10:30:22Z</time>
      </trkpt>
      <trkpt lat="48.16621" lon="6.57196">
        <ele>417.4</ele>
        <time>2022-11-07T10:30:27Z</time>
      </trkpt>
      <trkpt lat="48.1662" lon="6.57196">
        <ele>417.4</ele>
        <time>2022-11-07T10:30:28Z</time>
      </trkpt>
      <trkpt lat="48.16617" lon="6.57198">
        <ele>417.2</ele>
        <time>2022-11-07T10:30:32Z</time>
      </trkpt>
      <trkpt lat="48.16608" lon="6.572">
        <ele>417</ele>
        <time>2022-11-07T10:30:41Z</time>
      </trkpt>
      <trkpt lat="48.16606" lon="6.57201">
        <ele>416.6</ele>
        <time>2022-11-07T10:30:43Z</time>
      </trkpt>
      <trkpt lat="48.16593" lon="6.57204">
        <ele>416.4</ele>
        <time>2022-11-07T10:30:56Z</time>
      </trkpt>
      <trkpt lat="48.16584" lon="6.5721">
        <ele>416.8</ele>
        <time>2022-11-07T10:31:06Z</time>
      </trkpt>
      <trkpt lat="48.16579" lon="6.57215">
        <ele>416</ele>
        <time>2022-11-07T10:31:11Z</time>
      </trkpt>
      <trkpt lat="48.16565" lon="6.57232">
        <ele>416.2</ele>
        <time>2022-11-07T10:31:25Z</time>
      </trkpt>
      <trkpt lat="48.16562" lon="6.57234">
        <ele>416.2</ele>
        <time>2022-11-07T10:31:28Z</time>
      </trkpt>
      <trkpt lat="48.16549" lon="6.57245">
        <ele>416.4</ele>
        <time>2022-11-07T10:31:40Z</time>
      </trkpt>
      <trkpt lat="48.16545" lon="6.57249">
        <ele>416.2</ele>
        <time>2022-11-07T10:31:44Z</time>
      </trkpt>
      <trkpt lat="48.16541" lon="6.57253">
        <ele>415.4</ele>
        <time>2022-11-07T10:31:48Z</time>
      </trkpt>
      <trkpt lat="48.1653" lon="6.57259">
        <ele>415.4</ele>
        <time>2022-11-07T10:31:58Z</time>
      </trkpt>
      <trkpt lat="48.16528" lon="6.5726">
        <ele>415.4</ele>
        <time>2022-11-07T10:32:00Z</time>
      </trkpt>
      <trkpt lat="48.16519" lon="6.57264">
        <ele>415.8</ele>
        <time>2022-11-07T10:32:08Z</time>
      </trkpt>
      <trkpt lat="48.16514" lon="6.57267">
        <ele>415.8</ele>
        <time>2022-11-07T10:32:12Z</time>
      </trkpt>
      <trkpt lat="48.16507" lon="6.57271">
        <ele>415.2</ele>
        <time>2022-11-07T10:32:19Z</time>
      </trkpt>
      <trkpt lat="48.16498" lon="6.57273">
        <ele>415.4</ele>
        <time>2022-11-07T10:32:28Z</time>
      </trkpt>
      <trkpt lat="48.16495" lon="6.57273">
        <ele>415.4</ele>
        <time>2022-11-07T10:32:32Z</time>
      </trkpt>
      <trkpt lat="48.16492" lon="6.57274">
        <ele>415.4</ele>
        <time>2022-11-07T10:32:34Z</time>
      </trkpt>
      <trkpt lat="48.16489" lon="6.57276">
        <ele>415.2</ele>
        <time>2022-11-07T10:32:37Z</time>
      </trkpt>
      <trkpt lat="48.16488" lon="6.57277">
        <ele>415.2</ele>
        <time>2022-11-07T10:32:39Z</time>
      </trkpt>
      <trkpt lat="48.16486" lon="6.57278">
        <ele>415.2</ele>
        <time>2022-11-07T10:32:42Z</time>
      </trkpt>
      <trkpt lat="48.1648" lon="6.5728">
        <ele>415.4</ele>
        <time>2022-11-07T10:32:47Z</time>
      </trkpt>
      <trkpt lat="48.16475" lon="6.57282">
        <ele>415.2</ele>
        <time>2022-11-07T10:32:53Z</time>
      </trkpt>
      <trkpt lat="48.1647" lon="6.57284">
        <ele>415.6</ele>
        <time>2022-11-07T10:32:58Z</time>
      </trkpt>
      <trkpt lat="48.16463" lon="6.57288">
        <ele>415.4</ele>
        <time>2022-11-07T10:33:04Z</time>
      </trkpt>
      <trkpt lat="48.16459" lon="6.57291">
        <ele>415.4</ele>
        <time>2022-11-07T10:33:08Z</time>
      </trkpt>
      <trkpt lat="48.16455" lon="6.57294">
        <ele>415.4</ele>
        <time>2022-11-07T10:33:12Z</time>
      </trkpt>
      <trkpt lat="48.16454" lon="6.57295">
        <ele>415.4</ele>
        <time>2022-11-07T10:33:13Z</time>
      </trkpt>
      <trkpt lat="48.16447" lon="6.57303">
        <ele>415.2</ele>
        <time>2022-11-07T10:33:19Z</time>
      </trkpt>
      <trkpt lat="48.16439" lon="6.57311">
        <ele>414.8</ele>
        <time>2022-11-07T10:33:27Z</time>
      </trkpt>
      <trkpt lat="48.16425" lon="6.57323">
        <ele>414.8</ele>
        <time>2022-11-07T10:33:43Z</time>
      </trkpt>
      <trkpt lat="48.16421" lon="6.57324">
        <ele>414.2</ele>
        <time>2022-11-07T10:33:47Z</time>
      </trkpt>
      <trkpt lat="48.16467" lon="6.5736">
        <ele>412</ele>
      </trkpt>
      <trkpt lat="48.16508" lon="6.57387">
        <ele>410.7</ele>
      </trkpt>
      <trkpt lat="48.16543" lon="6.57408">
        <ele>409.5</ele>
      </trkpt>
      <trkpt lat="48.16577" lon="6.57418">
        <ele>409</ele>
      </trkpt>
      <trkpt lat="48.16599" lon="6.5743">
        <ele>408.8</ele>
      </trkpt>
      <trkpt lat="48.16653" lon="6.57474">
        <ele>411</ele>
      </trkpt>
      <trkpt lat="48.16678" lon="6.57494">
        <ele>411.9</ele>
      </trkpt>
      <trkpt lat="48.16687" lon="6.57503">
        <ele>412.4</ele>
      </trkpt>
      <trkpt lat="48.16672" lon="6.57326">
        <ele>414.6</ele>
        <time>2022-11-07T08:43:21Z</time>
        <extensions>
          <visugpx:TrkExtension xmlns:visugpx="https://www.visugpx.com/editgpx/">
            <visugpx:node>1</visugpx:node>
            </visugpx:TrkExtension>
        </extensions>
      </trkpt>
    </trkseg>
  </trk>
  <trk>
    <name><![CDATA[Marche Beaujolais]]></name>
    <extensions>
      <line xmlns="http://www.topografix.com/GPX/gpx_style/0/2">
        <color>001eff</color>
        <width>4</width>
      </line>
    </extensions>
    <trkseg>
      <trkpt lat="48.16418" lon="6.57327">
        <ele>413</ele>
        <extensions>
          <visugpx:TrkExtension xmlns:visugpx="https://www.visugpx.com/editgpx/">
            <visugpx:node>1</visugpx:node>
            </visugpx:TrkExtension>
        </extensions>
      </trkpt>
      <trkpt lat="48.16402" lon="6.57318">
        <ele>412.8</ele>
      </trkpt>
      <trkpt lat="48.16375" lon="6.57312">
        <ele>412.4</ele>
      </trkpt>
      <trkpt lat="48.1635" lon="6.57323">
        <ele>411.8</ele>
      </trkpt>
      <trkpt lat="48.16334" lon="6.57342">
        <ele>410.7</ele>
      </trkpt>
      <trkpt lat="48.16303" lon="6.57372">
        <ele>408.5</ele>
      </trkpt>
      <trkpt lat="48.16284" lon="6.574">
        <ele>406.4</ele>
      </trkpt>
      <trkpt lat="48.16253" lon="6.5745">
        <ele>404.1</ele>
      </trkpt>
      <trkpt lat="48.16229" lon="6.57493">
        <ele>402.5</ele>
      </trkpt>
      <trkpt lat="48.16207" lon="6.57531">
        <ele>400.8</ele>
      </trkpt>
      <trkpt lat="48.16177" lon="6.57573">
        <ele>399.4</ele>
      </trkpt>
      <trkpt lat="48.16155" lon="6.57597">
        <ele>398.6</ele>
      </trkpt>
      <trkpt lat="48.16126" lon="6.57614">
        <ele>397.9</ele>
      </trkpt>
    </trkseg>
  </trk>
</gpx>